<?xml version="1.0" encoding="utf-8"?>
<gpx xmlns:xsi="http://www.w3.org/2001/XMLSchema-instance" xmlns:xsd="http://www.w3.org/2001/XMLSchema" version="1.1" creator="Shapelink.com" xmlns="http://www.topografix.com/GPX/1/1" xmlns:gpxtpx="http://www.garmin.com/xmlschemas/TrackPointExtension/v1">
  <metadata>
    <name>Langrenn Classic 15.40 km, 2012-01-15</name>
    <desc></desc>
    <author><name>Andreas Falk-Larssen</name></author> 
    <time>2012-01-15T12:19:42Z</time>
  </metadata>
  <trk>
    <name>Langrenn Classic 15.40 km, 2012-01-15</name>
    <trkseg>
      <trkpt lat="63.3907491714" lon="13.15016957">
        <ele>472.8</ele>
        <time>2012-01-15T12:19:42Z</time>
      </trkpt>
      <trkpt lat="63.3908136282" lon="13.1502306741">
        <ele>474.6</ele>
        <time>2012-01-15T12:19:45Z</time>
      </trkpt>
      <trkpt lat="63.3908333257" lon="13.1502093002">
        <ele>474.4</ele>
        <time>2012-01-15T12:19:46Z</time>
      </trkpt>
      <trkpt lat="63.3909033146" lon="13.1500123255">
        <ele>471</ele>
        <time>2012-01-15T12:19:50Z</time>
      </trkpt>
      <trkpt lat="63.3909839485" lon="13.1498658098">
        <ele>469.4</ele>
        <time>2012-01-15T12:19:53Z</time>
      </trkpt>
      <trkpt lat="63.3910908177" lon="13.1497274246">
        <ele>468.2</ele>
        <time>2012-01-15T12:19:56Z</time>
      </trkpt>
      <trkpt lat="63.391191652" lon="13.1495078187">
        <ele>467.2</ele>
        <time>2012-01-15T12:20:01Z</time>
      </trkpt>
      <trkpt lat="63.3912038896" lon="13.1493208185">
        <ele>465.6</ele>
        <time>2012-01-15T12:20:05Z</time>
      </trkpt>
      <trkpt lat="63.3912346512" lon="13.1490050722">
        <ele>464.8</ele>
        <time>2012-01-15T12:20:10Z</time>
      </trkpt>
      <trkpt lat="63.3912942465" lon="13.1488288846">
        <ele>461.6</ele>
        <time>2012-01-15T12:20:14Z</time>
      </trkpt>
      <trkpt lat="63.3913126867" lon="13.1487863045">
        <ele>460.6</ele>
        <time>2012-01-15T12:20:16Z</time>
      </trkpt>
      <trkpt lat="63.3913364075" lon="13.1487909984">
        <ele>460.8</ele>
        <time>2012-01-15T12:20:18Z</time>
      </trkpt>
      <trkpt lat="63.3913725335" lon="13.1487101968">
        <ele>459</ele>
        <time>2012-01-15T12:20:22Z</time>
      </trkpt>
      <trkpt lat="63.391370941" lon="13.1486838777">
        <ele>458.8</ele>
        <time>2012-01-15T12:20:23Z</time>
      </trkpt>
      <trkpt lat="63.3913984336" lon="13.1486070994">
        <ele>454.6</ele>
        <time>2012-01-15T12:20:26Z</time>
      </trkpt>
      <trkpt lat="63.3914094139" lon="13.148609614">
        <ele>454</ele>
        <time>2012-01-15T12:20:27Z</time>
      </trkpt>
      <trkpt lat="63.3914224058" lon="13.1485112105">
        <ele>449.6</ele>
        <time>2012-01-15T12:20:31Z</time>
      </trkpt>
      <trkpt lat="63.391452916" lon="13.1484643556">
        <ele>450.6</ele>
        <time>2012-01-15T12:20:33Z</time>
      </trkpt>
      <trkpt lat="63.391484851" lon="13.1483348552">
        <ele>449.2</ele>
        <time>2012-01-15T12:20:36Z</time>
      </trkpt>
      <trkpt lat="63.3915291913" lon="13.1480521336">
        <ele>445.2</ele>
        <time>2012-01-15T12:20:41Z</time>
      </trkpt>
      <trkpt lat="63.3915137686" lon="13.1477890257">
        <ele>438.6</ele>
        <time>2012-01-15T12:20:46Z</time>
      </trkpt>
      <trkpt lat="63.3915203903" lon="13.1476650573">
        <ele>435.4</ele>
        <time>2012-01-15T12:20:49Z</time>
      </trkpt>
      <trkpt lat="63.3915281016" lon="13.1475787237">
        <ele>433.6</ele>
        <time>2012-01-15T12:20:51Z</time>
      </trkpt>
      <trkpt lat="63.3915636409" lon="13.1474949885">
        <ele>431.2</ele>
        <time>2012-01-15T12:20:54Z</time>
      </trkpt>
      <trkpt lat="63.3916001022" lon="13.1474107504">
        <ele>430.2</ele>
        <time>2012-01-15T12:20:57Z</time>
      </trkpt>
      <trkpt lat="63.3916819096" lon="13.1472130213">
        <ele>428.6</ele>
        <time>2012-01-15T12:21:03Z</time>
      </trkpt>
      <trkpt lat="63.3918135893" lon="13.1470100954">
        <ele>430.4</ele>
        <time>2012-01-15T12:21:08Z</time>
      </trkpt>
      <trkpt lat="63.3919685706" lon="13.1468484923">
        <ele>427.4</ele>
        <time>2012-01-15T12:21:12Z</time>
      </trkpt>
      <trkpt lat="63.3921217918" lon="13.1466701254">
        <ele>423.2</ele>
        <time>2012-01-15T12:21:17Z</time>
      </trkpt>
      <trkpt lat="63.3922770247" lon="13.1465542875">
        <ele>424.8</ele>
        <time>2012-01-15T12:21:21Z</time>
      </trkpt>
      <trkpt lat="63.392455643" lon="13.1464105379">
        <ele>425.6</ele>
        <time>2012-01-15T12:21:26Z</time>
      </trkpt>
      <trkpt lat="63.3925879933" lon="13.1463010702">
        <ele>430.4</ele>
        <time>2012-01-15T12:21:31Z</time>
      </trkpt>
      <trkpt lat="63.3927247021" lon="13.1462869886">
        <ele>436.6</ele>
        <time>2012-01-15T12:21:35Z</time>
      </trkpt>
      <trkpt lat="63.3929007221" lon="13.1461028382">
        <ele>445.8</ele>
        <time>2012-01-15T12:21:40Z</time>
      </trkpt>
      <trkpt lat="63.3930877224" lon="13.1458459329">
        <ele>463.6</ele>
        <time>2012-01-15T12:21:44Z</time>
      </trkpt>
      <trkpt lat="63.3931210823" lon="13.1457872596">
        <ele>467.6</ele>
        <time>2012-01-15T12:21:45Z</time>
      </trkpt>
      <trkpt lat="63.3933076635" lon="13.1455954816">
        <ele>498.8</ele>
        <time>2012-01-15T12:21:49Z</time>
      </trkpt>
      <trkpt lat="63.3933481481" lon="13.1455492973">
        <ele>506</ele>
        <time>2012-01-15T12:21:50Z</time>
      </trkpt>
      <trkpt lat="63.393483432" lon="13.1453918014">
        <ele>527.4</ele>
        <time>2012-01-15T12:21:54Z</time>
      </trkpt>
      <trkpt lat="63.393546883" lon="13.1453180406">
        <ele>539.6</ele>
        <time>2012-01-15T12:21:56Z</time>
      </trkpt>
      <trkpt lat="63.3936223201" lon="13.1452303659">
        <ele>548.8</ele>
        <time>2012-01-15T12:21:58Z</time>
      </trkpt>
      <trkpt lat="63.3936560154" lon="13.1452055555">
        <ele>551.8</ele>
        <time>2012-01-15T12:21:59Z</time>
      </trkpt>
      <trkpt lat="63.3938222285" lon="13.1450916454">
        <ele>561.2</ele>
        <time>2012-01-15T12:22:04Z</time>
      </trkpt>
      <trkpt lat="63.3940000087" lon="13.1451016199">
        <ele>564.6</ele>
        <time>2012-01-15T12:22:09Z</time>
      </trkpt>
      <trkpt lat="63.3941805549" lon="13.1452125125">
        <ele>564.8</ele>
        <time>2012-01-15T12:22:12Z</time>
      </trkpt>
      <trkpt lat="63.3942359593" lon="13.1452928949">
        <ele>564.8</ele>
        <time>2012-01-15T12:22:13Z</time>
      </trkpt>
      <trkpt lat="63.3943884261" lon="13.1455145963">
        <ele>565.8</ele>
        <time>2012-01-15T12:22:16Z</time>
      </trkpt>
      <trkpt lat="63.3945720736" lon="13.1458230503">
        <ele>566.2</ele>
        <time>2012-01-15T12:22:20Z</time>
      </trkpt>
      <trkpt lat="63.3946044277" lon="13.1458571646">
        <ele>566.2</ele>
        <time>2012-01-15T12:22:21Z</time>
      </trkpt>
      <trkpt lat="63.3947115485" lon="13.1459655426">
        <ele>566.4</ele>
        <time>2012-01-15T12:22:25Z</time>
      </trkpt>
      <trkpt lat="63.3948330022" lon="13.1459808815">
        <ele>565.6</ele>
        <time>2012-01-15T12:22:29Z</time>
      </trkpt>
      <trkpt lat="63.3949374408" lon="13.1459457614">
        <ele>566</ele>
        <time>2012-01-15T12:22:34Z</time>
      </trkpt>
      <trkpt lat="63.3949402906" lon="13.1459507067">
        <ele>566</ele>
        <time>2012-01-15T12:22:35Z</time>
      </trkpt>
      <trkpt lat="63.3949787635" lon="13.1459205318">
        <ele>567</ele>
        <time>2012-01-15T12:22:38Z</time>
      </trkpt>
      <trkpt lat="63.3950527757" lon="13.1457895227">
        <ele>566.8</ele>
        <time>2012-01-15T12:22:42Z</time>
      </trkpt>
      <trkpt lat="63.3951396123" lon="13.1455897819">
        <ele>568.6</ele>
        <time>2012-01-15T12:22:46Z</time>
      </trkpt>
      <trkpt lat="63.3951625787" lon="13.1455446035">
        <ele>568.8</ele>
        <time>2012-01-15T12:22:47Z</time>
      </trkpt>
      <trkpt lat="63.3952495828" lon="13.1454088166">
        <ele>570.6</ele>
        <time>2012-01-15T12:22:51Z</time>
      </trkpt>
      <trkpt lat="63.3953536022" lon="13.1453723554">
        <ele>571.2</ele>
        <time>2012-01-15T12:22:56Z</time>
      </trkpt>
      <trkpt lat="63.395420406" lon="13.1453538314">
        <ele>572.4</ele>
        <time>2012-01-15T12:23:00Z</time>
      </trkpt>
      <trkpt lat="63.3955110144" lon="13.1453561783">
        <ele>574.4</ele>
        <time>2012-01-15T12:23:05Z</time>
      </trkpt>
      <trkpt lat="63.3956286125" lon="13.1454171985">
        <ele>574</ele>
        <time>2012-01-15T12:23:10Z</time>
      </trkpt>
      <trkpt lat="63.3957291115" lon="13.1455544941">
        <ele>572.8</ele>
        <time>2012-01-15T12:23:15Z</time>
      </trkpt>
      <trkpt lat="63.3958092425" lon="13.1456772052">
        <ele>571.6</ele>
        <time>2012-01-15T12:23:19Z</time>
      </trkpt>
      <trkpt lat="63.3959166985" lon="13.1458347011">
        <ele>572.4</ele>
        <time>2012-01-15T12:23:23Z</time>
      </trkpt>
      <trkpt lat="63.3960434329" lon="13.1459970586">
        <ele>574.2</ele>
        <time>2012-01-15T12:23:28Z</time>
      </trkpt>
      <trkpt lat="63.3961644676" lon="13.1460647844">
        <ele>575.8</ele>
        <time>2012-01-15T12:23:33Z</time>
      </trkpt>
      <trkpt lat="63.3962627035" lon="13.1461317558">
        <ele>576.2</ele>
        <time>2012-01-15T12:23:38Z</time>
      </trkpt>
      <trkpt lat="63.3963933773" lon="13.1462658662">
        <ele>577.4</ele>
        <time>2012-01-15T12:23:43Z</time>
      </trkpt>
      <trkpt lat="63.3964222111" lon="13.1462890003">
        <ele>577.4</ele>
        <time>2012-01-15T12:23:44Z</time>
      </trkpt>
      <trkpt lat="63.3964630309" lon="13.146356307">
        <ele>577.8</ele>
        <time>2012-01-15T12:23:47Z</time>
      </trkpt>
      <trkpt lat="63.3965170942" lon="13.1465029065">
        <ele>577.8</ele>
        <time>2012-01-15T12:23:50Z</time>
      </trkpt>
      <trkpt lat="63.3965452574" lon="13.1465808582">
        <ele>578.6</ele>
        <time>2012-01-15T12:23:52Z</time>
      </trkpt>
      <trkpt lat="63.3965571597" lon="13.1466047466">
        <ele>576.8</ele>
        <time>2012-01-15T12:23:53Z</time>
      </trkpt>
      <trkpt lat="63.3965968061" lon="13.1467312295">
        <ele>576.6</ele>
        <time>2012-01-15T12:23:56Z</time>
      </trkpt>
      <trkpt lat="63.396688085" lon="13.1468870491">
        <ele>577.2</ele>
        <time>2012-01-15T12:24:00Z</time>
      </trkpt>
      <trkpt lat="63.396833092" lon="13.1471172161">
        <ele>576.4</ele>
        <time>2012-01-15T12:24:04Z</time>
      </trkpt>
      <trkpt lat="63.397026211" lon="13.1473703496">
        <ele>573</ele>
        <time>2012-01-15T12:24:08Z</time>
      </trkpt>
      <trkpt lat="63.3970815316" lon="13.1474062242">
        <ele>572.6</ele>
        <time>2012-01-15T12:24:09Z</time>
      </trkpt>
      <trkpt lat="63.3971269615" lon="13.1474332139">
        <ele>572</ele>
        <time>2012-01-15T12:24:10Z</time>
      </trkpt>
      <trkpt lat="63.3972921688" lon="13.1474446971">
        <ele>569</ele>
        <time>2012-01-15T12:24:14Z</time>
      </trkpt>
      <trkpt lat="63.3973285463" lon="13.1474265922">
        <ele>568.6</ele>
        <time>2012-01-15T12:24:15Z</time>
      </trkpt>
      <trkpt lat="63.3974272851" lon="13.1473882869">
        <ele>569.2</ele>
        <time>2012-01-15T12:24:18Z</time>
      </trkpt>
      <trkpt lat="63.3974581305" lon="13.1473529153">
        <ele>569.2</ele>
        <time>2012-01-15T12:24:19Z</time>
      </trkpt>
      <trkpt lat="63.3975399379" lon="13.1473101676">
        <ele>570.8</ele>
        <time>2012-01-15T12:24:22Z</time>
      </trkpt>
      <trkpt lat="63.3976042271" lon="13.1473265961">
        <ele>572.2</ele>
        <time>2012-01-15T12:24:26Z</time>
      </trkpt>
      <trkpt lat="63.3977309614" lon="13.1474384945">
        <ele>572.8</ele>
        <time>2012-01-15T12:24:31Z</time>
      </trkpt>
      <trkpt lat="63.3978437819" lon="13.1476979144">
        <ele>571.2</ele>
        <time>2012-01-15T12:24:34Z</time>
      </trkpt>
      <trkpt lat="63.3980068099" lon="13.1480911095">
        <ele>567.8</ele>
        <time>2012-01-15T12:24:38Z</time>
      </trkpt>
      <trkpt lat="63.3980581071" lon="13.1481900997">
        <ele>567.4</ele>
        <time>2012-01-15T12:24:39Z</time>
      </trkpt>
      <trkpt lat="63.3981839195" lon="13.1484784372">
        <ele>566.4</ele>
        <time>2012-01-15T12:24:42Z</time>
      </trkpt>
      <trkpt lat="63.3982229792" lon="13.1485811155">
        <ele>566.4</ele>
        <time>2012-01-15T12:24:43Z</time>
      </trkpt>
      <trkpt lat="63.3983021043" lon="13.1487602368">
        <ele>566.4</ele>
        <time>2012-01-15T12:24:45Z</time>
      </trkpt>
      <trkpt lat="63.3984218817" lon="13.1490157172">
        <ele>564.6</ele>
        <time>2012-01-15T12:24:48Z</time>
      </trkpt>
      <trkpt lat="63.3985135797" lon="13.1491980236">
        <ele>565.8</ele>
        <time>2012-01-15T12:24:51Z</time>
      </trkpt>
      <trkpt lat="63.3985620271" lon="13.1493012886">
        <ele>566</ele>
        <time>2012-01-15T12:24:53Z</time>
      </trkpt>
      <trkpt lat="63.398634363" lon="13.1494381651">
        <ele>568</ele>
        <time>2012-01-15T12:24:56Z</time>
      </trkpt>
      <trkpt lat="63.3986743446" lon="13.1495216489">
        <ele>567.4</ele>
        <time>2012-01-15T12:24:58Z</time>
      </trkpt>
      <trkpt lat="63.398747351" lon="13.1496612076">
        <ele>567.4</ele>
        <time>2012-01-15T12:25:02Z</time>
      </trkpt>
      <trkpt lat="63.3988294937" lon="13.149799509">
        <ele>567.4</ele>
        <time>2012-01-15T12:25:06Z</time>
      </trkpt>
      <trkpt lat="63.3988546394" lon="13.1498448551">
        <ele>568</ele>
        <time>2012-01-15T12:25:07Z</time>
      </trkpt>
      <trkpt lat="63.398918258" lon="13.1499952264">
        <ele>570.2</ele>
        <time>2012-01-15T12:25:11Z</time>
      </trkpt>
      <trkpt lat="63.3989331778" lon="13.1500057038">
        <ele>571</ele>
        <time>2012-01-15T12:25:12Z</time>
      </trkpt>
      <trkpt lat="63.3989639394" lon="13.1501414068">
        <ele>571.2</ele>
        <time>2012-01-15T12:25:15Z</time>
      </trkpt>
      <trkpt lat="63.3989711478" lon="13.1502002478">
        <ele>571</ele>
        <time>2012-01-15T12:25:16Z</time>
      </trkpt>
      <trkpt lat="63.3989691362" lon="13.1505169161">
        <ele>571.2</ele>
        <time>2012-01-15T12:25:20Z</time>
      </trkpt>
      <trkpt lat="63.3989827987" lon="13.1508369371">
        <ele>573.2</ele>
        <time>2012-01-15T12:25:24Z</time>
      </trkpt>
      <trkpt lat="63.3989379555" lon="13.1512983609">
        <ele>574.2</ele>
        <time>2012-01-15T12:25:28Z</time>
      </trkpt>
      <trkpt lat="63.3989328425" lon="13.1514681783">
        <ele>574</ele>
        <time>2012-01-15T12:25:29Z</time>
      </trkpt>
      <trkpt lat="63.3989180904" lon="13.151958352">
        <ele>571.4</ele>
        <time>2012-01-15T12:25:32Z</time>
      </trkpt>
      <trkpt lat="63.3988384623" lon="13.1523953006">
        <ele>567.4</ele>
        <time>2012-01-15T12:25:34Z</time>
      </trkpt>
      <trkpt lat="63.3988188487" lon="13.1526111346">
        <ele>566</ele>
        <time>2012-01-15T12:25:35Z</time>
      </trkpt>
      <trkpt lat="63.3987773582" lon="13.1528776791">
        <ele>566.4</ele>
        <time>2012-01-15T12:25:36Z</time>
      </trkpt>
      <trkpt lat="63.398766797" lon="13.1532974448">
        <ele>566.4</ele>
        <time>2012-01-15T12:25:38Z</time>
      </trkpt>
      <trkpt lat="63.3987755142" lon="13.1534692738">
        <ele>564.2</ele>
        <time>2012-01-15T12:25:39Z</time>
      </trkpt>
      <trkpt lat="63.3988082875" lon="13.1538968347">
        <ele>564.6</ele>
        <time>2012-01-15T12:25:42Z</time>
      </trkpt>
      <trkpt lat="63.398836283" lon="13.1541322824">
        <ele>563.4</ele>
        <time>2012-01-15T12:25:44Z</time>
      </trkpt>
      <trkpt lat="63.3988646138" lon="13.1543860026">
        <ele>562</ele>
        <time>2012-01-15T12:25:46Z</time>
      </trkpt>
      <trkpt lat="63.3988777734" lon="13.1546772737">
        <ele>561.2</ele>
        <time>2012-01-15T12:25:48Z</time>
      </trkpt>
      <trkpt lat="63.3988879994" lon="13.1550780963">
        <ele>560</ele>
        <time>2012-01-15T12:25:51Z</time>
      </trkpt>
      <trkpt lat="63.3988956269" lon="13.1553298049">
        <ele>559.4</ele>
        <time>2012-01-15T12:25:53Z</time>
      </trkpt>
      <trkpt lat="63.3989266399" lon="13.1558110099">
        <ele>558.6</ele>
        <time>2012-01-15T12:25:57Z</time>
      </trkpt>
      <trkpt lat="63.3989506122" lon="13.1559247524">
        <ele>559.4</ele>
        <time>2012-01-15T12:25:58Z</time>
      </trkpt>
      <trkpt lat="63.3990118839" lon="13.1561553385">
        <ele>558.8</ele>
        <time>2012-01-15T12:26:00Z</time>
      </trkpt>
      <trkpt lat="63.3990898356" lon="13.1563752797">
        <ele>558</ele>
        <time>2012-01-15T12:26:02Z</time>
      </trkpt>
      <trkpt lat="63.3991796058" lon="13.1565550715">
        <ele>557</ele>
        <time>2012-01-15T12:26:04Z</time>
      </trkpt>
      <trkpt lat="63.3992427215" lon="13.1567519624">
        <ele>555.6</ele>
        <time>2012-01-15T12:26:06Z</time>
      </trkpt>
      <trkpt lat="63.3992927615" lon="13.1569394656">
        <ele>554</ele>
        <time>2012-01-15T12:26:08Z</time>
      </trkpt>
      <trkpt lat="63.3993208408" lon="13.1571432296">
        <ele>552.6</ele>
        <time>2012-01-15T12:26:10Z</time>
      </trkpt>
      <trkpt lat="63.3993444778" lon="13.1576558668">
        <ele>549.6</ele>
        <time>2012-01-15T12:26:14Z</time>
      </trkpt>
      <trkpt lat="63.3994149696" lon="13.1580632273">
        <ele>549.4</ele>
        <time>2012-01-15T12:26:18Z</time>
      </trkpt>
      <trkpt lat="63.3994286321" lon="13.1581533328">
        <ele>550.2</ele>
        <time>2012-01-15T12:26:19Z</time>
      </trkpt>
      <trkpt lat="63.3995054942" lon="13.1585826539">
        <ele>547.2</ele>
        <time>2012-01-15T12:26:24Z</time>
      </trkpt>
      <trkpt lat="63.3995209169" lon="13.1586878467">
        <ele>546.8</ele>
        <time>2012-01-15T12:26:25Z</time>
      </trkpt>
      <trkpt lat="63.3995996229" lon="13.1589729153">
        <ele>545</ele>
        <time>2012-01-15T12:26:29Z</time>
      </trkpt>
      <trkpt lat="63.3996860404" lon="13.1592335925">
        <ele>543.8</ele>
        <time>2012-01-15T12:26:34Z</time>
      </trkpt>
      <trkpt lat="63.3997568674" lon="13.1595817767">
        <ele>545.6</ele>
        <time>2012-01-15T12:26:39Z</time>
      </trkpt>
      <trkpt lat="63.3998318017" lon="13.159984611">
        <ele>544.4</ele>
        <time>2012-01-15T12:26:44Z</time>
      </trkpt>
      <trkpt lat="63.3998475596" lon="13.1601742934">
        <ele>544.4</ele>
        <time>2012-01-15T12:26:46Z</time>
      </trkpt>
      <trkpt lat="63.3998595458" lon="13.1605773792">
        <ele>542</ele>
        <time>2012-01-15T12:26:50Z</time>
      </trkpt>
      <trkpt lat="63.3998551872" lon="13.1607054546">
        <ele>542.2</ele>
        <time>2012-01-15T12:26:51Z</time>
      </trkpt>
      <trkpt lat="63.3998504933" lon="13.1610823888">
        <ele>542.2</ele>
        <time>2012-01-15T12:26:54Z</time>
      </trkpt>
      <trkpt lat="63.3998494875" lon="13.1612377055">
        <ele>543</ele>
        <time>2012-01-15T12:26:55Z</time>
      </trkpt>
      <trkpt lat="63.3998619765" lon="13.1615210138">
        <ele>543.2</ele>
        <time>2012-01-15T12:26:57Z</time>
      </trkpt>
      <trkpt lat="63.3998861164" lon="13.1618307251">
        <ele>543.6</ele>
        <time>2012-01-15T12:26:59Z</time>
      </trkpt>
      <trkpt lat="63.399903886" lon="13.1619640812">
        <ele>544.2</ele>
        <time>2012-01-15T12:27:00Z</time>
      </trkpt>
      <trkpt lat="63.399959961" lon="13.1623418536">
        <ele>545.6</ele>
        <time>2012-01-15T12:27:03Z</time>
      </trkpt>
      <trkpt lat="63.3999996074" lon="13.1624457892">
        <ele>545.8</ele>
        <time>2012-01-15T12:27:04Z</time>
      </trkpt>
      <trkpt lat="63.4000395052" lon="13.162758518">
        <ele>546.8</ele>
        <time>2012-01-15T12:27:07Z</time>
      </trkpt>
      <trkpt lat="63.4001199715" lon="13.163226312">
        <ele>544.4</ele>
        <time>2012-01-15T12:27:12Z</time>
      </trkpt>
      <trkpt lat="63.4001348913" lon="13.1633145735">
        <ele>543.8</ele>
        <time>2012-01-15T12:27:13Z</time>
      </trkpt>
      <trkpt lat="63.4001705144" lon="13.163610287">
        <ele>543.8</ele>
        <time>2012-01-15T12:27:16Z</time>
      </trkpt>
      <trkpt lat="63.400204042" lon="13.1638168171">
        <ele>544</ele>
        <time>2012-01-15T12:27:18Z</time>
      </trkpt>
      <trkpt lat="63.4002297744" lon="13.1638920866">
        <ele>543.8</ele>
        <time>2012-01-15T12:27:19Z</time>
      </trkpt>
      <trkpt lat="63.4002814069" lon="13.1640709564">
        <ele>543.4</ele>
        <time>2012-01-15T12:27:21Z</time>
      </trkpt>
      <trkpt lat="63.4003130905" lon="13.1641784124">
        <ele>543</ele>
        <time>2012-01-15T12:27:22Z</time>
      </trkpt>
      <trkpt lat="63.4003878571" lon="13.1644964218">
        <ele>541.8</ele>
        <time>2012-01-15T12:27:25Z</time>
      </trkpt>
      <trkpt lat="63.4004102368" lon="13.164581079">
        <ele>541</ele>
        <time>2012-01-15T12:27:26Z</time>
      </trkpt>
      <trkpt lat="63.4004641324" lon="13.1648852583">
        <ele>539.6</ele>
        <time>2012-01-15T12:27:29Z</time>
      </trkpt>
      <trkpt lat="63.4004912898" lon="13.1649915408">
        <ele>539</ele>
        <time>2012-01-15T12:27:30Z</time>
      </trkpt>
      <trkpt lat="63.4005740192" lon="13.1654221192">
        <ele>537.6</ele>
        <time>2012-01-15T12:27:34Z</time>
      </trkpt>
      <trkpt lat="63.4005948063" lon="13.1655201036">
        <ele>537.8</ele>
        <time>2012-01-15T12:27:35Z</time>
      </trkpt>
      <trkpt lat="63.4006327763" lon="13.1657032482">
        <ele>536.2</ele>
        <time>2012-01-15T12:27:37Z</time>
      </trkpt>
      <trkpt lat="63.4007085487" lon="13.1660020631">
        <ele>535.6</ele>
        <time>2012-01-15T12:27:40Z</time>
      </trkpt>
      <trkpt lat="63.4007678088" lon="13.1661621574">
        <ele>534.6</ele>
        <time>2012-01-15T12:27:42Z</time>
      </trkpt>
      <trkpt lat="63.4008278232" lon="13.1663071644">
        <ele>533.6</ele>
        <time>2012-01-15T12:27:44Z</time>
      </trkpt>
      <trkpt lat="63.40094232" lon="13.1666187197">
        <ele>534.2</ele>
        <time>2012-01-15T12:27:48Z</time>
      </trkpt>
      <trkpt lat="63.4009752609" lon="13.1667051371">
        <ele>533.8</ele>
        <time>2012-01-15T12:27:49Z</time>
      </trkpt>
      <trkpt lat="63.4010429867" lon="13.1670027785">
        <ele>533.8</ele>
        <time>2012-01-15T12:27:52Z</time>
      </trkpt>
      <trkpt lat="63.4010587446" lon="13.1671145931">
        <ele>533.8</ele>
        <time>2012-01-15T12:27:53Z</time>
      </trkpt>
      <trkpt lat="63.401103504" lon="13.1673311815">
        <ele>533.2</ele>
        <time>2012-01-15T12:27:55Z</time>
      </trkpt>
      <trkpt lat="63.401131751" lon="13.1676030066">
        <ele>532.6</ele>
        <time>2012-01-15T12:27:57Z</time>
      </trkpt>
      <trkpt lat="63.4011762589" lon="13.1678485963">
        <ele>532</ele>
        <time>2012-01-15T12:28:00Z</time>
      </trkpt>
      <trkpt lat="63.4012130555" lon="13.1678976305">
        <ele>531.6</ele>
        <time>2012-01-15T12:28:01Z</time>
      </trkpt>
      <trkpt lat="63.4013442323" lon="13.1679427251">
        <ele>531.4</ele>
        <time>2012-01-15T12:28:04Z</time>
      </trkpt>
      <trkpt lat="63.4013977088" lon="13.1679757498">
        <ele>531.4</ele>
        <time>2012-01-15T12:28:05Z</time>
      </trkpt>
      <trkpt lat="63.4014418814" lon="13.1679801084">
        <ele>531.8</ele>
        <time>2012-01-15T12:28:06Z</time>
      </trkpt>
      <trkpt lat="63.4015215095" lon="13.167946497">
        <ele>533</ele>
        <time>2012-01-15T12:28:08Z</time>
      </trkpt>
      <trkpt lat="63.4015834518" lon="13.1679462455">
        <ele>533.6</ele>
        <time>2012-01-15T12:28:10Z</time>
      </trkpt>
      <trkpt lat="63.4016495012" lon="13.1679361034">
        <ele>534.8</ele>
        <time>2012-01-15T12:28:12Z</time>
      </trkpt>
      <trkpt lat="63.4018171392" lon="13.167902492">
        <ele>535.6</ele>
        <time>2012-01-15T12:28:17Z</time>
      </trkpt>
      <trkpt lat="63.4019485675" lon="13.1680719741">
        <ele>536.2</ele>
        <time>2012-01-15T12:28:22Z</time>
      </trkpt>
      <trkpt lat="63.4021058958" lon="13.1683794223">
        <ele>535.4</ele>
        <time>2012-01-15T12:28:27Z</time>
      </trkpt>
      <trkpt lat="63.4022526629" lon="13.1686114334">
        <ele>535.6</ele>
        <time>2012-01-15T12:28:32Z</time>
      </trkpt>
      <trkpt lat="63.40239021" lon="13.168587042">
        <ele>537.2</ele>
        <time>2012-01-15T12:28:37Z</time>
      </trkpt>
      <trkpt lat="63.4024961572" lon="13.1685805041">
        <ele>539.2</ele>
        <time>2012-01-15T12:28:42Z</time>
      </trkpt>
      <trkpt lat="63.4025164414" lon="13.1685938314">
        <ele>539.6</ele>
        <time>2012-01-15T12:28:43Z</time>
      </trkpt>
      <trkpt lat="63.4025789704" lon="13.1687164586">
        <ele>542</ele>
        <time>2012-01-15T12:28:46Z</time>
      </trkpt>
      <trkpt lat="63.4027248994" lon="13.1688183825">
        <ele>542.4</ele>
        <time>2012-01-15T12:28:51Z</time>
      </trkpt>
      <trkpt lat="63.4028678946" lon="13.1688122638">
        <ele>545.2</ele>
        <time>2012-01-15T12:28:56Z</time>
      </trkpt>
      <trkpt lat="63.4030440822" lon="13.168803798">
        <ele>547.8</ele>
        <time>2012-01-15T12:29:01Z</time>
      </trkpt>
      <trkpt lat="63.4031500295" lon="13.168790387">
        <ele>550</ele>
        <time>2012-01-15T12:29:05Z</time>
      </trkpt>
      <trkpt lat="63.4032677114" lon="13.1687344797">
        <ele>552.2</ele>
        <time>2012-01-15T12:29:09Z</time>
      </trkpt>
      <trkpt lat="63.4033732396" lon="13.1687822565">
        <ele>553.2</ele>
        <time>2012-01-15T12:29:13Z</time>
      </trkpt>
      <trkpt lat="63.4034692124" lon="13.1690112501">
        <ele>553</ele>
        <time>2012-01-15T12:29:17Z</time>
      </trkpt>
      <trkpt lat="63.4035478346" lon="13.1692087278">
        <ele>552.2</ele>
        <time>2012-01-15T12:29:21Z</time>
      </trkpt>
      <trkpt lat="63.4036516026" lon="13.1694053672">
        <ele>551.4</ele>
        <time>2012-01-15T12:29:25Z</time>
      </trkpt>
      <trkpt lat="63.4037764091" lon="13.1696322653">
        <ele>548.4</ele>
        <time>2012-01-15T12:29:30Z</time>
      </trkpt>
      <trkpt lat="63.4038888104" lon="13.169904761">
        <ele>545.8</ele>
        <time>2012-01-15T12:29:35Z</time>
      </trkpt>
      <trkpt lat="63.4039567877" lon="13.1701732334">
        <ele>545.2</ele>
        <time>2012-01-15T12:29:39Z</time>
      </trkpt>
      <trkpt lat="63.404048821" lon="13.1704793405">
        <ele>545.2</ele>
        <time>2012-01-15T12:29:43Z</time>
      </trkpt>
      <trkpt lat="63.4041603003" lon="13.1708400976">
        <ele>543.2</ele>
        <time>2012-01-15T12:29:48Z</time>
      </trkpt>
      <trkpt lat="63.4042830952" lon="13.1710871123">
        <ele>541.2</ele>
        <time>2012-01-15T12:29:53Z</time>
      </trkpt>
      <trkpt lat="63.4043927304" lon="13.1712146848">
        <ele>540</ele>
        <time>2012-01-15T12:29:58Z</time>
      </trkpt>
      <trkpt lat="63.4045052994" lon="13.1713420898">
        <ele>540.2</ele>
        <time>2012-01-15T12:30:03Z</time>
      </trkpt>
      <trkpt lat="63.4045512322" lon="13.1715216301">
        <ele>540.4</ele>
        <time>2012-01-15T12:30:07Z</time>
      </trkpt>
      <trkpt lat="63.4046016913" lon="13.1719264761">
        <ele>541.2</ele>
        <time>2012-01-15T12:30:12Z</time>
      </trkpt>
      <trkpt lat="63.4046841692" lon="13.1723297294">
        <ele>542</ele>
        <time>2012-01-15T12:30:16Z</time>
      </trkpt>
      <trkpt lat="63.4047036152" lon="13.1724386942">
        <ele>541.6</ele>
        <time>2012-01-15T12:30:17Z</time>
      </trkpt>
      <trkpt lat="63.4047378972" lon="13.1725249439">
        <ele>541.4</ele>
        <time>2012-01-15T12:30:18Z</time>
      </trkpt>
      <trkpt lat="63.404825069" lon="13.1727491599">
        <ele>542.8</ele>
        <time>2012-01-15T12:30:21Z</time>
      </trkpt>
      <trkpt lat="63.4049558267" lon="13.1729933247">
        <ele>543.8</ele>
        <time>2012-01-15T12:30:25Z</time>
      </trkpt>
      <trkpt lat="63.4049875941" lon="13.1730507407">
        <ele>543.6</ele>
        <time>2012-01-15T12:30:26Z</time>
      </trkpt>
      <trkpt lat="63.405133523" lon="13.1732798181">
        <ele>543.8</ele>
        <time>2012-01-15T12:30:31Z</time>
      </trkpt>
      <trkpt lat="63.40516923" lon="13.1733052153">
        <ele>543.8</ele>
        <time>2012-01-15T12:30:32Z</time>
      </trkpt>
      <trkpt lat="63.4052592516" lon="13.1734425947">
        <ele>544</ele>
        <time>2012-01-15T12:30:35Z</time>
      </trkpt>
      <trkpt lat="63.4053194337" lon="13.1734712608">
        <ele>542.8</ele>
        <time>2012-01-15T12:30:37Z</time>
      </trkpt>
      <trkpt lat="63.4054838028" lon="13.1735154334">
        <ele>542.6</ele>
        <time>2012-01-15T12:30:42Z</time>
      </trkpt>
      <trkpt lat="63.4056076873" lon="13.1734940596">
        <ele>542.4</ele>
        <time>2012-01-15T12:30:46Z</time>
      </trkpt>
      <trkpt lat="63.4057548735" lon="13.1734533235">
        <ele>544</ele>
        <time>2012-01-15T12:30:51Z</time>
      </trkpt>
      <trkpt lat="63.4058795962" lon="13.173458185">
        <ele>543.8</ele>
        <time>2012-01-15T12:30:56Z</time>
      </trkpt>
      <trkpt lat="63.4059859626" lon="13.173582321">
        <ele>545.2</ele>
        <time>2012-01-15T12:31:00Z</time>
      </trkpt>
      <trkpt lat="63.4060908202" lon="13.1737672258">
        <ele>544.8</ele>
        <time>2012-01-15T12:31:04Z</time>
      </trkpt>
      <trkpt lat="63.4061748907" lon="13.1740564015">
        <ele>544.6</ele>
        <time>2012-01-15T12:31:08Z</time>
      </trkpt>
      <trkpt lat="63.4062357433" lon="13.1743412185">
        <ele>545.2</ele>
        <time>2012-01-15T12:31:12Z</time>
      </trkpt>
      <trkpt lat="63.4063395951" lon="13.174700886">
        <ele>545.6</ele>
        <time>2012-01-15T12:31:17Z</time>
      </trkpt>
      <trkpt lat="63.4064463805" lon="13.1751344819">
        <ele>546.8</ele>
        <time>2012-01-15T12:31:23Z</time>
      </trkpt>
      <trkpt lat="63.4065581951" lon="13.1754146051">
        <ele>546.6</ele>
        <time>2012-01-15T12:31:26Z</time>
      </trkpt>
      <trkpt lat="63.4065870289" lon="13.1755396631">
        <ele>546</ele>
        <time>2012-01-15T12:31:27Z</time>
      </trkpt>
      <trkpt lat="63.4066701774" lon="13.1759722531">
        <ele>545.6</ele>
        <time>2012-01-15T12:31:31Z</time>
      </trkpt>
      <trkpt lat="63.4066841751" lon="13.1760719977">
        <ele>545.4</ele>
        <time>2012-01-15T12:31:32Z</time>
      </trkpt>
      <trkpt lat="63.4066909645" lon="13.1761796214">
        <ele>545.8</ele>
        <time>2012-01-15T12:31:33Z</time>
      </trkpt>
      <trkpt lat="63.4066902101" lon="13.1765887421">
        <ele>547</ele>
        <time>2012-01-15T12:31:37Z</time>
      </trkpt>
      <trkpt lat="63.4067010228" lon="13.176837936">
        <ele>546.6</ele>
        <time>2012-01-15T12:31:39Z</time>
      </trkpt>
      <trkpt lat="63.4067394119" lon="13.1770646665">
        <ele>546.8</ele>
        <time>2012-01-15T12:31:41Z</time>
      </trkpt>
      <trkpt lat="63.4067777172" lon="13.1772263534">
        <ele>546</ele>
        <time>2012-01-15T12:31:43Z</time>
      </trkpt>
      <trkpt lat="63.4068249911" lon="13.1773576979">
        <ele>546.4</ele>
        <time>2012-01-15T12:31:45Z</time>
      </trkpt>
      <trkpt lat="63.4069187846" lon="13.177580405">
        <ele>546.4</ele>
        <time>2012-01-15T12:31:49Z</time>
      </trkpt>
      <trkpt lat="63.4070140868" lon="13.1777355541">
        <ele>545.2</ele>
        <time>2012-01-15T12:31:53Z</time>
      </trkpt>
      <trkpt lat="63.4070326108" lon="13.1777677406">
        <ele>545</ele>
        <time>2012-01-15T12:31:54Z</time>
      </trkpt>
      <trkpt lat="63.4071146697" lon="13.1779206265">
        <ele>543.8</ele>
        <time>2012-01-15T12:31:58Z</time>
      </trkpt>
      <trkpt lat="63.4072000813" lon="13.1781031005">
        <ele>541.8</ele>
        <time>2012-01-15T12:32:02Z</time>
      </trkpt>
      <trkpt lat="63.4072873369" lon="13.1782070361">
        <ele>541</ele>
        <time>2012-01-15T12:32:06Z</time>
      </trkpt>
      <trkpt lat="63.4073526319" lon="13.1783325132">
        <ele>540.6</ele>
        <time>2012-01-15T12:32:10Z</time>
      </trkpt>
      <trkpt lat="63.4074418154" lon="13.178592436">
        <ele>540.2</ele>
        <time>2012-01-15T12:32:14Z</time>
      </trkpt>
      <trkpt lat="63.4075636044" lon="13.1790419575">
        <ele>540.2</ele>
        <time>2012-01-15T12:32:19Z</time>
      </trkpt>
      <trkpt lat="63.4076319169" lon="13.17938352">
        <ele>539.6</ele>
        <time>2012-01-15T12:32:23Z</time>
      </trkpt>
      <trkpt lat="63.407636527" lon="13.1794857793">
        <ele>539.8</ele>
        <time>2012-01-15T12:32:24Z</time>
      </trkpt>
      <trkpt lat="63.4076843038" lon="13.1797907129">
        <ele>538.8</ele>
        <time>2012-01-15T12:32:28Z</time>
      </trkpt>
      <trkpt lat="63.4076977987" lon="13.1799907051">
        <ele>539.4</ele>
        <time>2012-01-15T12:32:30Z</time>
      </trkpt>
      <trkpt lat="63.4076929372" lon="13.1800875161">
        <ele>538.8</ele>
        <time>2012-01-15T12:32:31Z</time>
      </trkpt>
      <trkpt lat="63.4076972958" lon="13.1801971514">
        <ele>538.8</ele>
        <time>2012-01-15T12:32:32Z</time>
      </trkpt>
      <trkpt lat="63.4077103715" lon="13.1802994944">
        <ele>538.6</ele>
        <time>2012-01-15T12:32:33Z</time>
      </trkpt>
      <trkpt lat="63.4077129699" lon="13.1806036737">
        <ele>540.4</ele>
        <time>2012-01-15T12:32:36Z</time>
      </trkpt>
      <trkpt lat="63.4077138919" lon="13.1807913445">
        <ele>541.4</ele>
        <time>2012-01-15T12:32:38Z</time>
      </trkpt>
      <trkpt lat="63.4077298176" lon="13.1809733994">
        <ele>541.4</ele>
        <time>2012-01-15T12:32:40Z</time>
      </trkpt>
      <trkpt lat="63.4077381995" lon="13.1810724735">
        <ele>541.4</ele>
        <time>2012-01-15T12:32:41Z</time>
      </trkpt>
      <trkpt lat="63.4077544603" lon="13.1811626628">
        <ele>541.4</ele>
        <time>2012-01-15T12:32:42Z</time>
      </trkpt>
      <trkpt lat="63.4077804442" lon="13.1814994477">
        <ele>540.8</ele>
        <time>2012-01-15T12:32:45Z</time>
      </trkpt>
      <trkpt lat="63.4078176599" lon="13.1817043014">
        <ele>539.8</ele>
        <time>2012-01-15T12:32:47Z</time>
      </trkpt>
      <trkpt lat="63.4078583121" lon="13.1818671618">
        <ele>539.6</ele>
        <time>2012-01-15T12:32:49Z</time>
      </trkpt>
      <trkpt lat="63.4078981262" lon="13.1820007693">
        <ele>539</ele>
        <time>2012-01-15T12:32:51Z</time>
      </trkpt>
      <trkpt lat="63.4079443105" lon="13.1821715925">
        <ele>538.2</ele>
        <time>2012-01-15T12:32:53Z</time>
      </trkpt>
      <trkpt lat="63.407988064" lon="13.1824728381">
        <ele>536.6</ele>
        <time>2012-01-15T12:32:57Z</time>
      </trkpt>
      <trkpt lat="63.4080051631" lon="13.1826251373">
        <ele>536.4</ele>
        <time>2012-01-15T12:32:59Z</time>
      </trkpt>
      <trkpt lat="63.4080211725" lon="13.1828442402">
        <ele>536.6</ele>
        <time>2012-01-15T12:33:02Z</time>
      </trkpt>
      <trkpt lat="63.4080291353" lon="13.1832186598">
        <ele>537.2</ele>
        <time>2012-01-15T12:33:07Z</time>
      </trkpt>
      <trkpt lat="63.4080263693" lon="13.1836038083">
        <ele>536.6</ele>
        <time>2012-01-15T12:33:12Z</time>
      </trkpt>
      <trkpt lat="63.408003822" lon="13.183956435">
        <ele>537</ele>
        <time>2012-01-15T12:33:17Z</time>
      </trkpt>
      <trkpt lat="63.4079104476" lon="13.1842514779">
        <ele>537.8</ele>
        <time>2012-01-15T12:33:21Z</time>
      </trkpt>
      <trkpt lat="63.4077979624" lon="13.184644673">
        <ele>536.2</ele>
        <time>2012-01-15T12:33:25Z</time>
      </trkpt>
      <trkpt lat="63.4077795222" lon="13.1847626902">
        <ele>537.6</ele>
        <time>2012-01-15T12:33:26Z</time>
      </trkpt>
      <trkpt lat="63.4077294823" lon="13.1851184182">
        <ele>538.6</ele>
        <time>2012-01-15T12:33:29Z</time>
      </trkpt>
      <trkpt lat="63.4077380318" lon="13.1852421351">
        <ele>541.4</ele>
        <time>2012-01-15T12:33:30Z</time>
      </trkpt>
      <trkpt lat="63.4076940268" lon="13.185623344">
        <ele>543.8</ele>
        <time>2012-01-15T12:33:34Z</time>
      </trkpt>
      <trkpt lat="63.407628648" lon="13.1857839413">
        <ele>545</ele>
        <time>2012-01-15T12:33:36Z</time>
      </trkpt>
      <trkpt lat="63.4075911809" lon="13.1858605519">
        <ele>545.2</ele>
        <time>2012-01-15T12:33:37Z</time>
      </trkpt>
      <trkpt lat="63.4075616766" lon="13.1859016232">
        <ele>544.8</ele>
        <time>2012-01-15T12:33:38Z</time>
      </trkpt>
      <trkpt lat="63.407458663" lon="13.1861358136">
        <ele>544.2</ele>
        <time>2012-01-15T12:33:42Z</time>
      </trkpt>
      <trkpt lat="63.407422537" lon="13.1862358097">
        <ele>544.6</ele>
        <time>2012-01-15T12:33:43Z</time>
      </trkpt>
      <trkpt lat="63.4073786158" lon="13.1864096504">
        <ele>544.6</ele>
        <time>2012-01-15T12:33:45Z</time>
      </trkpt>
      <trkpt lat="63.4072256461" lon="13.1867346168">
        <ele>545.2</ele>
        <time>2012-01-15T12:33:49Z</time>
      </trkpt>
      <trkpt lat="63.4071913641" lon="13.1867950503">
        <ele>544.6</ele>
        <time>2012-01-15T12:33:50Z</time>
      </trkpt>
      <trkpt lat="63.4071357083" lon="13.1868339423">
        <ele>543.8</ele>
        <time>2012-01-15T12:33:51Z</time>
      </trkpt>
      <trkpt lat="63.4070248157" lon="13.186819274">
        <ele>542</ele>
        <time>2012-01-15T12:33:53Z</time>
      </trkpt>
      <trkpt lat="63.4068114124" lon="13.186796559">
        <ele>538.6</ele>
        <time>2012-01-15T12:33:56Z</time>
      </trkpt>
      <trkpt lat="63.4067420103" lon="13.1868012529">
        <ele>537.2</ele>
        <time>2012-01-15T12:33:57Z</time>
      </trkpt>
      <trkpt lat="63.4065477178" lon="13.1868427433">
        <ele>532</ele>
        <time>2012-01-15T12:34:00Z</time>
      </trkpt>
      <trkpt lat="63.4064096678" lon="13.1871294044">
        <ele>531.4</ele>
        <time>2012-01-15T12:34:02Z</time>
      </trkpt>
      <trkpt lat="63.4063593764" lon="13.1875556242">
        <ele>529</ele>
        <time>2012-01-15T12:34:05Z</time>
      </trkpt>
      <trkpt lat="63.4063939098" lon="13.1880571134">
        <ele>530</ele>
        <time>2012-01-15T12:34:08Z</time>
      </trkpt>
      <trkpt lat="63.4064691793" lon="13.188388031">
        <ele>530.8</ele>
        <time>2012-01-15T12:34:11Z</time>
      </trkpt>
      <trkpt lat="63.4064898826" lon="13.1887109857">
        <ele>530.4</ele>
        <time>2012-01-15T12:34:14Z</time>
      </trkpt>
      <trkpt lat="63.4064815007" lon="13.1888197828">
        <ele>530</ele>
        <time>2012-01-15T12:34:15Z</time>
      </trkpt>
      <trkpt lat="63.4064755496" lon="13.1889403984">
        <ele>530.4</ele>
        <time>2012-01-15T12:34:16Z</time>
      </trkpt>
      <trkpt lat="63.4064481407" lon="13.1890569907">
        <ele>531</ele>
        <time>2012-01-15T12:34:18Z</time>
      </trkpt>
      <trkpt lat="63.4064198937" lon="13.1891471799">
        <ele>529.8</ele>
        <time>2012-01-15T12:34:19Z</time>
      </trkpt>
      <trkpt lat="63.406396592" lon="13.1895343401">
        <ele>525.4</ele>
        <time>2012-01-15T12:34:22Z</time>
      </trkpt>
      <trkpt lat="63.4064177144" lon="13.1897008047">
        <ele>523.6</ele>
        <time>2012-01-15T12:34:23Z</time>
      </trkpt>
      <trkpt lat="63.4064360708" lon="13.190255519">
        <ele>524.6</ele>
        <time>2012-01-15T12:34:26Z</time>
      </trkpt>
      <trkpt lat="63.4064269345" lon="13.1904105842">
        <ele>525.8</ele>
        <time>2012-01-15T12:34:27Z</time>
      </trkpt>
      <trkpt lat="63.4064100031" lon="13.19090629">
        <ele>527.8</ele>
        <time>2012-01-15T12:34:31Z</time>
      </trkpt>
      <trkpt lat="63.4064496495" lon="13.1912424881">
        <ele>528</ele>
        <time>2012-01-15T12:34:35Z</time>
      </trkpt>
      <trkpt lat="63.4064494818" lon="13.1912913546">
        <ele>527.8</ele>
        <time>2012-01-15T12:34:36Z</time>
      </trkpt>
      <trkpt lat="63.4064463805" lon="13.1913437415">
        <ele>527.6</ele>
        <time>2012-01-15T12:34:37Z</time>
      </trkpt>
      <trkpt lat="63.4064508229" lon="13.1914942805">
        <ele>530.2</ele>
        <time>2012-01-15T12:34:40Z</time>
      </trkpt>
      <trkpt lat="63.4064683411" lon="13.1917321589">
        <ele>529.4</ele>
        <time>2012-01-15T12:34:45Z</time>
      </trkpt>
      <trkpt lat="63.4064823389" lon="13.191996105">
        <ele>533.4</ele>
        <time>2012-01-15T12:34:51Z</time>
      </trkpt>
      <trkpt lat="63.4065152798" lon="13.1922528427">
        <ele>535.4</ele>
        <time>2012-01-15T12:34:56Z</time>
      </trkpt>
      <trkpt lat="63.4065285232" lon="13.1924218219">
        <ele>536</ele>
        <time>2012-01-15T12:35:00Z</time>
      </trkpt>
      <trkpt lat="63.4065505676" lon="13.1926441099">
        <ele>536.8</ele>
        <time>2012-01-15T12:35:04Z</time>
      </trkpt>
      <trkpt lat="63.4065541718" lon="13.1926831696">
        <ele>536.2</ele>
        <time>2012-01-15T12:35:05Z</time>
      </trkpt>
      <trkpt lat="63.4065551776" lon="13.1928811502">
        <ele>538.4</ele>
        <time>2012-01-15T12:35:09Z</time>
      </trkpt>
      <trkpt lat="63.4066081513" lon="13.1930936314">
        <ele>539.8</ele>
        <time>2012-01-15T12:35:13Z</time>
      </trkpt>
      <trkpt lat="63.4066692553" lon="13.1933297496">
        <ele>539.4</ele>
        <time>2012-01-15T12:35:18Z</time>
      </trkpt>
      <trkpt lat="63.4066933114" lon="13.1935622636">
        <ele>540</ele>
        <time>2012-01-15T12:35:22Z</time>
      </trkpt>
      <trkpt lat="63.4066849295" lon="13.1939043291">
        <ele>539.6</ele>
        <time>2012-01-15T12:35:27Z</time>
      </trkpt>
      <trkpt lat="63.4066158626" lon="13.1942126993">
        <ele>539.8</ele>
        <time>2012-01-15T12:35:31Z</time>
      </trkpt>
      <trkpt lat="63.4064738732" lon="13.1945032161">
        <ele>538.2</ele>
        <time>2012-01-15T12:35:35Z</time>
      </trkpt>
      <trkpt lat="63.4064275213" lon="13.1945731211">
        <ele>537.4</ele>
        <time>2012-01-15T12:35:36Z</time>
      </trkpt>
      <trkpt lat="63.4062649123" lon="13.1947694253">
        <ele>533</ele>
        <time>2012-01-15T12:35:39Z</time>
      </trkpt>
      <trkpt lat="63.406214118" lon="13.1948114187">
        <ele>531.8</ele>
        <time>2012-01-15T12:35:40Z</time>
      </trkpt>
      <trkpt lat="63.406073302" lon="13.1949350517">
        <ele>529.4</ele>
        <time>2012-01-15T12:35:43Z</time>
      </trkpt>
      <trkpt lat="63.4059751499" lon="13.1950209662">
        <ele>528.2</ele>
        <time>2012-01-15T12:35:45Z</time>
      </trkpt>
      <trkpt lat="63.4057695419" lon="13.1950858422">
        <ele>525.4</ele>
        <time>2012-01-15T12:35:49Z</time>
      </trkpt>
      <trkpt lat="63.4057288896" lon="13.195135463">
        <ele>525.6</ele>
        <time>2012-01-15T12:35:50Z</time>
      </trkpt>
      <trkpt lat="63.405684717" lon="13.1951867603">
        <ele>526.2</ele>
        <time>2012-01-15T12:35:51Z</time>
      </trkpt>
      <trkpt lat="63.4056389518" lon="13.1952168513">
        <ele>526</ele>
        <time>2012-01-15T12:35:52Z</time>
      </trkpt>
      <trkpt lat="63.4055487625" lon="13.1951622851">
        <ele>526</ele>
        <time>2012-01-15T12:35:54Z</time>
      </trkpt>
      <trkpt lat="63.4053549729" lon="13.1950580981">
        <ele>523.2</ele>
        <time>2012-01-15T12:35:58Z</time>
      </trkpt>
      <trkpt lat="63.4052246343" lon="13.1952723395">
        <ele>523.8</ele>
        <time>2012-01-15T12:36:01Z</time>
      </trkpt>
      <trkpt lat="63.4051494487" lon="13.1954308413">
        <ele>523.4</ele>
        <time>2012-01-15T12:36:03Z</time>
      </trkpt>
      <trkpt lat="63.4051132388" lon="13.1954840664">
        <ele>523.8</ele>
        <time>2012-01-15T12:36:04Z</time>
      </trkpt>
      <trkpt lat="63.405025145" lon="13.1955979764">
        <ele>523.8</ele>
        <time>2012-01-15T12:36:06Z</time>
      </trkpt>
      <trkpt lat="63.4049866721" lon="13.1956127286">
        <ele>523.2</ele>
        <time>2012-01-15T12:36:07Z</time>
      </trkpt>
      <trkpt lat="63.4048792999" lon="13.195622284">
        <ele>522.2</ele>
        <time>2012-01-15T12:36:09Z</time>
      </trkpt>
      <trkpt lat="63.4046774637" lon="13.1956339348">
        <ele>519.2</ele>
        <time>2012-01-15T12:36:12Z</time>
      </trkpt>
      <trkpt lat="63.4046127554" lon="13.1956616789">
        <ele>517.8</ele>
        <time>2012-01-15T12:36:13Z</time>
      </trkpt>
      <trkpt lat="63.4044314548" lon="13.1958875712">
        <ele>516.4</ele>
        <time>2012-01-15T12:36:16Z</time>
      </trkpt>
      <trkpt lat="63.4043787327" lon="13.195999302">
        <ele>517.2</ele>
        <time>2012-01-15T12:36:17Z</time>
      </trkpt>
      <trkpt lat="63.4042661637" lon="13.1962801795">
        <ele>516.8</ele>
        <time>2012-01-15T12:36:20Z</time>
      </trkpt>
      <trkpt lat="63.4042311274" lon="13.1963659264">
        <ele>517.4</ele>
        <time>2012-01-15T12:36:21Z</time>
      </trkpt>
      <trkpt lat="63.4041357413" lon="13.1965670083">
        <ele>517.8</ele>
        <time>2012-01-15T12:36:24Z</time>
      </trkpt>
      <trkpt lat="63.404108081" lon="13.1966311298">
        <ele>518</ele>
        <time>2012-01-15T12:36:25Z</time>
      </trkpt>
      <trkpt lat="63.4039610624" lon="13.1969410926">
        <ele>518.2</ele>
        <time>2012-01-15T12:36:30Z</time>
      </trkpt>
      <trkpt lat="63.4038180672" lon="13.1970999297">
        <ele>519.8</ele>
        <time>2012-01-15T12:36:34Z</time>
      </trkpt>
      <trkpt lat="63.4037032351" lon="13.1972232275">
        <ele>520.8</ele>
        <time>2012-01-15T12:36:37Z</time>
      </trkpt>
      <trkpt lat="63.4036579728" lon="13.1973010115">
        <ele>521</ele>
        <time>2012-01-15T12:36:38Z</time>
      </trkpt>
      <trkpt lat="63.4035275504" lon="13.1975124031">
        <ele>520.8</ele>
        <time>2012-01-15T12:36:41Z</time>
      </trkpt>
      <trkpt lat="63.4034947772" lon="13.1975783687">
        <ele>520.6</ele>
        <time>2012-01-15T12:36:42Z</time>
      </trkpt>
      <trkpt lat="63.4033653606" lon="13.1977934483">
        <ele>520.4</ele>
        <time>2012-01-15T12:36:45Z</time>
      </trkpt>
      <trkpt lat="63.4032154083" lon="13.1979983859">
        <ele>518.6</ele>
        <time>2012-01-15T12:36:48Z</time>
      </trkpt>
      <trkpt lat="63.4031112213" lon="13.1980943587">
        <ele>517</ele>
        <time>2012-01-15T12:36:50Z</time>
      </trkpt>
      <trkpt lat="63.4030552302" lon="13.1981228571">
        <ele>516.2</ele>
        <time>2012-01-15T12:36:51Z</time>
      </trkpt>
      <trkpt lat="63.4028563276" lon="13.1981073506">
        <ele>513.4</ele>
        <time>2012-01-15T12:36:54Z</time>
      </trkpt>
      <trkpt lat="63.4027870093" lon="13.198095616">
        <ele>512.2</ele>
        <time>2012-01-15T12:36:55Z</time>
      </trkpt>
      <trkpt lat="63.4026492108" lon="13.1980308238">
        <ele>510.6</ele>
        <time>2012-01-15T12:36:57Z</time>
      </trkpt>
      <trkpt lat="63.4025289305" lon="13.19793812">
        <ele>509.6</ele>
        <time>2012-01-15T12:36:59Z</time>
      </trkpt>
      <trkpt lat="63.4024098236" lon="13.1976056099">
        <ele>508.4</ele>
        <time>2012-01-15T12:37:02Z</time>
      </trkpt>
      <trkpt lat="63.4024160262" lon="13.1971924659">
        <ele>505.6</ele>
        <time>2012-01-15T12:37:05Z</time>
      </trkpt>
      <trkpt lat="63.4025179502" lon="13.196895998">
        <ele>503.6</ele>
        <time>2012-01-15T12:37:08Z</time>
      </trkpt>
      <trkpt lat="63.402621299" lon="13.1968048029">
        <ele>504.2</ele>
        <time>2012-01-15T12:37:11Z</time>
      </trkpt>
      <trkpt lat="63.4026573412" lon="13.1967674196">
        <ele>504.2</ele>
        <time>2012-01-15T12:37:12Z</time>
      </trkpt>
      <trkpt lat="63.4027576726" lon="13.1966557726">
        <ele>503.8</ele>
        <time>2012-01-15T12:37:16Z</time>
      </trkpt>
      <trkpt lat="63.4027841594" lon="13.1966236699">
        <ele>503.8</ele>
        <time>2012-01-15T12:37:17Z</time>
      </trkpt>
      <trkpt lat="63.4028699063" lon="13.1964831054">
        <ele>503.8</ele>
        <time>2012-01-15T12:37:21Z</time>
      </trkpt>
      <trkpt lat="63.402946014" lon="13.1962658465">
        <ele>503.2</ele>
        <time>2012-01-15T12:37:25Z</time>
      </trkpt>
      <trkpt lat="63.403035868" lon="13.1960799359">
        <ele>505.6</ele>
        <time>2012-01-15T12:37:29Z</time>
      </trkpt>
      <trkpt lat="63.4030854888" lon="13.1959594041">
        <ele>506.6</ele>
        <time>2012-01-15T12:37:32Z</time>
      </trkpt>
      <trkpt lat="63.4030925296" lon="13.1959064305">
        <ele>507.6</ele>
        <time>2012-01-15T12:37:33Z</time>
      </trkpt>
      <trkpt lat="63.4031269792" lon="13.195540309">
        <ele>508.6</ele>
        <time>2012-01-15T12:37:39Z</time>
      </trkpt>
      <trkpt lat="63.4031799529" lon="13.1951575913">
        <ele>510</ele>
        <time>2012-01-15T12:37:45Z</time>
      </trkpt>
      <trkpt lat="63.4032117203" lon="13.194950223">
        <ele>510.4</ele>
        <time>2012-01-15T12:37:48Z</time>
      </trkpt>
      <trkpt lat="63.4032137319" lon="13.1948943157">
        <ele>510</ele>
        <time>2012-01-15T12:37:49Z</time>
      </trkpt>
      <trkpt lat="63.403248433" lon="13.1946763024">
        <ele>509</ele>
        <time>2012-01-15T12:37:53Z</time>
      </trkpt>
      <trkpt lat="63.4032910131" lon="13.1944625638">
        <ele>509.6</ele>
        <time>2012-01-15T12:37:57Z</time>
      </trkpt>
      <trkpt lat="63.4033046756" lon="13.1941656768">
        <ele>510</ele>
        <time>2012-01-15T12:38:02Z</time>
      </trkpt>
      <trkpt lat="63.4033118002" lon="13.1938832067">
        <ele>510.2</ele>
        <time>2012-01-15T12:38:06Z</time>
      </trkpt>
      <trkpt lat="63.4033508599" lon="13.1934973877">
        <ele>511.4</ele>
        <time>2012-01-15T12:38:12Z</time>
      </trkpt>
      <trkpt lat="63.4034322482" lon="13.1932486966">
        <ele>511.6</ele>
        <time>2012-01-15T12:38:17Z</time>
      </trkpt>
      <trkpt lat="63.4035015665" lon="13.1930150092">
        <ele>512.4</ele>
        <time>2012-01-15T12:38:22Z</time>
      </trkpt>
      <trkpt lat="63.4035648499" lon="13.1927819923">
        <ele>512.8</ele>
        <time>2012-01-15T12:38:27Z</time>
      </trkpt>
      <trkpt lat="63.4036600683" lon="13.1926861033">
        <ele>516.4</ele>
        <time>2012-01-15T12:38:31Z</time>
      </trkpt>
      <trkpt lat="63.4037678596" lon="13.1925072335">
        <ele>516.8</ele>
        <time>2012-01-15T12:38:36Z</time>
      </trkpt>
      <trkpt lat="63.403789904" lon="13.1924770586">
        <ele>516.8</ele>
        <time>2012-01-15T12:38:37Z</time>
      </trkpt>
      <trkpt lat="63.4039201587" lon="13.1923629809">
        <ele>516.4</ele>
        <time>2012-01-15T12:38:42Z</time>
      </trkpt>
      <trkpt lat="63.4039897285" lon="13.1922325585">
        <ele>517.2</ele>
        <time>2012-01-15T12:38:46Z</time>
      </trkpt>
      <trkpt lat="63.404112272" lon="13.1919943448">
        <ele>517.6</ele>
        <time>2012-01-15T12:38:51Z</time>
      </trkpt>
      <trkpt lat="63.404195169" lon="13.1918102782">
        <ele>517</ele>
        <time>2012-01-15T12:38:55Z</time>
      </trkpt>
      <trkpt lat="63.4042527527" lon="13.1914717332">
        <ele>516.2</ele>
        <time>2012-01-15T12:38:59Z</time>
      </trkpt>
      <trkpt lat="63.4043519106" lon="13.1912048534">
        <ele>515.4</ele>
        <time>2012-01-15T12:39:03Z</time>
      </trkpt>
      <trkpt lat="63.4044359811" lon="13.1908372231">
        <ele>512.8</ele>
        <time>2012-01-15T12:39:08Z</time>
      </trkpt>
      <trkpt lat="63.4044109192" lon="13.1906642206">
        <ele>513</ele>
        <time>2012-01-15T12:39:10Z</time>
      </trkpt>
      <trkpt lat="63.4043770563" lon="13.1905851793">
        <ele>512.6</ele>
        <time>2012-01-15T12:39:11Z</time>
      </trkpt>
      <trkpt lat="63.4042749647" lon="13.1903705187">
        <ele>510.2</ele>
        <time>2012-01-15T12:39:15Z</time>
      </trkpt>
      <trkpt lat="63.4041489009" lon="13.1902468856">
        <ele>508.6</ele>
        <time>2012-01-15T12:39:19Z</time>
      </trkpt>
      <trkpt lat="63.4039924107" lon="13.190303212">
        <ele>508.4</ele>
        <time>2012-01-15T12:39:23Z</time>
      </trkpt>
      <trkpt lat="63.4038601443" lon="13.1904960796">
        <ele>508.2</ele>
        <time>2012-01-15T12:39:26Z</time>
      </trkpt>
      <trkpt lat="63.4038386866" lon="13.1905866042">
        <ele>508</ele>
        <time>2012-01-15T12:39:27Z</time>
      </trkpt>
      <trkpt lat="63.4037457313" lon="13.1908948068">
        <ele>508.4</ele>
        <time>2012-01-15T12:39:30Z</time>
      </trkpt>
      <trkpt lat="63.4037210885" lon="13.1909837388">
        <ele>507.8</ele>
        <time>2012-01-15T12:39:31Z</time>
      </trkpt>
      <trkpt lat="63.4037018102" lon="13.1910870038">
        <ele>507.4</ele>
        <time>2012-01-15T12:39:32Z</time>
      </trkpt>
      <trkpt lat="63.4036395326" lon="13.191401409">
        <ele>509</ele>
        <time>2012-01-15T12:39:35Z</time>
      </trkpt>
      <trkpt lat="63.4034852218" lon="13.1916402932">
        <ele>508.6</ele>
        <time>2012-01-15T12:39:38Z</time>
      </trkpt>
      <trkpt lat="63.4033773467" lon="13.1916712224">
        <ele>509.4</ele>
        <time>2012-01-15T12:39:40Z</time>
      </trkpt>
      <trkpt lat="63.403320685" lon="13.1916656904">
        <ele>509</ele>
        <time>2012-01-15T12:39:41Z</time>
      </trkpt>
      <trkpt lat="63.4031160828" lon="13.1917124614">
        <ele>509.6</ele>
        <time>2012-01-15T12:39:45Z</time>
      </trkpt>
      <trkpt lat="63.4030678868" lon="13.1917470787">
        <ele>509.6</ele>
        <time>2012-01-15T12:39:46Z</time>
      </trkpt>
      <trkpt lat="63.4030165896" lon="13.1917650998">
        <ele>510</ele>
        <time>2012-01-15T12:39:47Z</time>
      </trkpt>
      <trkpt lat="63.4028856643" lon="13.1918507628">
        <ele>510.8</ele>
        <time>2012-01-15T12:39:50Z</time>
      </trkpt>
      <trkpt lat="63.4028360434" lon="13.191887727">
        <ele>510.6</ele>
        <time>2012-01-15T12:39:51Z</time>
      </trkpt>
      <trkpt lat="63.4027137514" lon="13.1919450592">
        <ele>511</ele>
        <time>2012-01-15T12:39:54Z</time>
      </trkpt>
      <trkpt lat="63.4026232269" lon="13.1919701211">
        <ele>511</ele>
        <time>2012-01-15T12:39:56Z</time>
      </trkpt>
      <trkpt lat="63.4025865979" lon="13.1920089293">
        <ele>510.8</ele>
        <time>2012-01-15T12:39:57Z</time>
      </trkpt>
      <trkpt lat="63.4025408328" lon="13.1920363382">
        <ele>511.6</ele>
        <time>2012-01-15T12:39:58Z</time>
      </trkpt>
      <trkpt lat="63.4024565108" lon="13.1921251025">
        <ele>511.4</ele>
        <time>2012-01-15T12:40:00Z</time>
      </trkpt>
      <trkpt lat="63.4023305308" lon="13.1922716182">
        <ele>511.8</ele>
        <time>2012-01-15T12:40:03Z</time>
      </trkpt>
      <trkpt lat="63.4022112563" lon="13.1923234183">
        <ele>510.8</ele>
        <time>2012-01-15T12:40:06Z</time>
      </trkpt>
      <trkpt lat="63.4021730348" lon="13.1923380867">
        <ele>510</ele>
        <time>2012-01-15T12:40:07Z</time>
      </trkpt>
      <trkpt lat="63.4020494018" lon="13.1923751347">
        <ele>508</ele>
        <time>2012-01-15T12:40:10Z</time>
      </trkpt>
      <trkpt lat="63.4018906485" lon="13.1924724486">
        <ele>503.4</ele>
        <time>2012-01-15T12:40:13Z</time>
      </trkpt>
      <trkpt lat="63.4017524309" lon="13.1925532501">
        <ele>501</ele>
        <time>2012-01-15T12:40:16Z</time>
      </trkpt>
      <trkpt lat="63.401631061" lon="13.1926006079">
        <ele>501.2</ele>
        <time>2012-01-15T12:40:18Z</time>
      </trkpt>
      <trkpt lat="63.4014781751" lon="13.1925996859">
        <ele>501.2</ele>
        <time>2012-01-15T12:40:21Z</time>
      </trkpt>
      <trkpt lat="63.4014353435" lon="13.1925964169">
        <ele>501.6</ele>
        <time>2012-01-15T12:40:22Z</time>
      </trkpt>
      <trkpt lat="63.4012939408" lon="13.1925580278">
        <ele>502.4</ele>
        <time>2012-01-15T12:40:26Z</time>
      </trkpt>
      <trkpt lat="63.401153544" lon="13.1924120151">
        <ele>503</ele>
        <time>2012-01-15T12:40:30Z</time>
      </trkpt>
      <trkpt lat="63.4011082817" lon="13.1923924014">
        <ele>503.4</ele>
        <time>2012-01-15T12:40:31Z</time>
      </trkpt>
      <trkpt lat="63.4010008257" lon="13.1922288705">
        <ele>503.4</ele>
        <time>2012-01-15T12:40:34Z</time>
      </trkpt>
      <trkpt lat="63.4009584971" lon="13.1921867095">
        <ele>504.4</ele>
        <time>2012-01-15T12:40:35Z</time>
      </trkpt>
      <trkpt lat="63.4009336866" lon="13.1921309698">
        <ele>504</ele>
        <time>2012-01-15T12:40:36Z</time>
      </trkpt>
      <trkpt lat="63.4008569922" lon="13.1919912435">
        <ele>505</ele>
        <time>2012-01-15T12:40:39Z</time>
      </trkpt>
      <trkpt lat="63.4008122329" lon="13.1918801833">
        <ele>505.2</ele>
        <time>2012-01-15T12:40:41Z</time>
      </trkpt>
      <trkpt lat="63.4007797111" lon="13.1918311492">
        <ele>506.4</ele>
        <time>2012-01-15T12:40:43Z</time>
      </trkpt>
      <trkpt lat="63.4007432498" lon="13.191734422">
        <ele>506.4</ele>
        <time>2012-01-15T12:40:48Z</time>
      </trkpt>
      <trkpt lat="63.4006660525" lon="13.1915236171">
        <ele>506.4</ele>
        <time>2012-01-15T12:40:52Z</time>
      </trkpt>
      <trkpt lat="63.4006058704" lon="13.191181384">
        <ele>506.4</ele>
        <time>2012-01-15T12:40:57Z</time>
      </trkpt>
      <trkpt lat="63.4006734286" lon="13.1908212136">
        <ele>505.2</ele>
        <time>2012-01-15T12:41:02Z</time>
      </trkpt>
      <trkpt lat="63.4007910267" lon="13.1906481273">
        <ele>504.6</ele>
        <time>2012-01-15T12:41:06Z</time>
      </trkpt>
      <trkpt lat="63.4009149112" lon="13.1906371471">
        <ele>502.6</ele>
        <time>2012-01-15T12:41:10Z</time>
      </trkpt>
      <trkpt lat="63.4010835551" lon="13.1907091476">
        <ele>501.2</ele>
        <time>2012-01-15T12:41:15Z</time>
      </trkpt>
      <trkpt lat="63.4012131393" lon="13.1905582733">
        <ele>500.2</ele>
        <time>2012-01-15T12:41:20Z</time>
      </trkpt>
      <trkpt lat="63.4013052564" lon="13.1903729495">
        <ele>498.8</ele>
        <time>2012-01-15T12:41:25Z</time>
      </trkpt>
      <trkpt lat="63.401415227" lon="13.1901847757">
        <ele>499.6</ele>
        <time>2012-01-15T12:41:30Z</time>
      </trkpt>
      <trkpt lat="63.4015220124" lon="13.1901105959">
        <ele>499.6</ele>
        <time>2012-01-15T12:41:34Z</time>
      </trkpt>
      <trkpt lat="63.4016833641" lon="13.1900761463">
        <ele>499.6</ele>
        <time>2012-01-15T12:41:40Z</time>
      </trkpt>
      <trkpt lat="63.4018209111" lon="13.1900812592">
        <ele>499.2</ele>
        <time>2012-01-15T12:41:44Z</time>
      </trkpt>
      <trkpt lat="63.4019433707" lon="13.1900516711">
        <ele>499.4</ele>
        <time>2012-01-15T12:41:48Z</time>
      </trkpt>
      <trkpt lat="63.4020605497" lon="13.1900358293">
        <ele>500.8</ele>
        <time>2012-01-15T12:41:52Z</time>
      </trkpt>
      <trkpt lat="63.4021928161" lon="13.1899672654">
        <ele>502.8</ele>
        <time>2012-01-15T12:41:57Z</time>
      </trkpt>
      <trkpt lat="63.4023737814" lon="13.18981966">
        <ele>504.6</ele>
        <time>2012-01-15T12:42:03Z</time>
      </trkpt>
      <trkpt lat="63.4025332052" lon="13.1896879803">
        <ele>506</ele>
        <time>2012-01-15T12:42:09Z</time>
      </trkpt>
      <trkpt lat="63.4026639629" lon="13.1895391177">
        <ele>504</ele>
        <time>2012-01-15T12:42:14Z</time>
      </trkpt>
      <trkpt lat="63.4027466085" lon="13.1894416362">
        <ele>503.8</ele>
        <time>2012-01-15T12:42:18Z</time>
      </trkpt>
      <trkpt lat="63.4028752707" lon="13.1892593298">
        <ele>502.8</ele>
        <time>2012-01-15T12:42:23Z</time>
      </trkpt>
      <trkpt lat="63.4030471835" lon="13.189098984">
        <ele>503.6</ele>
        <time>2012-01-15T12:42:29Z</time>
      </trkpt>
      <trkpt lat="63.4031352773" lon="13.1889831461">
        <ele>502.8</ele>
        <time>2012-01-15T12:42:33Z</time>
      </trkpt>
      <trkpt lat="63.4032525402" lon="13.188829422">
        <ele>503.6</ele>
        <time>2012-01-15T12:42:38Z</time>
      </trkpt>
      <trkpt lat="63.4033708088" lon="13.1886915397">
        <ele>503.6</ele>
        <time>2012-01-15T12:42:43Z</time>
      </trkpt>
      <trkpt lat="63.4034876525" lon="13.1885981653">
        <ele>504.4</ele>
        <time>2012-01-15T12:42:48Z</time>
      </trkpt>
      <trkpt lat="63.4036410414" lon="13.1884437706">
        <ele>506</ele>
        <time>2012-01-15T12:42:54Z</time>
      </trkpt>
      <trkpt lat="63.4037261177" lon="13.1882723607">
        <ele>507.6</ele>
        <time>2012-01-15T12:42:58Z</time>
      </trkpt>
      <trkpt lat="63.4038321488" lon="13.1881224085">
        <ele>506.8</ele>
        <time>2012-01-15T12:43:03Z</time>
      </trkpt>
      <trkpt lat="63.4039629065" lon="13.1879467238">
        <ele>508.6</ele>
        <time>2012-01-15T12:43:09Z</time>
      </trkpt>
      <trkpt lat="63.4041160438" lon="13.1878024712">
        <ele>511.6</ele>
        <time>2012-01-15T12:43:15Z</time>
      </trkpt>
      <trkpt lat="63.4042151179" lon="13.1876252778">
        <ele>513</ele>
        <time>2012-01-15T12:43:20Z</time>
      </trkpt>
      <trkpt lat="63.4042307921" lon="13.1876038201">
        <ele>513.6</ele>
        <time>2012-01-15T12:43:21Z</time>
      </trkpt>
      <trkpt lat="63.4042917285" lon="13.1875604019">
        <ele>517</ele>
        <time>2012-01-15T12:43:25Z</time>
      </trkpt>
      <trkpt lat="63.4043349791" lon="13.1874777563">
        <ele>519.6</ele>
        <time>2012-01-15T12:43:30Z</time>
      </trkpt>
      <trkpt lat="63.4043508209" lon="13.1874732301">
        <ele>520.8</ele>
        <time>2012-01-15T12:43:33Z</time>
      </trkpt>
      <trkpt lat="63.4043586999" lon="13.1874716375">
        <ele>521.2</ele>
        <time>2012-01-15T12:43:35Z</time>
      </trkpt>
      <trkpt lat="63.4043568559" lon="13.1874935143">
        <ele>523.8</ele>
        <time>2012-01-15T12:43:57Z</time>
      </trkpt>
      <trkpt lat="63.4043483064" lon="13.1874952745">
        <ele>524.2</ele>
        <time>2012-01-15T12:44:10Z</time>
      </trkpt>
      <trkpt lat="63.4043587837" lon="13.1875004712">
        <ele>526.2</ele>
        <time>2012-01-15T12:45:03Z</time>
      </trkpt>
      <trkpt lat="63.4043655731" lon="13.1875012256">
        <ele>529.6</ele>
        <time>2012-01-15T12:45:44Z</time>
      </trkpt>
      <trkpt lat="63.4044004418" lon="13.187470464">
        <ele>525.6</ele>
        <time>2012-01-15T12:46:42Z</time>
      </trkpt>
      <trkpt lat="63.4044014476" lon="13.1874415465">
        <ele>527</ele>
        <time>2012-01-15T12:47:02Z</time>
      </trkpt>
      <trkpt lat="63.4043841809" lon="13.1873868126">
        <ele>528.8</ele>
        <time>2012-01-15T12:47:12Z</time>
      </trkpt>
      <trkpt lat="63.4044519067" lon="13.1873237807">
        <ele>527.8</ele>
        <time>2012-01-15T12:47:37Z</time>
      </trkpt>
      <trkpt lat="63.4045969136" lon="13.1872347649">
        <ele>527</ele>
        <time>2012-01-15T12:47:42Z</time>
      </trkpt>
      <trkpt lat="63.4047712572" lon="13.1870901771">
        <ele>527</ele>
        <time>2012-01-15T12:47:47Z</time>
      </trkpt>
      <trkpt lat="63.4048918728" lon="13.1870247144">
        <ele>526.8</ele>
        <time>2012-01-15T12:47:51Z</time>
      </trkpt>
      <trkpt lat="63.4050049447" lon="13.1869598385">
        <ele>526.4</ele>
        <time>2012-01-15T12:47:57Z</time>
      </trkpt>
      <trkpt lat="63.4050892666" lon="13.1868821383">
        <ele>524.8</ele>
        <time>2012-01-15T12:48:03Z</time>
      </trkpt>
      <trkpt lat="63.4051461797" lon="13.1868124008">
        <ele>524.6</ele>
        <time>2012-01-15T12:48:07Z</time>
      </trkpt>
      <trkpt lat="63.4052250534" lon="13.1867111474">
        <ele>524.4</ele>
        <time>2012-01-15T12:48:12Z</time>
      </trkpt>
      <trkpt lat="63.4053097945" lon="13.1865623686">
        <ele>527.2</ele>
        <time>2012-01-15T12:48:17Z</time>
      </trkpt>
      <trkpt lat="63.4053910151" lon="13.1864724308">
        <ele>527.8</ele>
        <time>2012-01-15T12:48:21Z</time>
      </trkpt>
      <trkpt lat="63.4054211061" lon="13.1864253245">
        <ele>527.6</ele>
        <time>2012-01-15T12:48:23Z</time>
      </trkpt>
      <trkpt lat="63.4054453298" lon="13.1863794755">
        <ele>527.4</ele>
        <time>2012-01-15T12:48:25Z</time>
      </trkpt>
      <trkpt lat="63.4055157378" lon="13.1862345524">
        <ele>527.6</ele>
        <time>2012-01-15T12:48:28Z</time>
      </trkpt>
      <trkpt lat="63.4055382852" lon="13.1861947384">
        <ele>527.4</ele>
        <time>2012-01-15T12:48:29Z</time>
      </trkpt>
      <trkpt lat="63.4056654386" lon="13.1859881245">
        <ele>526.8</ele>
        <time>2012-01-15T12:48:34Z</time>
      </trkpt>
      <trkpt lat="63.4057626687" lon="13.1858517509">
        <ele>526.8</ele>
        <time>2012-01-15T12:48:39Z</time>
      </trkpt>
      <trkpt lat="63.4058733936" lon="13.1857220829">
        <ele>526.4</ele>
        <time>2012-01-15T12:48:44Z</time>
      </trkpt>
      <trkpt lat="63.4059873037" lon="13.1855877209">
        <ele>526.2</ele>
        <time>2012-01-15T12:48:50Z</time>
      </trkpt>
      <trkpt lat="63.4060607292" lon="13.1853767484">
        <ele>525.2</ele>
        <time>2012-01-15T12:48:54Z</time>
      </trkpt>
      <trkpt lat="63.4061129484" lon="13.1851979624">
        <ele>526.4</ele>
        <time>2012-01-15T12:48:59Z</time>
      </trkpt>
      <trkpt lat="63.4060810972" lon="13.1849136483">
        <ele>527.2</ele>
        <time>2012-01-15T12:49:05Z</time>
      </trkpt>
      <trkpt lat="63.4060484916" lon="13.1846310105">
        <ele>529</ele>
        <time>2012-01-15T12:49:10Z</time>
      </trkpt>
      <trkpt lat="63.4060122818" lon="13.1842674036">
        <ele>528.2</ele>
        <time>2012-01-15T12:49:14Z</time>
      </trkpt>
      <trkpt lat="63.405973725" lon="13.1839465443">
        <ele>527</ele>
        <time>2012-01-15T12:49:18Z</time>
      </trkpt>
      <trkpt lat="63.4059095196" lon="13.1835728791">
        <ele>525.4</ele>
        <time>2012-01-15T12:49:22Z</time>
      </trkpt>
      <trkpt lat="63.4058981203" lon="13.1834795047">
        <ele>524.8</ele>
        <time>2012-01-15T12:49:23Z</time>
      </trkpt>
      <trkpt lat="63.4058702085" lon="13.1832375191">
        <ele>523.8</ele>
        <time>2012-01-15T12:49:26Z</time>
      </trkpt>
      <trkpt lat="63.4058390278" lon="13.183112042">
        <ele>522.6</ele>
        <time>2012-01-15T12:49:28Z</time>
      </trkpt>
      <trkpt lat="63.4057816956" lon="13.1829642691">
        <ele>522.4</ele>
        <time>2012-01-15T12:49:30Z</time>
      </trkpt>
      <trkpt lat="63.4057227708" lon="13.1828658655">
        <ele>522.2</ele>
        <time>2012-01-15T12:49:32Z</time>
      </trkpt>
      <trkpt lat="63.405662505" lon="13.1826573238">
        <ele>521.8</ele>
        <time>2012-01-15T12:49:36Z</time>
      </trkpt>
      <trkpt lat="63.4056507703" lon="13.1825748459">
        <ele>521.6</ele>
        <time>2012-01-15T12:49:38Z</time>
      </trkpt>
      <trkpt lat="63.4056215174" lon="13.1825095508">
        <ele>521.2</ele>
        <time>2012-01-15T12:49:40Z</time>
      </trkpt>
      <trkpt lat="63.4055044223" lon="13.1823438406">
        <ele>521</ele>
        <time>2012-01-15T12:49:44Z</time>
      </trkpt>
      <trkpt lat="63.405403588" lon="13.182362197">
        <ele>521</ele>
        <time>2012-01-15T12:49:47Z</time>
      </trkpt>
      <trkpt lat="63.4053866565" lon="13.1823836546">
        <ele>520.6</ele>
        <time>2012-01-15T12:49:48Z</time>
      </trkpt>
      <trkpt lat="63.405243326" lon="13.182504354">
        <ele>518.8</ele>
        <time>2012-01-15T12:49:52Z</time>
      </trkpt>
      <trkpt lat="63.4051370434" lon="13.182765618">
        <ele>519</ele>
        <time>2012-01-15T12:49:56Z</time>
      </trkpt>
      <trkpt lat="63.4050041065" lon="13.1830566376">
        <ele>519</ele>
        <time>2012-01-15T12:50:00Z</time>
      </trkpt>
      <trkpt lat="63.4049590956" lon="13.1831319071">
        <ele>519.6</ele>
        <time>2012-01-15T12:50:01Z</time>
      </trkpt>
      <trkpt lat="63.4048431739" lon="13.183385795">
        <ele>521.4</ele>
        <time>2012-01-15T12:50:04Z</time>
      </trkpt>
      <trkpt lat="63.4047659766" lon="13.1835618149">
        <ele>521.2</ele>
        <time>2012-01-15T12:50:06Z</time>
      </trkpt>
      <trkpt lat="63.4047346283" lon="13.1836797483">
        <ele>521.2</ele>
        <time>2012-01-15T12:50:07Z</time>
      </trkpt>
      <trkpt lat="63.4046363924" lon="13.1839634757">
        <ele>521.4</ele>
        <time>2012-01-15T12:50:10Z</time>
      </trkpt>
      <trkpt lat="63.4045488853" lon="13.1840839237">
        <ele>521.2</ele>
        <time>2012-01-15T12:50:12Z</time>
      </trkpt>
      <trkpt lat="63.4044901282" lon="13.184121307">
        <ele>521.2</ele>
        <time>2012-01-15T12:50:13Z</time>
      </trkpt>
      <trkpt lat="63.4044265933" lon="13.1841668207">
        <ele>521</ele>
        <time>2012-01-15T12:50:14Z</time>
      </trkpt>
      <trkpt lat="63.404327184" lon="13.1843337044">
        <ele>521.2</ele>
        <time>2012-01-15T12:50:16Z</time>
      </trkpt>
      <trkpt lat="63.4042315464" lon="13.1845993269">
        <ele>522.4</ele>
        <time>2012-01-15T12:50:18Z</time>
      </trkpt>
      <trkpt lat="63.4041246772" lon="13.1848399714">
        <ele>523.4</ele>
        <time>2012-01-15T12:50:21Z</time>
      </trkpt>
      <trkpt lat="63.4040256869" lon="13.1850965414">
        <ele>528.4</ele>
        <time>2012-01-15T12:50:24Z</time>
      </trkpt>
      <trkpt lat="63.4040156286" lon="13.1851778459">
        <ele>528.8</ele>
        <time>2012-01-15T12:50:25Z</time>
      </trkpt>
      <trkpt lat="63.4040113539" lon="13.1855797581">
        <ele>530</ele>
        <time>2012-01-15T12:50:29Z</time>
      </trkpt>
      <trkpt lat="63.4040069114" lon="13.1858887989">
        <ele>532</ele>
        <time>2012-01-15T12:50:32Z</time>
      </trkpt>
      <trkpt lat="63.4039629065" lon="13.1860664953">
        <ele>532.6</ele>
        <time>2012-01-15T12:50:34Z</time>
      </trkpt>
      <trkpt lat="63.4039090108" lon="13.186290795">
        <ele>533.6</ele>
        <time>2012-01-15T12:50:36Z</time>
      </trkpt>
      <trkpt lat="63.4038623236" lon="13.186501516">
        <ele>534.4</ele>
        <time>2012-01-15T12:50:38Z</time>
      </trkpt>
      <trkpt lat="63.4037893172" lon="13.1867121533">
        <ele>533.6</ele>
        <time>2012-01-15T12:50:40Z</time>
      </trkpt>
      <trkpt lat="63.4036353417" lon="13.1869288255">
        <ele>530.8</ele>
        <time>2012-01-15T12:50:43Z</time>
      </trkpt>
      <trkpt lat="63.4035606589" lon="13.1869906839">
        <ele>530</ele>
        <time>2012-01-15T12:50:44Z</time>
      </trkpt>
      <trkpt lat="63.4034870658" lon="13.1870377064">
        <ele>529.4</ele>
        <time>2012-01-15T12:50:45Z</time>
      </trkpt>
      <trkpt lat="63.403351279" lon="13.1870562304">
        <ele>528.4</ele>
        <time>2012-01-15T12:50:47Z</time>
      </trkpt>
      <trkpt lat="63.4032464214" lon="13.1870443281">
        <ele>526.6</ele>
        <time>2012-01-15T12:50:49Z</time>
      </trkpt>
      <trkpt lat="63.4031669609" lon="13.1869975571">
        <ele>525.2</ele>
        <time>2012-01-15T12:50:51Z</time>
      </trkpt>
      <trkpt lat="63.4030695632" lon="13.1867614388">
        <ele>525.2</ele>
        <time>2012-01-15T12:50:55Z</time>
      </trkpt>
      <trkpt lat="63.4030674677" lon="13.1864548288">
        <ele>526</ele>
        <time>2012-01-15T12:50:58Z</time>
      </trkpt>
      <trkpt lat="63.4030719101" lon="13.1861421">
        <ele>525.8</ele>
        <time>2012-01-15T12:51:01Z</time>
      </trkpt>
      <trkpt lat="63.4030824713" lon="13.186053168">
        <ele>525.4</ele>
        <time>2012-01-15T12:51:02Z</time>
      </trkpt>
      <trkpt lat="63.4031491913" lon="13.1856590509">
        <ele>525.8</ele>
        <time>2012-01-15T12:51:06Z</time>
      </trkpt>
      <trkpt lat="63.4031890053" lon="13.1855053268">
        <ele>525.8</ele>
        <time>2012-01-15T12:51:08Z</time>
      </trkpt>
      <trkpt lat="63.4032346867" lon="13.1853397004">
        <ele>525.2</ele>
        <time>2012-01-15T12:51:11Z</time>
      </trkpt>
      <trkpt lat="63.4032601677" lon="13.1852519419">
        <ele>525.8</ele>
        <time>2012-01-15T12:51:13Z</time>
      </trkpt>
      <trkpt lat="63.4033388738" lon="13.1851056777">
        <ele>524.4</ele>
        <time>2012-01-15T12:51:16Z</time>
      </trkpt>
      <trkpt lat="63.403494861" lon="13.1849313341">
        <ele>523.8</ele>
        <time>2012-01-15T12:51:20Z</time>
      </trkpt>
      <trkpt lat="63.4036436398" lon="13.1848289911">
        <ele>521</ele>
        <time>2012-01-15T12:51:25Z</time>
      </trkpt>
      <trkpt lat="63.4037287161" lon="13.1847392209">
        <ele>519</ele>
        <time>2012-01-15T12:51:29Z</time>
      </trkpt>
      <trkpt lat="63.4038314782" lon="13.1846235506">
        <ele>518.4</ele>
        <time>2012-01-15T12:51:33Z</time>
      </trkpt>
      <trkpt lat="63.4038638324" lon="13.1845333613">
        <ele>517.8</ele>
        <time>2012-01-15T12:51:35Z</time>
      </trkpt>
      <trkpt lat="63.4038693644" lon="13.1843958981">
        <ele>516</ele>
        <time>2012-01-15T12:51:37Z</time>
      </trkpt>
      <trkpt lat="63.4038409498" lon="13.1841452792">
        <ele>515.4</ele>
        <time>2012-01-15T12:51:42Z</time>
      </trkpt>
      <trkpt lat="63.4037951007" lon="13.1838655751">
        <ele>516.4</ele>
        <time>2012-01-15T12:51:46Z</time>
      </trkpt>
      <trkpt lat="63.4037551191" lon="13.1835163012">
        <ele>517.4</ele>
        <time>2012-01-15T12:51:51Z</time>
      </trkpt>
      <trkpt lat="63.4037193283" lon="13.1833391916">
        <ele>513.8</ele>
        <time>2012-01-15T12:51:54Z</time>
      </trkpt>
      <trkpt lat="63.4036336653" lon="13.1830405444">
        <ele>513</ele>
        <time>2012-01-15T12:51:59Z</time>
      </trkpt>
      <trkpt lat="63.4036227688" lon="13.1828019116">
        <ele>514</ele>
        <time>2012-01-15T12:52:03Z</time>
      </trkpt>
      <trkpt lat="63.4035950247" lon="13.1825326849">
        <ele>516</ele>
        <time>2012-01-15T12:52:08Z</time>
      </trkpt>
      <trkpt lat="63.403555546" lon="13.1822753605">
        <ele>513.4</ele>
        <time>2012-01-15T12:52:14Z</time>
      </trkpt>
      <trkpt lat="63.4034856409" lon="13.1820303574">
        <ele>512</ele>
        <time>2012-01-15T12:52:19Z</time>
      </trkpt>
      <trkpt lat="63.4033661988" lon="13.1816976797">
        <ele>509.6</ele>
        <time>2012-01-15T12:52:25Z</time>
      </trkpt>
      <trkpt lat="63.4032463375" lon="13.1814985257">
        <ele>508.8</ele>
        <time>2012-01-15T12:52:29Z</time>
      </trkpt>
      <trkpt lat="63.4031439945" lon="13.1814441271">
        <ele>508.4</ele>
        <time>2012-01-15T12:52:32Z</time>
      </trkpt>
      <trkpt lat="63.4029925335" lon="13.1814164668">
        <ele>508</ele>
        <time>2012-01-15T12:52:36Z</time>
      </trkpt>
      <trkpt lat="63.4028224647" lon="13.1812759861">
        <ele>508</ele>
        <time>2012-01-15T12:52:41Z</time>
      </trkpt>
      <trkpt lat="63.4027313534" lon="13.181010196">
        <ele>507</ele>
        <time>2012-01-15T12:52:45Z</time>
      </trkpt>
      <trkpt lat="63.4026223049" lon="13.1808050908">
        <ele>507.4</ele>
        <time>2012-01-15T12:52:49Z</time>
      </trkpt>
      <trkpt lat="63.4025371447" lon="13.1806944497">
        <ele>509</ele>
        <time>2012-01-15T12:52:54Z</time>
      </trkpt>
      <trkpt lat="63.4024191275" lon="13.1806505285">
        <ele>510.8</ele>
        <time>2012-01-15T12:52:59Z</time>
      </trkpt>
      <trkpt lat="63.4022794012" lon="13.180652624">
        <ele>512.6</ele>
        <time>2012-01-15T12:53:04Z</time>
      </trkpt>
      <trkpt lat="63.4021079913" lon="13.1806408055">
        <ele>511.4</ele>
        <time>2012-01-15T12:53:09Z</time>
      </trkpt>
      <trkpt lat="63.4019764792" lon="13.1805548072">
        <ele>511</ele>
        <time>2012-01-15T12:53:12Z</time>
      </trkpt>
      <trkpt lat="63.4019462205" lon="13.1805167533">
        <ele>511.2</ele>
        <time>2012-01-15T12:53:13Z</time>
      </trkpt>
      <trkpt lat="63.4019017965" lon="13.1804056931">
        <ele>511.2</ele>
        <time>2012-01-15T12:53:16Z</time>
      </trkpt>
      <trkpt lat="63.4018130321" lon="13.1800979935">
        <ele>512.4</ele>
        <time>2012-01-15T12:53:22Z</time>
      </trkpt>
      <trkpt lat="63.401797777" lon="13.1798717659">
        <ele>513.6</ele>
        <time>2012-01-15T12:53:26Z</time>
      </trkpt>
      <trkpt lat="63.4017243516" lon="13.1796950754">
        <ele>513.8</ele>
        <time>2012-01-15T12:53:30Z</time>
      </trkpt>
      <trkpt lat="63.401649585" lon="13.179487288">
        <ele>513.8</ele>
        <time>2012-01-15T12:53:34Z</time>
      </trkpt>
      <trkpt lat="63.4015531931" lon="13.1793204043">
        <ele>511.8</ele>
        <time>2012-01-15T12:53:39Z</time>
      </trkpt>
      <trkpt lat="63.4014253691" lon="13.1790961046">
        <ele>511.6</ele>
        <time>2012-01-15T12:53:45Z</time>
      </trkpt>
      <trkpt lat="63.4013199247" lon="13.1789854635">
        <ele>512.2</ele>
        <time>2012-01-15T12:53:50Z</time>
      </trkpt>
      <trkpt lat="63.4012356866" lon="13.1789567973">
        <ele>513.2</ele>
        <time>2012-01-15T12:53:54Z</time>
      </trkpt>
      <trkpt lat="63.4011829644" lon="13.1789173186">
        <ele>513.6</ele>
        <time>2012-01-15T12:53:56Z</time>
      </trkpt>
      <trkpt lat="63.4011047613" lon="13.1787871476">
        <ele>513</ele>
        <time>2012-01-15T12:53:59Z</time>
      </trkpt>
      <trkpt lat="63.4010788612" lon="13.178398395">
        <ele>510.4</ele>
        <time>2012-01-15T12:54:03Z</time>
      </trkpt>
      <trkpt lat="63.4010829683" lon="13.1783003267">
        <ele>510.4</ele>
        <time>2012-01-15T12:54:04Z</time>
      </trkpt>
      <trkpt lat="63.4010802023" lon="13.1779995002">
        <ele>510</ele>
        <time>2012-01-15T12:54:08Z</time>
      </trkpt>
      <trkpt lat="63.4010059386" lon="13.1777307764">
        <ele>511</ele>
        <time>2012-01-15T12:54:13Z</time>
      </trkpt>
      <trkpt lat="63.4009112231" lon="13.1774715241">
        <ele>511.2</ele>
        <time>2012-01-15T12:54:18Z</time>
      </trkpt>
      <trkpt lat="63.4009044338" lon="13.1774142757">
        <ele>511.2</ele>
        <time>2012-01-15T12:54:19Z</time>
      </trkpt>
      <trkpt lat="63.4009036794" lon="13.1772360764">
        <ele>513.4</ele>
        <time>2012-01-15T12:54:23Z</time>
      </trkpt>
      <trkpt lat="63.4009044338" lon="13.1772114336">
        <ele>514.4</ele>
        <time>2012-01-15T12:54:24Z</time>
      </trkpt>
      <trkpt lat="63.4009336866" lon="13.1770497467">
        <ele>518</ele>
        <time>2012-01-15T12:54:29Z</time>
      </trkpt>
      <trkpt lat="63.4009522945" lon="13.1767960265">
        <ele>522.2</ele>
        <time>2012-01-15T12:54:34Z</time>
      </trkpt>
      <trkpt lat="63.4009610955" lon="13.1764824595">
        <ele>523.2</ele>
        <time>2012-01-15T12:54:38Z</time>
      </trkpt>
      <trkpt lat="63.4009792004" lon="13.1760476902">
        <ele>524.8</ele>
        <time>2012-01-15T12:54:43Z</time>
      </trkpt>
      <trkpt lat="63.4010076988" lon="13.1759569142">
        <ele>527.2</ele>
        <time>2012-01-15T12:54:45Z</time>
      </trkpt>
      <trkpt lat="63.4010378737" lon="13.1758512184">
        <ele>528.4</ele>
        <time>2012-01-15T12:54:47Z</time>
      </trkpt>
      <trkpt lat="63.4010988101" lon="13.1756272539">
        <ele>531</ele>
        <time>2012-01-15T12:54:52Z</time>
      </trkpt>
      <trkpt lat="63.4010938648" lon="13.1755287666">
        <ele>530.8</ele>
        <time>2012-01-15T12:54:54Z</time>
      </trkpt>
      <trkpt lat="63.4010920208" lon="13.1754508987">
        <ele>531.4</ele>
        <time>2012-01-15T12:54:56Z</time>
      </trkpt>
      <trkpt lat="63.4011034202" lon="13.1752845179">
        <ele>532.8</ele>
        <time>2012-01-15T12:55:00Z</time>
      </trkpt>
      <trkpt lat="63.4010904282" lon="13.1750780717">
        <ele>533.8</ele>
        <time>2012-01-15T12:55:04Z</time>
      </trkpt>
      <trkpt lat="63.4010507818" lon="13.1749235932">
        <ele>533.6</ele>
        <time>2012-01-15T12:55:08Z</time>
      </trkpt>
      <trkpt lat="63.4010401368" lon="13.1748835277">
        <ele>532.8</ele>
        <time>2012-01-15T12:55:09Z</time>
      </trkpt>
      <trkpt lat="63.4010289051" lon="13.1746176537">
        <ele>531.2</ele>
        <time>2012-01-15T12:55:14Z</time>
      </trkpt>
      <trkpt lat="63.4010647796" lon="13.1743831281">
        <ele>530.8</ele>
        <time>2012-01-15T12:55:18Z</time>
      </trkpt>
      <trkpt lat="63.401125716" lon="13.1740551442">
        <ele>529</ele>
        <time>2012-01-15T12:55:23Z</time>
      </trkpt>
      <trkpt lat="63.4011680447" lon="13.1737741828">
        <ele>528.2</ele>
        <time>2012-01-15T12:55:28Z</time>
      </trkpt>
      <trkpt lat="63.4011802822" lon="13.1735368911">
        <ele>528</ele>
        <time>2012-01-15T12:55:33Z</time>
      </trkpt>
      <trkpt lat="63.4011817072" lon="13.1732382439">
        <ele>530.2</ele>
        <time>2012-01-15T12:55:38Z</time>
      </trkpt>
      <trkpt lat="63.4011698049" lon="13.1732130982">
        <ele>529.6</ele>
        <time>2012-01-15T12:55:39Z</time>
      </trkpt>
      <trkpt lat="63.4011672065" lon="13.1730322167">
        <ele>527.8</ele>
        <time>2012-01-15T12:55:42Z</time>
      </trkpt>
      <trkpt lat="63.4011674579" lon="13.1729975995">
        <ele>528</ele>
        <time>2012-01-15T12:55:43Z</time>
      </trkpt>
      <trkpt lat="63.4011722356" lon="13.1729059853">
        <ele>529</ele>
        <time>2012-01-15T12:55:45Z</time>
      </trkpt>
      <trkpt lat="63.4011810366" lon="13.1728346553">
        <ele>530.4</ele>
        <time>2012-01-15T12:55:47Z</time>
      </trkpt>
      <trkpt lat="63.4011867363" lon="13.1727718748">
        <ele>532</ele>
        <time>2012-01-15T12:55:49Z</time>
      </trkpt>
      <trkpt lat="63.4011867363" lon="13.1727103516">
        <ele>533.8</ele>
        <time>2012-01-15T12:55:53Z</time>
      </trkpt>
      <trkpt lat="63.4011916816" lon="13.1726981141">
        <ele>533.8</ele>
        <time>2012-01-15T12:55:54Z</time>
      </trkpt>
      <trkpt lat="63.4011962079" lon="13.1726086792">
        <ele>534.6</ele>
        <time>2012-01-15T12:55:59Z</time>
      </trkpt>
      <trkpt lat="63.4012025781" lon="13.1724487524">
        <ele>535.8</ele>
        <time>2012-01-15T12:56:04Z</time>
      </trkpt>
      <trkpt lat="63.4011841379" lon="13.1722807791">
        <ele>536.6</ele>
        <time>2012-01-15T12:56:07Z</time>
      </trkpt>
      <trkpt lat="63.4011780191" lon="13.1722267158">
        <ele>536.8</ele>
        <time>2012-01-15T12:56:08Z</time>
      </trkpt>
      <trkpt lat="63.4011663683" lon="13.1719916034">
        <ele>536.8</ele>
        <time>2012-01-15T12:56:12Z</time>
      </trkpt>
      <trkpt lat="63.4011811204" lon="13.1716020964">
        <ele>537.4</ele>
        <time>2012-01-15T12:56:18Z</time>
      </trkpt>
      <trkpt lat="63.4011834674" lon="13.1713802274">
        <ele>537.4</ele>
        <time>2012-01-15T12:56:22Z</time>
      </trkpt>
      <trkpt lat="63.4011959564" lon="13.1711320393">
        <ele>537.2</ele>
        <time>2012-01-15T12:56:26Z</time>
      </trkpt>
      <trkpt lat="63.4012096189" lon="13.1710329652">
        <ele>537</ele>
        <time>2012-01-15T12:56:28Z</time>
      </trkpt>
      <trkpt lat="63.401219761" lon="13.1708930712">
        <ele>537</ele>
        <time>2012-01-15T12:56:30Z</time>
      </trkpt>
      <trkpt lat="63.4012292325" lon="13.1706506666">
        <ele>535.4</ele>
        <time>2012-01-15T12:56:34Z</time>
      </trkpt>
      <trkpt lat="63.4011767618" lon="13.1703900732">
        <ele>533.6</ele>
        <time>2012-01-15T12:56:38Z</time>
      </trkpt>
      <trkpt lat="63.401074335" lon="13.1701298989">
        <ele>533.6</ele>
        <time>2012-01-15T12:56:42Z</time>
      </trkpt>
      <trkpt lat="63.4009643644" lon="13.1698614266">
        <ele>531</ele>
        <time>2012-01-15T12:56:46Z</time>
      </trkpt>
      <trkpt lat="63.400824219" lon="13.1696132384">
        <ele>529.2</ele>
        <time>2012-01-15T12:56:50Z</time>
      </trkpt>
      <trkpt lat="63.4007788729" lon="13.1695684791">
        <ele>528.8</ele>
        <time>2012-01-15T12:56:51Z</time>
      </trkpt>
      <trkpt lat="63.4006354585" lon="13.1694663037">
        <ele>527.8</ele>
        <time>2012-01-15T12:56:55Z</time>
      </trkpt>
      <trkpt lat="63.4005993325" lon="13.1694242265">
        <ele>527.2</ele>
        <time>2012-01-15T12:56:56Z</time>
      </trkpt>
      <trkpt lat="63.4004416689" lon="13.1692468654">
        <ele>525.4</ele>
        <time>2012-01-15T12:57:00Z</time>
      </trkpt>
      <trkpt lat="63.4004056267" lon="13.1692145951">
        <ele>525.4</ele>
        <time>2012-01-15T12:57:01Z</time>
      </trkpt>
      <trkpt lat="63.4003202152" lon="13.1690929737">
        <ele>524.4</ele>
        <time>2012-01-15T12:57:04Z</time>
      </trkpt>
      <trkpt lat="63.400267493" lon="13.1689890381">
        <ele>525.2</ele>
        <time>2012-01-15T12:57:06Z</time>
      </trkpt>
      <trkpt lat="63.4001766331" lon="13.1687830109">
        <ele>525.4</ele>
        <time>2012-01-15T12:57:11Z</time>
      </trkpt>
      <trkpt lat="63.4001487214" lon="13.1685839407">
        <ele>527</ele>
        <time>2012-01-15T12:57:15Z</time>
      </trkpt>
      <trkpt lat="63.4001323767" lon="13.1685368344">
        <ele>527.2</ele>
        <time>2012-01-15T12:57:16Z</time>
      </trkpt>
      <trkpt lat="63.4000932332" lon="13.1684255227">
        <ele>528.6</ele>
        <time>2012-01-15T12:57:19Z</time>
      </trkpt>
      <trkpt lat="63.4000853542" lon="13.1684039813">
        <ele>528.8</ele>
        <time>2012-01-15T12:57:20Z</time>
      </trkpt>
      <trkpt lat="63.400063226" lon="13.1683255266">
        <ele>529.6</ele>
        <time>2012-01-15T12:57:23Z</time>
      </trkpt>
      <trkpt lat="63.4000268485" lon="13.1681849621">
        <ele>529.8</ele>
        <time>2012-01-15T12:57:27Z</time>
      </trkpt>
      <trkpt lat="63.3999934886" lon="13.1680959463">
        <ele>530</ele>
        <time>2012-01-15T12:57:30Z</time>
      </trkpt>
      <trkpt lat="63.3999575302" lon="13.1680994667">
        <ele>530.8</ele>
        <time>2012-01-15T12:57:32Z</time>
      </trkpt>
      <trkpt lat="63.3998255152" lon="13.1682106107">
        <ele>529.2</ele>
        <time>2012-01-15T12:57:37Z</time>
      </trkpt>
      <trkpt lat="63.3997865394" lon="13.1682363432">
        <ele>527.8</ele>
        <time>2012-01-15T12:57:38Z</time>
      </trkpt>
      <trkpt lat="63.3996225055" lon="13.1684301328">
        <ele>524</ele>
        <time>2012-01-15T12:57:42Z</time>
      </trkpt>
      <trkpt lat="63.399550505" lon="13.1687131058">
        <ele>521</ele>
        <time>2012-01-15T12:57:45Z</time>
      </trkpt>
      <trkpt lat="63.3995534386" lon="13.1687913928">
        <ele>519.4</ele>
        <time>2012-01-15T12:57:46Z</time>
      </trkpt>
      <trkpt lat="63.3995462302" lon="13.1689225696">
        <ele>517</ele>
        <time>2012-01-15T12:57:48Z</time>
      </trkpt>
      <trkpt lat="63.399535669" lon="13.1691025291">
        <ele>513.8</ele>
        <time>2012-01-15T12:57:52Z</time>
      </trkpt>
      <trkpt lat="63.3995240182" lon="13.1692104042">
        <ele>513</ele>
        <time>2012-01-15T12:57:54Z</time>
      </trkpt>
      <trkpt lat="63.39952779" lon="13.1693668943">
        <ele>513.2</ele>
        <time>2012-01-15T12:57:57Z</time>
      </trkpt>
      <trkpt lat="63.3995137922" lon="13.1696932856">
        <ele>511.2</ele>
        <time>2012-01-15T12:58:03Z</time>
      </trkpt>
      <trkpt lat="63.3995008841" lon="13.1699495204">
        <ele>504.8</ele>
        <time>2012-01-15T12:58:08Z</time>
      </trkpt>
      <trkpt lat="63.3995105233" lon="13.1702889875">
        <ele>505</ele>
        <time>2012-01-15T12:58:13Z</time>
      </trkpt>
      <trkpt lat="63.3995169774" lon="13.1705959328">
        <ele>506.2</ele>
        <time>2012-01-15T12:58:17Z</time>
      </trkpt>
      <trkpt lat="63.3995252755" lon="13.1708532572">
        <ele>509.2</ele>
        <time>2012-01-15T12:58:21Z</time>
      </trkpt>
      <trkpt lat="63.3995142113" lon="13.1710705999">
        <ele>509.4</ele>
        <time>2012-01-15T12:58:26Z</time>
      </trkpt>
      <trkpt lat="63.3995163068" lon="13.1711686682">
        <ele>513.6</ele>
        <time>2012-01-15T12:58:31Z</time>
      </trkpt>
      <trkpt lat="63.3995200787" lon="13.1711959932">
        <ele>515.8</ele>
        <time>2012-01-15T12:58:33Z</time>
      </trkpt>
      <trkpt lat="63.3995196596" lon="13.1712752022">
        <ele>520.8</ele>
        <time>2012-01-15T12:58:40Z</time>
      </trkpt>
      <trkpt lat="63.3995361719" lon="13.1712879427">
        <ele>531.6</ele>
        <time>2012-01-15T12:59:07Z</time>
      </trkpt>
      <trkpt lat="63.3995425422" lon="13.1713902019">
        <ele>533.4</ele>
        <time>2012-01-15T12:59:50Z</time>
      </trkpt>
      <trkpt lat="63.3995343279" lon="13.1716842391">
        <ele>531</ele>
        <time>2012-01-15T12:59:55Z</time>
      </trkpt>
      <trkpt lat="63.3995554503" lon="13.1720324233">
        <ele>531.2</ele>
        <time>2012-01-15T13:00:00Z</time>
      </trkpt>
      <trkpt lat="63.399583362" lon="13.1724238582">
        <ele>528.2</ele>
        <time>2012-01-15T13:00:05Z</time>
      </trkpt>
      <trkpt lat="63.3995631617" lon="13.1727137044">
        <ele>523.6</ele>
        <time>2012-01-15T13:00:08Z</time>
      </trkpt>
      <trkpt lat="63.3995424584" lon="13.1727860402">
        <ele>523.2</ele>
        <time>2012-01-15T13:00:09Z</time>
      </trkpt>
      <trkpt lat="63.3994770795" lon="13.1730045564">
        <ele>521.6</ele>
        <time>2012-01-15T13:00:13Z</time>
      </trkpt>
      <trkpt lat="63.3994336613" lon="13.1732244138">
        <ele>519.6</ele>
        <time>2012-01-15T13:00:16Z</time>
      </trkpt>
      <trkpt lat="63.3993997984" lon="13.1733616255">
        <ele>518.4</ele>
        <time>2012-01-15T13:00:18Z</time>
      </trkpt>
      <trkpt lat="63.3993338328" lon="13.1736664753">
        <ele>515.8</ele>
        <time>2012-01-15T13:00:23Z</time>
      </trkpt>
      <trkpt lat="63.3992481697" lon="13.1740537193">
        <ele>514.8</ele>
        <time>2012-01-15T13:00:29Z</time>
      </trkpt>
      <trkpt lat="63.3991731517" lon="13.1744447351">
        <ele>511.2</ele>
        <time>2012-01-15T13:00:34Z</time>
      </trkpt>
      <trkpt lat="63.3991037495" lon="13.174672639">
        <ele>507.4</ele>
        <time>2012-01-15T13:00:38Z</time>
      </trkpt>
      <trkpt lat="63.3990570623" lon="13.1750040594">
        <ele>503.4</ele>
        <time>2012-01-15T13:00:43Z</time>
      </trkpt>
      <trkpt lat="63.398991432" lon="13.1754089054">
        <ele>499.8</ele>
        <time>2012-01-15T13:00:47Z</time>
      </trkpt>
      <trkpt lat="63.3988954592" lon="13.1758312695">
        <ele>498.4</ele>
        <time>2012-01-15T13:00:52Z</time>
      </trkpt>
      <trkpt lat="63.3988734987" lon="13.1758886017">
        <ele>498.2</ele>
        <time>2012-01-15T13:00:53Z</time>
      </trkpt>
      <trkpt lat="63.3988285717" lon="13.1759984884">
        <ele>497.2</ele>
        <time>2012-01-15T13:00:55Z</time>
      </trkpt>
      <trkpt lat="63.3987973072" lon="13.1760911923">
        <ele>497</ele>
        <time>2012-01-15T13:00:57Z</time>
      </trkpt>
      <trkpt lat="63.3987444174" lon="13.1763037574">
        <ele>496</ele>
        <time>2012-01-15T13:01:01Z</time>
      </trkpt>
      <trkpt lat="63.3987878356" lon="13.1765527837">
        <ele>498.6</ele>
        <time>2012-01-15T13:01:05Z</time>
      </trkpt>
      <trkpt lat="63.3988386299" lon="13.1766785961">
        <ele>500</ele>
        <time>2012-01-15T13:01:07Z</time>
      </trkpt>
      <trkpt lat="63.398892777" lon="13.176781442">
        <ele>500.8</ele>
        <time>2012-01-15T13:01:09Z</time>
      </trkpt>
      <trkpt lat="63.3990445733" lon="13.1769721303">
        <ele>501.6</ele>
        <time>2012-01-15T13:01:12Z</time>
      </trkpt>
      <trkpt lat="63.3992304839" lon="13.1771224178">
        <ele>502.6</ele>
        <time>2012-01-15T13:01:15Z</time>
      </trkpt>
      <trkpt lat="63.3993731439" lon="13.1772275269">
        <ele>502.6</ele>
        <time>2012-01-15T13:01:17Z</time>
      </trkpt>
      <trkpt lat="63.3994411211" lon="13.1773057301">
        <ele>502.8</ele>
        <time>2012-01-15T13:01:18Z</time>
      </trkpt>
      <trkpt lat="63.399560228" lon="13.1775672454">
        <ele>504.2</ele>
        <time>2012-01-15T13:01:20Z</time>
      </trkpt>
      <trkpt lat="63.3997122757" lon="13.1779149268">
        <ele>507</ele>
        <time>2012-01-15T13:01:23Z</time>
      </trkpt>
      <trkpt lat="63.3997453842" lon="13.1780345365">
        <ele>508.6</ele>
        <time>2012-01-15T13:01:24Z</time>
      </trkpt>
      <trkpt lat="63.3997857012" lon="13.178169569">
        <ele>509.2</ele>
        <time>2012-01-15T13:01:25Z</time>
      </trkpt>
      <trkpt lat="63.3998442907" lon="13.1783507857">
        <ele>511.8</ele>
        <time>2012-01-15T13:01:27Z</time>
      </trkpt>
      <trkpt lat="63.3999131899" lon="13.1785503589">
        <ele>512.2</ele>
        <time>2012-01-15T13:01:29Z</time>
      </trkpt>
      <trkpt lat="63.3999421075" lon="13.1786993053">
        <ele>512.4</ele>
        <time>2012-01-15T13:01:30Z</time>
      </trkpt>
      <trkpt lat="63.3999696001" lon="13.1790044904">
        <ele>512.4</ele>
        <time>2012-01-15T13:01:32Z</time>
      </trkpt>
      <trkpt lat="63.4000191372" lon="13.1792428717">
        <ele>513.8</ele>
        <time>2012-01-15T13:01:34Z</time>
      </trkpt>
      <trkpt lat="63.4000671655" lon="13.1794285309">
        <ele>516.8</ele>
        <time>2012-01-15T13:01:36Z</time>
      </trkpt>
      <trkpt lat="63.4000574425" lon="13.1795434467">
        <ele>510.4</ele>
        <time>2012-01-15T13:01:37Z</time>
      </trkpt>
      <trkpt lat="63.3999778144" lon="13.1798719335">
        <ele>505.2</ele>
        <time>2012-01-15T13:01:40Z</time>
      </trkpt>
      <trkpt lat="63.3998982701" lon="13.1803790387">
        <ele>498.4</ele>
        <time>2012-01-15T13:01:44Z</time>
      </trkpt>
      <trkpt lat="63.3998822607" lon="13.1805199385">
        <ele>498.2</ele>
        <time>2012-01-15T13:01:45Z</time>
      </trkpt>
      <trkpt lat="63.3998732921" lon="13.1808931008">
        <ele>497.6</ele>
        <time>2012-01-15T13:01:48Z</time>
      </trkpt>
      <trkpt lat="63.3998643234" lon="13.181025954">
        <ele>496.2</ele>
        <time>2012-01-15T13:01:49Z</time>
      </trkpt>
      <trkpt lat="63.3998618927" lon="13.1815400161">
        <ele>496.8</ele>
        <time>2012-01-15T13:01:52Z</time>
      </trkpt>
      <trkpt lat="63.3998673409" lon="13.1820891984">
        <ele>500.4</ele>
        <time>2012-01-15T13:01:56Z</time>
      </trkpt>
      <trkpt lat="63.399844626" lon="13.1823092233">
        <ele>500.2</ele>
        <time>2012-01-15T13:01:58Z</time>
      </trkpt>
      <trkpt lat="63.3998254314" lon="13.1823988259">
        <ele>500.6</ele>
        <time>2012-01-15T13:01:59Z</time>
      </trkpt>
      <trkpt lat="63.3997290395" lon="13.182581719">
        <ele>501.6</ele>
        <time>2012-01-15T13:02:02Z</time>
      </trkpt>
      <trkpt lat="63.399683442" lon="13.1829154026">
        <ele>502.8</ele>
        <time>2012-01-15T13:02:06Z</time>
      </trkpt>
      <trkpt lat="63.3997146226" lon="13.1831979565">
        <ele>503.6</ele>
        <time>2012-01-15T13:02:09Z</time>
      </trkpt>
      <trkpt lat="63.3997551911" lon="13.1833869684">
        <ele>504.8</ele>
        <time>2012-01-15T13:02:11Z</time>
      </trkpt>
      <trkpt lat="63.3997836057" lon="13.1835925765">
        <ele>507.4</ele>
        <time>2012-01-15T13:02:13Z</time>
      </trkpt>
      <trkpt lat="63.3998315502" lon="13.1839056406">
        <ele>508.8</ele>
        <time>2012-01-15T13:02:16Z</time>
      </trkpt>
      <trkpt lat="63.399871951" lon="13.1841539964">
        <ele>509.4</ele>
        <time>2012-01-15T13:02:18Z</time>
      </trkpt>
      <trkpt lat="63.3998998627" lon="13.1843875162">
        <ele>510.4</ele>
        <time>2012-01-15T13:02:20Z</time>
      </trkpt>
      <trkpt lat="63.3999391738" lon="13.1847140752">
        <ele>510.2</ele>
        <time>2012-01-15T13:02:23Z</time>
      </trkpt>
      <trkpt lat="63.3999440353" lon="13.1848349422">
        <ele>510.4</ele>
        <time>2012-01-15T13:02:24Z</time>
      </trkpt>
      <trkpt lat="63.3999653254" lon="13.1850316655">
        <ele>510.4</ele>
        <time>2012-01-15T13:02:26Z</time>
      </trkpt>
      <trkpt lat="63.3999721985" lon="13.1852677837">
        <ele>509.4</ele>
        <time>2012-01-15T13:02:28Z</time>
      </trkpt>
      <trkpt lat="63.3999804128" lon="13.1854776666">
        <ele>509.2</ele>
        <time>2012-01-15T13:02:30Z</time>
      </trkpt>
      <trkpt lat="63.3999896329" lon="13.1857152097">
        <ele>508.2</ele>
        <time>2012-01-15T13:02:32Z</time>
      </trkpt>
      <trkpt lat="63.399995584" lon="13.1859482266">
        <ele>508.2</ele>
        <time>2012-01-15T13:02:34Z</time>
      </trkpt>
      <trkpt lat="63.400005307" lon="13.1860487256">
        <ele>508.2</ele>
        <time>2012-01-15T13:02:35Z</time>
      </trkpt>
      <trkpt lat="63.3999905549" lon="13.1865621172">
        <ele>508.8</ele>
        <time>2012-01-15T13:02:39Z</time>
      </trkpt>
      <trkpt lat="63.3999747131" lon="13.1870403048">
        <ele>507.8</ele>
        <time>2012-01-15T13:02:43Z</time>
      </trkpt>
      <trkpt lat="63.3999479748" lon="13.1874094438">
        <ele>507.4</ele>
        <time>2012-01-15T13:02:46Z</time>
      </trkpt>
      <trkpt lat="63.3998997789" lon="13.1878435425">
        <ele>506.8</ele>
        <time>2012-01-15T13:02:50Z</time>
      </trkpt>
      <trkpt lat="63.3998922352" lon="13.1879516691">
        <ele>506</ele>
        <time>2012-01-15T13:02:51Z</time>
      </trkpt>
      <trkpt lat="63.3998917323" lon="13.1881709397">
        <ele>504.8</ele>
        <time>2012-01-15T13:02:53Z</time>
      </trkpt>
      <trkpt lat="63.3999081608" lon="13.1885467004">
        <ele>503.8</ele>
        <time>2012-01-15T13:02:56Z</time>
      </trkpt>
      <trkpt lat="63.3999195602" lon="13.1890749279">
        <ele>503</ele>
        <time>2012-01-15T13:03:00Z</time>
      </trkpt>
      <trkpt lat="63.3999348991" lon="13.1894925144">
        <ele>501.8</ele>
        <time>2012-01-15T13:03:03Z</time>
      </trkpt>
      <trkpt lat="63.3999495674" lon="13.1897762418">
        <ele>501.4</ele>
        <time>2012-01-15T13:03:05Z</time>
      </trkpt>
      <trkpt lat="63.3999862801" lon="13.190212436">
        <ele>500.4</ele>
        <time>2012-01-15T13:03:08Z</time>
      </trkpt>
      <trkpt lat="63.4000333864" lon="13.1905192137">
        <ele>500.6</ele>
        <time>2012-01-15T13:03:11Z</time>
      </trkpt>
      <trkpt lat="63.4000665788" lon="13.1908047013">
        <ele>500.2</ele>
        <time>2012-01-15T13:03:15Z</time>
      </trkpt>
      <trkpt lat="63.4000824206" lon="13.1909139175">
        <ele>500.6</ele>
        <time>2012-01-15T13:03:17Z</time>
      </trkpt>
      <trkpt lat="63.4001063928" lon="13.1909974851">
        <ele>500.4</ele>
        <time>2012-01-15T13:03:19Z</time>
      </trkpt>
      <trkpt lat="63.4001307841" lon="13.1911616866">
        <ele>499.2</ele>
        <time>2012-01-15T13:03:22Z</time>
      </trkpt>
      <trkpt lat="63.4001370706" lon="13.1912051886">
        <ele>498.8</ele>
        <time>2012-01-15T13:03:23Z</time>
      </trkpt>
      <trkpt lat="63.4001638088" lon="13.1914565619">
        <ele>497.8</ele>
        <time>2012-01-15T13:03:28Z</time>
      </trkpt>
      <trkpt lat="63.4001619648" lon="13.1917156465">
        <ele>497.6</ele>
        <time>2012-01-15T13:03:33Z</time>
      </trkpt>
      <trkpt lat="63.4001073986" lon="13.1920097675">
        <ele>498.4</ele>
        <time>2012-01-15T13:03:38Z</time>
      </trkpt>
      <trkpt lat="63.4000756312" lon="13.1922173034">
        <ele>499.4</ele>
        <time>2012-01-15T13:03:42Z</time>
      </trkpt>
      <trkpt lat="63.4000190534" lon="13.1924853567">
        <ele>499.4</ele>
        <time>2012-01-15T13:03:46Z</time>
      </trkpt>
      <trkpt lat="63.3999380842" lon="13.1927203014">
        <ele>499.8</ele>
        <time>2012-01-15T13:03:49Z</time>
      </trkpt>
      <trkpt lat="63.3999122679" lon="13.1927690003">
        <ele>499.6</ele>
        <time>2012-01-15T13:03:50Z</time>
      </trkpt>
      <trkpt lat="63.3997727931" lon="13.1930704974">
        <ele>497.8</ele>
        <time>2012-01-15T13:03:55Z</time>
      </trkpt>
      <trkpt lat="63.3996665943" lon="13.1932548992">
        <ele>496.2</ele>
        <time>2012-01-15T13:04:00Z</time>
      </trkpt>
      <trkpt lat="63.3995712083" lon="13.1934742536">
        <ele>492.6</ele>
        <time>2012-01-15T13:04:04Z</time>
      </trkpt>
      <trkpt lat="63.3994676918" lon="13.1938141398">
        <ele>491.2</ele>
        <time>2012-01-15T13:04:08Z</time>
      </trkpt>
      <trkpt lat="63.3993634209" lon="13.1941110268">
        <ele>489</ele>
        <time>2012-01-15T13:04:12Z</time>
      </trkpt>
      <trkpt lat="63.3993227687" lon="13.1943482347">
        <ele>491</ele>
        <time>2012-01-15T13:04:15Z</time>
      </trkpt>
      <trkpt lat="63.399294354" lon="13.1944727898">
        <ele>490.8</ele>
        <time>2012-01-15T13:04:17Z</time>
      </trkpt>
      <trkpt lat="63.3991931006" lon="13.1948460359">
        <ele>490</ele>
        <time>2012-01-15T13:04:22Z</time>
      </trkpt>
      <trkpt lat="63.3990712278" lon="13.1951400731">
        <ele>489.8</ele>
        <time>2012-01-15T13:04:26Z</time>
      </trkpt>
      <trkpt lat="63.3990485966" lon="13.1951781269">
        <ele>489</ele>
        <time>2012-01-15T13:04:27Z</time>
      </trkpt>
      <trkpt lat="63.398975255" lon="13.1953274086">
        <ele>487.2</ele>
        <time>2012-01-15T13:04:29Z</time>
      </trkpt>
      <trkpt lat="63.3988534659" lon="13.1954216212">
        <ele>486.2</ele>
        <time>2012-01-15T13:04:31Z</time>
      </trkpt>
      <trkpt lat="63.3987404779" lon="13.195488425">
        <ele>484.8</ele>
        <time>2012-01-15T13:04:33Z</time>
      </trkpt>
      <trkpt lat="63.3986381348" lon="13.195612058">
        <ele>483.8</ele>
        <time>2012-01-15T13:04:35Z</time>
      </trkpt>
      <trkpt lat="63.3985849936" lon="13.1957560591">
        <ele>485.2</ele>
        <time>2012-01-15T13:04:36Z</time>
      </trkpt>
      <trkpt lat="63.3984835725" lon="13.1960551254">
        <ele>485.4</ele>
        <time>2012-01-15T13:04:39Z</time>
      </trkpt>
      <trkpt lat="63.398457421" lon="13.1961643416">
        <ele>485.8</ele>
        <time>2012-01-15T13:04:40Z</time>
      </trkpt>
      <trkpt lat="63.3984158468" lon="13.1965413596">
        <ele>484.4</ele>
        <time>2012-01-15T13:04:44Z</time>
      </trkpt>
      <trkpt lat="63.3984155953" lon="13.1969792303">
        <ele>485.4</ele>
        <time>2012-01-15T13:04:48Z</time>
      </trkpt>
      <trkpt lat="63.3984246477" lon="13.1973284204">
        <ele>486.6</ele>
        <time>2012-01-15T13:04:51Z</time>
      </trkpt>
      <trkpt lat="63.3984067105" lon="13.1975982338">
        <ele>487</ele>
        <time>2012-01-15T13:04:53Z</time>
      </trkpt>
      <trkpt lat="63.3983959816" lon="13.1978370342">
        <ele>486.8</ele>
        <time>2012-01-15T13:04:55Z</time>
      </trkpt>
      <trkpt lat="63.3984198701" lon="13.1980039179">
        <ele>485.8</ele>
        <time>2012-01-15T13:04:57Z</time>
      </trkpt>
      <trkpt lat="63.3984138351" lon="13.1982578896">
        <ele>484</ele>
        <time>2012-01-15T13:05:00Z</time>
      </trkpt>
      <trkpt lat="63.398391623" lon="13.1983223464">
        <ele>483.4</ele>
        <time>2012-01-15T13:05:01Z</time>
      </trkpt>
      <trkpt lat="63.3982679062" lon="13.1985287089">
        <ele>480.6</ele>
        <time>2012-01-15T13:05:05Z</time>
      </trkpt>
      <trkpt lat="63.3981770463" lon="13.198759295">
        <ele>480.2</ele>
        <time>2012-01-15T13:05:09Z</time>
      </trkpt>
      <trkpt lat="63.3980949037" lon="13.1990709342">
        <ele>480.4</ele>
        <time>2012-01-15T13:05:13Z</time>
      </trkpt>
      <trkpt lat="63.3980809897" lon="13.199385507">
        <ele>479.6</ele>
        <time>2012-01-15T13:05:18Z</time>
      </trkpt>
      <trkpt lat="63.3981487993" lon="13.1995999999">
        <ele>478</ele>
        <time>2012-01-15T13:05:23Z</time>
      </trkpt>
      <trkpt lat="63.3981727716" lon="13.1996769458">
        <ele>477.4</ele>
        <time>2012-01-15T13:05:25Z</time>
      </trkpt>
      <trkpt lat="63.3981838357" lon="13.1997866649">
        <ele>478.2</ele>
        <time>2012-01-15T13:05:27Z</time>
      </trkpt>
      <trkpt lat="63.3981978334" lon="13.1998843979">
        <ele>478.4</ele>
        <time>2012-01-15T13:05:29Z</time>
      </trkpt>
      <trkpt lat="63.3982096519" lon="13.1999853998">
        <ele>478.8</ele>
        <time>2012-01-15T13:05:31Z</time>
      </trkpt>
      <trkpt lat="63.3982201293" lon="13.2003043313">
        <ele>478.4</ele>
        <time>2012-01-15T13:05:36Z</time>
      </trkpt>
      <trkpt lat="63.3981894515" lon="13.2006138749">
        <ele>480.6</ele>
        <time>2012-01-15T13:05:41Z</time>
      </trkpt>
      <trkpt lat="63.3981087338" lon="13.2008043118">
        <ele>482.4</ele>
        <time>2012-01-15T13:05:45Z</time>
      </trkpt>
      <trkpt lat="63.3980019484" lon="13.2010110933">
        <ele>483.6</ele>
        <time>2012-01-15T13:05:49Z</time>
      </trkpt>
      <trkpt lat="63.3980050497" lon="13.2012517378">
        <ele>485.2</ele>
        <time>2012-01-15T13:05:53Z</time>
      </trkpt>
      <trkpt lat="63.3980648126" lon="13.201412838">
        <ele>486.2</ele>
        <time>2012-01-15T13:05:57Z</time>
      </trkpt>
      <trkpt lat="63.3980978373" lon="13.2016693242">
        <ele>488</ele>
        <time>2012-01-15T13:06:02Z</time>
      </trkpt>
      <trkpt lat="63.3980899584" lon="13.2020404749">
        <ele>490.2</ele>
        <time>2012-01-15T13:06:08Z</time>
      </trkpt>
      <trkpt lat="63.3980580233" lon="13.2022953685">
        <ele>490.8</ele>
        <time>2012-01-15T13:06:12Z</time>
      </trkpt>
      <trkpt lat="63.3980280161" lon="13.2023634296">
        <ele>491.2</ele>
        <time>2012-01-15T13:06:13Z</time>
      </trkpt>
      <trkpt lat="63.397979904" lon="13.2024870627">
        <ele>491.8</ele>
        <time>2012-01-15T13:06:15Z</time>
      </trkpt>
      <trkpt lat="63.397881249" lon="13.2026984543">
        <ele>492.6</ele>
        <time>2012-01-15T13:06:19Z</time>
      </trkpt>
      <trkpt lat="63.3977973461" lon="13.2028339058">
        <ele>492.4</ele>
        <time>2012-01-15T13:06:22Z</time>
      </trkpt>
      <trkpt lat="63.3977535926" lon="13.2029125281">
        <ele>491.6</ele>
        <time>2012-01-15T13:06:24Z</time>
      </trkpt>
      <trkpt lat="63.3977096714" lon="13.2031508256">
        <ele>491.8</ele>
        <time>2012-01-15T13:06:28Z</time>
      </trkpt>
      <trkpt lat="63.3977249265" lon="13.2033917215">
        <ele>492.6</ele>
        <time>2012-01-15T13:06:33Z</time>
      </trkpt>
      <trkpt lat="63.3977855276" lon="13.2035813201">
        <ele>492.2</ele>
        <time>2012-01-15T13:06:38Z</time>
      </trkpt>
      <trkpt lat="63.3978601266" lon="13.2036259957">
        <ele>491</ele>
        <time>2012-01-15T13:06:43Z</time>
      </trkpt>
      <trkpt lat="63.3979190513" lon="13.2036421727">
        <ele>492</ele>
        <time>2012-01-15T13:06:48Z</time>
      </trkpt>
      <trkpt lat="63.3979644813" lon="13.203633707">
        <ele>496</ele>
        <time>2012-01-15T13:06:53Z</time>
      </trkpt>
      <trkpt lat="63.3979644813" lon="13.2036286779">
        <ele>496.8</ele>
        <time>2012-01-15T13:07:00Z</time>
      </trkpt>
      <trkpt lat="63.3979937341" lon="13.2036130037">
        <ele>497.8</ele>
        <time>2012-01-15T13:07:11Z</time>
      </trkpt>
      <trkpt lat="63.3980921376" lon="13.203597581">
        <ele>498</ele>
        <time>2012-01-15T13:07:15Z</time>
      </trkpt>
      <trkpt lat="63.3981876913" lon="13.2036018558">
        <ele>496</ele>
        <time>2012-01-15T13:07:20Z</time>
      </trkpt>
      <trkpt lat="63.3982709236" lon="13.2036175299">
        <ele>496.2</ele>
        <time>2012-01-15T13:07:26Z</time>
      </trkpt>
      <trkpt lat="63.3982933033" lon="13.2036399934">
        <ele>495.4</ele>
        <time>2012-01-15T13:07:29Z</time>
      </trkpt>
      <trkpt lat="63.3983123302" lon="13.203645274">
        <ele>496</ele>
        <time>2012-01-15T13:07:30Z</time>
      </trkpt>
      <trkpt lat="63.398389779" lon="13.2036798075">
        <ele>496.8</ele>
        <time>2012-01-15T13:07:34Z</time>
      </trkpt>
      <trkpt lat="63.3984575048" lon="13.2036870159">
        <ele>497.8</ele>
        <time>2012-01-15T13:07:38Z</time>
      </trkpt>
      <trkpt lat="63.3985261526" lon="13.2036676537">
        <ele>498.4</ele>
        <time>2012-01-15T13:07:41Z</time>
      </trkpt>
      <trkpt lat="63.3986636158" lon="13.2036955655">
        <ele>501.2</ele>
        <time>2012-01-15T13:07:46Z</time>
      </trkpt>
      <trkpt lat="63.3986937068" lon="13.2037001755">
        <ele>500.8</ele>
        <time>2012-01-15T13:07:47Z</time>
      </trkpt>
      <trkpt lat="63.3988144901" lon="13.2037575915">
        <ele>500.4</ele>
        <time>2012-01-15T13:07:52Z</time>
      </trkpt>
      <trkpt lat="63.3989011589" lon="13.2037720922">
        <ele>503.4</ele>
        <time>2012-01-15T13:07:56Z</time>
      </trkpt>
      <trkpt lat="63.3989116363" lon="13.2037611119">
        <ele>504.8</ele>
        <time>2012-01-15T13:07:57Z</time>
      </trkpt>
      <trkpt lat="63.3989678789" lon="13.2037567534">
        <ele>512.2</ele>
        <time>2012-01-15T13:08:01Z</time>
      </trkpt>
      <trkpt lat="63.3989836369" lon="13.2037672307">
        <ele>513</ele>
        <time>2012-01-15T13:08:02Z</time>
      </trkpt>
      <trkpt lat="63.3989878278" lon="13.2037683204">
        <ele>514.4</ele>
        <time>2012-01-15T13:08:06Z</time>
      </trkpt>
      <trkpt lat="63.3990339283" lon="13.2038070448">
        <ele>511</ele>
        <time>2012-01-15T13:08:21Z</time>
      </trkpt>
      <trkpt lat="63.3990704734" lon="13.203771254">
        <ele>512.2</ele>
        <time>2012-01-15T13:08:26Z</time>
      </trkpt>
      <trkpt lat="63.3991160709" lon="13.203774523">
        <ele>512.6</ele>
        <time>2012-01-15T13:08:30Z</time>
      </trkpt>
      <trkpt lat="63.3991236147" lon="13.2037788816">
        <ele>513.2</ele>
        <time>2012-01-15T13:08:31Z</time>
      </trkpt>
      <trkpt lat="63.3992175758" lon="13.2038290892">
        <ele>514.4</ele>
        <time>2012-01-15T13:08:36Z</time>
      </trkpt>
      <trkpt lat="63.3992560487" lon="13.2038565818">
        <ele>516.8</ele>
        <time>2012-01-15T13:08:39Z</time>
      </trkpt>
      <trkpt lat="63.3992962819" lon="13.203849541">
        <ele>517.6</ele>
        <time>2012-01-15T13:08:42Z</time>
      </trkpt>
      <trkpt lat="63.3993655164" lon="13.2038544025">
        <ele>517.2</ele>
        <time>2012-01-15T13:08:45Z</time>
      </trkpt>
      <trkpt lat="63.3993975352" lon="13.2038516365">
        <ele>517</ele>
        <time>2012-01-15T13:08:46Z</time>
      </trkpt>
      <trkpt lat="63.3995316457" lon="13.2038860023">
        <ele>516.8</ele>
        <time>2012-01-15T13:08:51Z</time>
      </trkpt>
      <trkpt lat="63.3995821886" lon="13.2039313484">
        <ele>516.8</ele>
        <time>2012-01-15T13:08:53Z</time>
      </trkpt>
      <trkpt lat="63.3996347431" lon="13.2039395627">
        <ele>516.2</ele>
        <time>2012-01-15T13:08:55Z</time>
      </trkpt>
      <trkpt lat="63.3997259382" lon="13.2040810492">
        <ele>515.6</ele>
        <time>2012-01-15T13:08:59Z</time>
      </trkpt>
      <trkpt lat="63.3997403551" lon="13.2041190192">
        <ele>516.2</ele>
        <time>2012-01-15T13:09:00Z</time>
      </trkpt>
      <trkpt lat="63.3997546881" lon="13.2042858191">
        <ele>514.6</ele>
        <time>2012-01-15T13:09:03Z</time>
      </trkpt>
      <trkpt lat="63.3997396007" lon="13.2043951191">
        <ele>513</ele>
        <time>2012-01-15T13:09:05Z</time>
      </trkpt>
      <trkpt lat="63.3996445499" lon="13.204634171">
        <ele>509.8</ele>
        <time>2012-01-15T13:09:10Z</time>
      </trkpt>
      <trkpt lat="63.3995114453" lon="13.2047020644">
        <ele>506.6</ele>
        <time>2012-01-15T13:09:14Z</time>
      </trkpt>
      <trkpt lat="63.3993537817" lon="13.2047943491">
        <ele>503.4</ele>
        <time>2012-01-15T13:09:18Z</time>
      </trkpt>
      <trkpt lat="63.3991699666" lon="13.2049241848">
        <ele>500.6</ele>
        <time>2012-01-15T13:09:23Z</time>
      </trkpt>
      <trkpt lat="63.3989609219" lon="13.2050562836">
        <ele>501.4</ele>
        <time>2012-01-15T13:09:28Z</time>
      </trkpt>
      <trkpt lat="63.3987794537" lon="13.2051512506">
        <ele>500.2</ele>
        <time>2012-01-15T13:09:32Z</time>
      </trkpt>
      <trkpt lat="63.3987373766" lon="13.2051262725">
        <ele>499.8</ele>
        <time>2012-01-15T13:09:33Z</time>
      </trkpt>
      <trkpt lat="63.3986274898" lon="13.2050027233">
        <ele>499.2</ele>
        <time>2012-01-15T13:09:36Z</time>
      </trkpt>
      <trkpt lat="63.3985916991" lon="13.2049590535">
        <ele>499.6</ele>
        <time>2012-01-15T13:09:37Z</time>
      </trkpt>
      <trkpt lat="63.3985164296" lon="13.2048962731">
        <ele>500.4</ele>
        <time>2012-01-15T13:09:39Z</time>
      </trkpt>
      <trkpt lat="63.3984287549" lon="13.2047968637">
        <ele>500.2</ele>
        <time>2012-01-15T13:09:41Z</time>
      </trkpt>
      <trkpt lat="63.398301769" lon="13.2045743242">
        <ele>498.6</ele>
        <time>2012-01-15T13:09:44Z</time>
      </trkpt>
      <trkpt lat="63.3982553333" lon="13.2045038324">
        <ele>498.4</ele>
        <time>2012-01-15T13:09:45Z</time>
      </trkpt>
      <trkpt lat="63.3980868571" lon="13.2042216975">
        <ele>497.4</ele>
        <time>2012-01-15T13:09:49Z</time>
      </trkpt>
      <trkpt lat="63.3980172873" lon="13.204112649">
        <ele>496.8</ele>
        <time>2012-01-15T13:09:51Z</time>
      </trkpt>
      <trkpt lat="63.39780204" lon="13.2039855793">
        <ele>494.8</ele>
        <time>2012-01-15T13:09:55Z</time>
      </trkpt>
      <trkpt lat="63.3976835199" lon="13.2039994095">
        <ele>493.4</ele>
        <time>2012-01-15T13:09:57Z</time>
      </trkpt>
      <trkpt lat="63.3975254372" lon="13.2039978169">
        <ele>492</ele>
        <time>2012-01-15T13:10:00Z</time>
      </trkpt>
      <trkpt lat="63.397293929" lon="13.2039517164">
        <ele>489.6</ele>
        <time>2012-01-15T13:10:04Z</time>
      </trkpt>
      <trkpt lat="63.3972380217" lon="13.2039459329">
        <ele>489</ele>
        <time>2012-01-15T13:10:05Z</time>
      </trkpt>
      <trkpt lat="63.3970751613" lon="13.2039455138">
        <ele>487.8</ele>
        <time>2012-01-15T13:10:08Z</time>
      </trkpt>
      <trkpt lat="63.3970273007" lon="13.2039719168">
        <ele>487.4</ele>
        <time>2012-01-15T13:10:09Z</time>
      </trkpt>
      <trkpt lat="63.3968133107" lon="13.2039526384">
        <ele>486.2</ele>
        <time>2012-01-15T13:10:13Z</time>
      </trkpt>
      <trkpt lat="63.3967580739" lon="13.2039011735">
        <ele>485.6</ele>
        <time>2012-01-15T13:10:14Z</time>
      </trkpt>
      <trkpt lat="63.3965716604" lon="13.2036295999">
        <ele>484.6</ele>
        <time>2012-01-15T13:10:18Z</time>
      </trkpt>
      <trkpt lat="63.3965353668" lon="13.203573944">
        <ele>484.2</ele>
        <time>2012-01-15T13:10:19Z</time>
      </trkpt>
      <trkpt lat="63.396427827" lon="13.2034306973">
        <ele>482.8</ele>
        <time>2012-01-15T13:10:22Z</time>
      </trkpt>
      <trkpt lat="63.3963996638" lon="13.2034362294">
        <ele>482.8</ele>
        <time>2012-01-15T13:10:23Z</time>
      </trkpt>
      <trkpt lat="63.3963156771" lon="13.2033848483">
        <ele>482.4</ele>
        <time>2012-01-15T13:10:28Z</time>
      </trkpt>
      <trkpt lat="63.3962907828" lon="13.2033583615">
        <ele>482.8</ele>
        <time>2012-01-15T13:10:29Z</time>
      </trkpt>
      <trkpt lat="63.396220291" lon="13.2033519913">
        <ele>482.4</ele>
        <time>2012-01-15T13:10:32Z</time>
      </trkpt>
      <trkpt lat="63.3960891142" lon="13.203456765">
        <ele>482.6</ele>
        <time>2012-01-15T13:10:37Z</time>
      </trkpt>
      <trkpt lat="63.3960322849" lon="13.2034296915">
        <ele>483.2</ele>
        <time>2012-01-15T13:10:39Z</time>
      </trkpt>
      <trkpt lat="63.3959682472" lon="13.2034287695">
        <ele>482.6</ele>
        <time>2012-01-15T13:10:41Z</time>
      </trkpt>
      <trkpt lat="63.3958425187" lon="13.2033794839">
        <ele>482.8</ele>
        <time>2012-01-15T13:10:45Z</time>
      </trkpt>
      <trkpt lat="63.3957905509" lon="13.2033488061">
        <ele>482</ele>
        <time>2012-01-15T13:10:47Z</time>
      </trkpt>
      <trkpt lat="63.3957294468" lon="13.2033462916">
        <ele>482.2</ele>
        <time>2012-01-15T13:10:49Z</time>
      </trkpt>
      <trkpt lat="63.3955259342" lon="13.2033433579">
        <ele>483.6</ele>
        <time>2012-01-15T13:10:55Z</time>
      </trkpt>
      <trkpt lat="63.3953493275" lon="13.2032522466">
        <ele>482.6</ele>
        <time>2012-01-15T13:10:58Z</time>
      </trkpt>
      <trkpt lat="63.3952770755" lon="13.2031928189">
        <ele>481.8</ele>
        <time>2012-01-15T13:10:59Z</time>
      </trkpt>
      <trkpt lat="63.3952141274" lon="13.2031944953">
        <ele>481.8</ele>
        <time>2012-01-15T13:11:00Z</time>
      </trkpt>
      <trkpt lat="63.3951277938" lon="13.2029993646">
        <ele>480.4</ele>
        <time>2012-01-15T13:11:02Z</time>
      </trkpt>
      <trkpt lat="63.3950854652" lon="13.2026494201">
        <ele>480</ele>
        <time>2012-01-15T13:11:05Z</time>
      </trkpt>
      <trkpt lat="63.3950753231" lon="13.202531822">
        <ele>480.2</ele>
        <time>2012-01-15T13:11:06Z</time>
      </trkpt>
      <trkpt lat="63.395078592" lon="13.2024462428">
        <ele>479.6</ele>
        <time>2012-01-15T13:11:07Z</time>
      </trkpt>
      <trkpt lat="63.3950938471" lon="13.2022674568">
        <ele>480.4</ele>
        <time>2012-01-15T13:11:09Z</time>
      </trkpt>
      <trkpt lat="63.3951098565" lon="13.2022055984">
        <ele>480.6</ele>
        <time>2012-01-15T13:11:10Z</time>
      </trkpt>
      <trkpt lat="63.3951241896" lon="13.201976018">
        <ele>480.6</ele>
        <time>2012-01-15T13:11:13Z</time>
      </trkpt>
      <trkpt lat="63.3951333258" lon="13.2018969767">
        <ele>480.6</ele>
        <time>2012-01-15T13:11:14Z</time>
      </trkpt>
      <trkpt lat="63.3951205853" lon="13.2016492076">
        <ele>480.4</ele>
        <time>2012-01-15T13:11:18Z</time>
      </trkpt>
      <trkpt lat="63.3951169811" lon="13.2013817411">
        <ele>482</ele>
        <time>2012-01-15T13:11:23Z</time>
      </trkpt>
      <trkpt lat="63.3951188251" lon="13.201027941">
        <ele>481.8</ele>
        <time>2012-01-15T13:11:28Z</time>
      </trkpt>
      <trkpt lat="63.3951205853" lon="13.2007588819">
        <ele>480.6</ele>
        <time>2012-01-15T13:11:32Z</time>
      </trkpt>
      <trkpt lat="63.3950771671" lon="13.2005322352">
        <ele>479.6</ele>
        <time>2012-01-15T13:11:35Z</time>
      </trkpt>
      <trkpt lat="63.3950478304" lon="13.2004863862">
        <ele>479.2</ele>
        <time>2012-01-15T13:11:36Z</time>
      </trkpt>
      <trkpt lat="63.3948915917" lon="13.2003672794">
        <ele>478</ele>
        <time>2012-01-15T13:11:41Z</time>
      </trkpt>
      <trkpt lat="63.3947742451" lon="13.2002437301">
        <ele>477.6</ele>
        <time>2012-01-15T13:11:45Z</time>
      </trkpt>
      <trkpt lat="63.3946255501" lon="13.2002542913">
        <ele>478</ele>
        <time>2012-01-15T13:11:50Z</time>
      </trkpt>
      <trkpt lat="63.3944941219" lon="13.2001959532">
        <ele>479</ele>
        <time>2012-01-15T13:11:54Z</time>
      </trkpt>
      <trkpt lat="63.3943798766" lon="13.2002456579">
        <ele>481</ele>
        <time>2012-01-15T13:11:58Z</time>
      </trkpt>
      <trkpt lat="63.3943285793" lon="13.2002525311">
        <ele>481.2</ele>
        <time>2012-01-15T13:12:00Z</time>
      </trkpt>
      <trkpt lat="63.3942802157" lon="13.2002179138">
        <ele>482.4</ele>
        <time>2012-01-15T13:12:02Z</time>
      </trkpt>
      <trkpt lat="63.3942130767" lon="13.2001680415">
        <ele>482.2</ele>
        <time>2012-01-15T13:12:05Z</time>
      </trkpt>
      <trkpt lat="63.3941884339" lon="13.200119175">
        <ele>482.8</ele>
        <time>2012-01-15T13:12:06Z</time>
      </trkpt>
      <trkpt lat="63.3941306826" lon="13.200019598">
        <ele>482.4</ele>
        <time>2012-01-15T13:12:09Z</time>
      </trkpt>
      <trkpt lat="63.3940877672" lon="13.1999320909">
        <ele>482.6</ele>
        <time>2012-01-15T13:12:11Z</time>
      </trkpt>
      <trkpt lat="63.3940702491" lon="13.1998101342">
        <ele>482</ele>
        <time>2012-01-15T13:12:13Z</time>
      </trkpt>
      <trkpt lat="63.39405315" lon="13.1996777002">
        <ele>481.8</ele>
        <time>2012-01-15T13:12:15Z</time>
      </trkpt>
      <trkpt lat="63.3940023556" lon="13.1994562503">
        <ele>483</ele>
        <time>2012-01-15T13:12:19Z</time>
      </trkpt>
      <trkpt lat="63.3939509746" lon="13.1991925556">
        <ele>484.6</ele>
        <time>2012-01-15T13:12:24Z</time>
      </trkpt>
      <trkpt lat="63.3939034492" lon="13.1990027893">
        <ele>485.2</ele>
        <time>2012-01-15T13:12:27Z</time>
      </trkpt>
      <trkpt lat="63.3938543312" lon="13.1987972651">
        <ele>485.8</ele>
        <time>2012-01-15T13:12:31Z</time>
      </trkpt>
      <trkpt lat="63.393821558" lon="13.1985887233">
        <ele>485.6</ele>
        <time>2012-01-15T13:12:35Z</time>
      </trkpt>
      <trkpt lat="63.3937949035" lon="13.1984254438">
        <ele>486.4</ele>
        <time>2012-01-15T13:12:39Z</time>
      </trkpt>
      <trkpt lat="63.3937875275" lon="13.1983774155">
        <ele>487</ele>
        <time>2012-01-15T13:12:43Z</time>
      </trkpt>
      <trkpt lat="63.3937844262" lon="13.1983399484">
        <ele>488</ele>
        <time>2012-01-15T13:12:51Z</time>
      </trkpt>
      <trkpt lat="63.3937862702" lon="13.1982281338">
        <ele>488.6</ele>
        <time>2012-01-15T13:13:01Z</time>
      </trkpt>
      <trkpt lat="63.3937879466" lon="13.1981412973">
        <ele>488.6</ele>
        <time>2012-01-15T13:13:06Z</time>
      </trkpt>
      <trkpt lat="63.393785432" lon="13.1980576459">
        <ele>488.6</ele>
        <time>2012-01-15T13:13:10Z</time>
      </trkpt>
      <trkpt lat="63.3938032016" lon="13.1978665385">
        <ele>489.6</ele>
        <time>2012-01-15T13:13:16Z</time>
      </trkpt>
      <trkpt lat="63.3938135114" lon="13.1976124831">
        <ele>489.2</ele>
        <time>2012-01-15T13:13:21Z</time>
      </trkpt>
      <trkpt lat="63.3938096557" lon="13.1973463576">
        <ele>489.8</ele>
        <time>2012-01-15T13:13:26Z</time>
      </trkpt>
      <trkpt lat="63.3938089013" lon="13.197106719">
        <ele>489.6</ele>
        <time>2012-01-15T13:13:32Z</time>
      </trkpt>
      <trkpt lat="63.3938111644" lon="13.1971108261">
        <ele>491</ele>
        <time>2012-01-15T13:13:39Z</time>
      </trkpt>
      <trkpt lat="63.3938070573" lon="13.1970525719">
        <ele>492.8</ele>
        <time>2012-01-15T13:13:58Z</time>
      </trkpt>
      <trkpt lat="63.3938104939" lon="13.1970277615">
        <ele>493.4</ele>
        <time>2012-01-15T13:14:01Z</time>
      </trkpt>
      <trkpt lat="63.393774284" lon="13.1969032902">
        <ele>493.6</ele>
        <time>2012-01-15T13:14:07Z</time>
      </trkpt>
      <trkpt lat="63.3937506471" lon="13.1967675872">
        <ele>493</ele>
        <time>2012-01-15T13:14:10Z</time>
      </trkpt>
      <trkpt lat="63.3937427681" lon="13.1967126019">
        <ele>492.6</ele>
        <time>2012-01-15T13:14:11Z</time>
      </trkpt>
      <trkpt lat="63.3937216457" lon="13.1965440419">
        <ele>492.2</ele>
        <time>2012-01-15T13:14:15Z</time>
      </trkpt>
      <trkpt lat="63.3937164489" lon="13.1965136994">
        <ele>492.6</ele>
        <time>2012-01-15T13:14:16Z</time>
      </trkpt>
      <trkpt lat="63.3937130123" lon="13.196461061">
        <ele>493</ele>
        <time>2012-01-15T13:14:20Z</time>
      </trkpt>
      <trkpt lat="63.3937218133" lon="13.1963241845">
        <ele>494</ele>
        <time>2012-01-15T13:14:25Z</time>
      </trkpt>
      <trkpt lat="63.3937397506" lon="13.1962191593">
        <ele>494.6</ele>
        <time>2012-01-15T13:14:28Z</time>
      </trkpt>
      <trkpt lat="63.3937877789" lon="13.1961189117">
        <ele>494.8</ele>
        <time>2012-01-15T13:14:31Z</time>
      </trkpt>
      <trkpt lat="63.3937934786" lon="13.1960699614">
        <ele>495</ele>
        <time>2012-01-15T13:14:32Z</time>
      </trkpt>
      <trkpt lat="63.3938337117" lon="13.1959967874">
        <ele>495.8</ele>
        <time>2012-01-15T13:14:35Z</time>
      </trkpt>
      <trkpt lat="63.3938715979" lon="13.1958804466">
        <ele>496.2</ele>
        <time>2012-01-15T13:14:38Z</time>
      </trkpt>
      <trkpt lat="63.3938923851" lon="13.1958449073">
        <ele>496.2</ele>
        <time>2012-01-15T13:14:39Z</time>
      </trkpt>
      <trkpt lat="63.3939423412" lon="13.195720939">
        <ele>495.8</ele>
        <time>2012-01-15T13:14:42Z</time>
      </trkpt>
      <trkpt lat="63.3939735219" lon="13.1956358626">
        <ele>495.8</ele>
        <time>2012-01-15T13:14:44Z</time>
      </trkpt>
      <trkpt lat="63.3940142579" lon="13.1955211982">
        <ele>495.8</ele>
        <time>2012-01-15T13:14:47Z</time>
      </trkpt>
      <trkpt lat="63.3940265793" lon="13.195477277">
        <ele>495.6</ele>
        <time>2012-01-15T13:14:48Z</time>
      </trkpt>
      <trkpt lat="63.3941092249" lon="13.1952718366">
        <ele>496</ele>
        <time>2012-01-15T13:14:53Z</time>
      </trkpt>
      <trkpt lat="63.3941915352" lon="13.1950799748">
        <ele>495.6</ele>
        <time>2012-01-15T13:14:57Z</time>
      </trkpt>
      <trkpt lat="63.3942709956" lon="13.1949329562">
        <ele>495.4</ele>
        <time>2012-01-15T13:15:01Z</time>
      </trkpt>
      <trkpt lat="63.3943535574" lon="13.1947912183">
        <ele>495.6</ele>
        <time>2012-01-15T13:15:05Z</time>
      </trkpt>
      <trkpt lat="63.394445423" lon="13.1946752965">
        <ele>496</ele>
        <time>2012-01-15T13:15:09Z</time>
      </trkpt>
      <trkpt lat="63.3945895918" lon="13.194594495">
        <ele>496</ele>
        <time>2012-01-15T13:15:15Z</time>
      </trkpt>
      <trkpt lat="63.3947179187" lon="13.1945509091">
        <ele>493.8</ele>
        <time>2012-01-15T13:15:20Z</time>
      </trkpt>
      <trkpt lat="63.3948423062" lon="13.1945042219">
        <ele>491.4</ele>
        <time>2012-01-15T13:15:24Z</time>
      </trkpt>
      <trkpt lat="63.3950199187" lon="13.1943890546">
        <ele>490.6</ele>
        <time>2012-01-15T13:15:29Z</time>
      </trkpt>
      <trkpt lat="63.3951190766" lon="13.1941713765">
        <ele>491</ele>
        <time>2012-01-15T13:15:33Z</time>
      </trkpt>
      <trkpt lat="63.3952677716" lon="13.1939167343">
        <ele>491.8</ele>
        <time>2012-01-15T13:15:38Z</time>
      </trkpt>
      <trkpt lat="63.3953916561" lon="13.1936793588">
        <ele>491.8</ele>
        <time>2012-01-15T13:15:42Z</time>
      </trkpt>
      <trkpt lat="63.3954883832" lon="13.193422202">
        <ele>491.6</ele>
        <time>2012-01-15T13:15:46Z</time>
      </trkpt>
      <trkpt lat="63.3955547679" lon="13.193206368">
        <ele>491.2</ele>
        <time>2012-01-15T13:15:50Z</time>
      </trkpt>
      <trkpt lat="63.3956372458" lon="13.1930188648">
        <ele>489.6</ele>
        <time>2012-01-15T13:15:55Z</time>
      </trkpt>
      <trkpt lat="63.3957208134" lon="13.1929004285">
        <ele>488.2</ele>
        <time>2012-01-15T13:15:59Z</time>
      </trkpt>
      <trkpt lat="63.3957374096" lon="13.1928331219">
        <ele>488.2</ele>
        <time>2012-01-15T13:16:01Z</time>
      </trkpt>
      <trkpt lat="63.3957514074" lon="13.1927611213">
        <ele>489.2</ele>
        <time>2012-01-15T13:16:03Z</time>
      </trkpt>
      <trkpt lat="63.3957562689" lon="13.1926766317">
        <ele>490</ele>
        <time>2012-01-15T13:16:05Z</time>
      </trkpt>
      <trkpt lat="63.395758532" lon="13.1926210597">
        <ele>490.4</ele>
        <time>2012-01-15T13:16:07Z</time>
      </trkpt>
      <trkpt lat="63.3957435284" lon="13.1924772263">
        <ele>491.8</ele>
        <time>2012-01-15T13:16:11Z</time>
      </trkpt>
      <trkpt lat="63.3957458753" lon="13.1924591213">
        <ele>491.8</ele>
        <time>2012-01-15T13:16:12Z</time>
      </trkpt>
      <trkpt lat="63.3957393374" lon="13.1924307905">
        <ele>491.8</ele>
        <time>2012-01-15T13:16:13Z</time>
      </trkpt>
      <trkpt lat="63.3957192209" lon="13.1923162099">
        <ele>491.2</ele>
        <time>2012-01-15T13:16:16Z</time>
      </trkpt>
      <trkpt lat="63.3957005292" lon="13.1921836082">
        <ele>492.2</ele>
        <time>2012-01-15T13:16:20Z</time>
      </trkpt>
      <trkpt lat="63.3956892975" lon="13.1920254417">
        <ele>493</ele>
        <time>2012-01-15T13:16:25Z</time>
      </trkpt>
      <trkpt lat="63.3957009483" lon="13.1919393595">
        <ele>493.8</ele>
        <time>2012-01-15T13:16:29Z</time>
      </trkpt>
      <trkpt lat="63.3957027923" lon="13.1919018086">
        <ele>494</ele>
        <time>2012-01-15T13:16:30Z</time>
      </trkpt>
      <trkpt lat="63.39571964" lon="13.1917227712">
        <ele>495</ele>
        <time>2012-01-15T13:16:36Z</time>
      </trkpt>
      <trkpt lat="63.3957411814" lon="13.1916051731">
        <ele>496.2</ele>
        <time>2012-01-15T13:16:41Z</time>
      </trkpt>
      <trkpt lat="63.3957604598" lon="13.1914687157">
        <ele>497.2</ele>
        <time>2012-01-15T13:16:46Z</time>
      </trkpt>
      <trkpt lat="63.3957752958" lon="13.1913688872">
        <ele>498</ele>
        <time>2012-01-15T13:16:49Z</time>
      </trkpt>
      <trkpt lat="63.3957799058" lon="13.1913688034">
        <ele>498.4</ele>
        <time>2012-01-15T13:16:50Z</time>
      </trkpt>
      <trkpt lat="63.3957944065" lon="13.1913816277">
        <ele>499.2</ele>
        <time>2012-01-15T13:16:59Z</time>
      </trkpt>
      <trkpt lat="63.3958193008" lon="13.1912395544">
        <ele>500.2</ele>
        <time>2012-01-15T13:17:13Z</time>
      </trkpt>
      <trkpt lat="63.3958249167" lon="13.1910934579">
        <ele>500.2</ele>
        <time>2012-01-15T13:17:17Z</time>
      </trkpt>
      <trkpt lat="63.3958350588" lon="13.1908829883">
        <ele>500.8</ele>
        <time>2012-01-15T13:17:23Z</time>
      </trkpt>
      <trkpt lat="63.395853918" lon="13.190665897">
        <ele>501.6</ele>
        <time>2012-01-15T13:17:28Z</time>
      </trkpt>
      <trkpt lat="63.3958731126" lon="13.1904788129">
        <ele>501.2</ele>
        <time>2012-01-15T13:17:33Z</time>
      </trkpt>
      <trkpt lat="63.395879399" lon="13.1904261746">
        <ele>501.4</ele>
        <time>2012-01-15T13:17:35Z</time>
      </trkpt>
      <trkpt lat="63.3958791476" lon="13.1903334707">
        <ele>501.6</ele>
        <time>2012-01-15T13:17:38Z</time>
      </trkpt>
      <trkpt lat="63.3958844282" lon="13.1901441235">
        <ele>503</ele>
        <time>2012-01-15T13:17:44Z</time>
      </trkpt>
      <trkpt lat="63.395886356" lon="13.1899955124">
        <ele>503.8</ele>
        <time>2012-01-15T13:17:48Z</time>
      </trkpt>
      <trkpt lat="63.3958886191" lon="13.1899559498">
        <ele>503.4</ele>
        <time>2012-01-15T13:17:49Z</time>
      </trkpt>
      <trkpt lat="63.3959129266" lon="13.189843297">
        <ele>503.2</ele>
        <time>2012-01-15T13:17:52Z</time>
      </trkpt>
      <trkpt lat="63.3959214762" lon="13.1897655968">
        <ele>503.2</ele>
        <time>2012-01-15T13:17:54Z</time>
      </trkpt>
      <trkpt lat="63.3959647268" lon="13.1895286404">
        <ele>505.4</ele>
        <time>2012-01-15T13:18:00Z</time>
      </trkpt>
      <trkpt lat="63.3959837537" lon="13.1894003134">
        <ele>506.2</ele>
        <time>2012-01-15T13:18:04Z</time>
      </trkpt>
      <trkpt lat="63.3959845919" lon="13.1893378682">
        <ele>507</ele>
        <time>2012-01-15T13:18:06Z</time>
      </trkpt>
      <trkpt lat="63.3959749527" lon="13.1893110462">
        <ele>507</ele>
        <time>2012-01-15T13:18:07Z</time>
      </trkpt>
      <trkpt lat="63.3959815744" lon="13.1892098766">
        <ele>507</ele>
        <time>2012-01-15T13:18:10Z</time>
      </trkpt>
      <trkpt lat="63.3959568478" lon="13.1890131533">
        <ele>506.4</ele>
        <time>2012-01-15T13:18:14Z</time>
      </trkpt>
      <trkpt lat="63.3959325403" lon="13.1887280848">
        <ele>505.2</ele>
        <time>2012-01-15T13:18:19Z</time>
      </trkpt>
      <trkpt lat="63.3959346358" lon="13.1885704212">
        <ele>505.8</ele>
        <time>2012-01-15T13:18:24Z</time>
      </trkpt>
      <trkpt lat="63.3959560934" lon="13.188449638">
        <ele>507.4</ele>
        <time>2012-01-15T13:18:28Z</time>
      </trkpt>
      <trkpt lat="63.3959679119" lon="13.1883982569">
        <ele>507.4</ele>
        <time>2012-01-15T13:18:30Z</time>
      </trkpt>
      <trkpt lat="63.3960042894" lon="13.1882003602">
        <ele>509.6</ele>
        <time>2012-01-15T13:18:36Z</time>
      </trkpt>
      <trkpt lat="63.3960446063" lon="13.1880130246">
        <ele>510.6</ele>
        <time>2012-01-15T13:18:41Z</time>
      </trkpt>
      <trkpt lat="63.3960577659" lon="13.1879608892">
        <ele>510.8</ele>
        <time>2012-01-15T13:18:42Z</time>
      </trkpt>
      <trkpt lat="63.3960788883" lon="13.1878209952">
        <ele>511.2</ele>
        <time>2012-01-15T13:18:45Z</time>
      </trkpt>
      <trkpt lat="63.3960822411" lon="13.1876988709">
        <ele>511.2</ele>
        <time>2012-01-15T13:18:48Z</time>
      </trkpt>
      <trkpt lat="63.3960825764" lon="13.1874901615">
        <ele>511.6</ele>
        <time>2012-01-15T13:18:53Z</time>
      </trkpt>
      <trkpt lat="63.3960780501" lon="13.187256977">
        <ele>512.4</ele>
        <time>2012-01-15T13:18:58Z</time>
      </trkpt>
      <trkpt lat="63.3960801456" lon="13.1870540511">
        <ele>511.8</ele>
        <time>2012-01-15T13:19:02Z</time>
      </trkpt>
      <trkpt lat="63.3960862644" lon="13.1870251335">
        <ele>512</ele>
        <time>2012-01-15T13:19:03Z</time>
      </trkpt>
      <trkpt lat="63.3961090632" lon="13.186749788">
        <ele>511</ele>
        <time>2012-01-15T13:19:08Z</time>
      </trkpt>
      <trkpt lat="63.396155918" lon="13.1864904519">
        <ele>510</ele>
        <time>2012-01-15T13:19:13Z</time>
      </trkpt>
      <trkpt lat="63.3961731009" lon="13.1863932218">
        <ele>510.2</ele>
        <time>2012-01-15T13:19:15Z</time>
      </trkpt>
      <trkpt lat="63.3961876854" lon="13.1863027811">
        <ele>510</ele>
        <time>2012-01-15T13:19:17Z</time>
      </trkpt>
      <trkpt lat="63.3962072991" lon="13.1862410065">
        <ele>510</ele>
        <time>2012-01-15T13:19:19Z</time>
      </trkpt>
      <trkpt lat="63.3962279186" lon="13.1861555111">
        <ele>510.2</ele>
        <time>2012-01-15T13:19:22Z</time>
      </trkpt>
      <trkpt lat="63.3962396532" lon="13.1861338858">
        <ele>510.8</ele>
        <time>2012-01-15T13:19:23Z</time>
      </trkpt>
      <trkpt lat="63.3962776233" lon="13.185948059">
        <ele>511.2</ele>
        <time>2012-01-15T13:19:27Z</time>
      </trkpt>
      <trkpt lat="63.3963217121" lon="13.185803974">
        <ele>512.4</ele>
        <time>2012-01-15T13:19:32Z</time>
      </trkpt>
      <trkpt lat="63.3963632025" lon="13.1857055705">
        <ele>513</ele>
        <time>2012-01-15T13:19:35Z</time>
      </trkpt>
      <trkpt lat="63.3963901084" lon="13.185635414">
        <ele>513</ele>
        <time>2012-01-15T13:19:37Z</time>
      </trkpt>
      <trkpt lat="63.3964849077" lon="13.1854771636">
        <ele>514</ele>
        <time>2012-01-15T13:19:43Z</time>
      </trkpt>
      <trkpt lat="63.3965770248" lon="13.1853486691">
        <ele>515</ele>
        <time>2012-01-15T13:19:48Z</time>
      </trkpt>
      <trkpt lat="63.3966372069" lon="13.1852256227">
        <ele>515</ele>
        <time>2012-01-15T13:19:52Z</time>
      </trkpt>
      <trkpt lat="63.3967144042" lon="13.185175918">
        <ele>515.2</ele>
        <time>2012-01-15T13:19:56Z</time>
      </trkpt>
      <trkpt lat="63.3968040068" lon="13.1850693841">
        <ele>513.6</ele>
        <time>2012-01-15T13:20:01Z</time>
      </trkpt>
      <trkpt lat="63.3969091997" lon="13.1847553141">
        <ele>511.6</ele>
        <time>2012-01-15T13:20:06Z</time>
      </trkpt>
      <trkpt lat="63.3970080223" lon="13.184530763">
        <ele>512.2</ele>
        <time>2012-01-15T13:20:11Z</time>
      </trkpt>
      <trkpt lat="63.3970569726" lon="13.1843592692">
        <ele>513.6</ele>
        <time>2012-01-15T13:20:15Z</time>
      </trkpt>
      <trkpt lat="63.3971693739" lon="13.18410974">
        <ele>515.8</ele>
        <time>2012-01-15T13:20:21Z</time>
      </trkpt>
      <trkpt lat="63.3972044941" lon="13.1840389967">
        <ele>517</ele>
        <time>2012-01-15T13:20:24Z</time>
      </trkpt>
      <trkpt lat="63.3972479962" lon="13.1838529184">
        <ele>517</ele>
        <time>2012-01-15T13:20:30Z</time>
      </trkpt>
      <trkpt lat="63.3973137103" lon="13.1837187242">
        <ele>519.4</ele>
        <time>2012-01-15T13:20:35Z</time>
      </trkpt>
      <trkpt lat="63.3973804303" lon="13.1835423689">
        <ele>521.6</ele>
        <time>2012-01-15T13:20:40Z</time>
      </trkpt>
      <trkpt lat="63.3974406961" lon="13.1834181491">
        <ele>522.4</ele>
        <time>2012-01-15T13:20:44Z</time>
      </trkpt>
      <trkpt lat="63.3975063264" lon="13.183230646">
        <ele>522.2</ele>
        <time>2012-01-15T13:20:49Z</time>
      </trkpt>
      <trkpt lat="63.3975618146" lon="13.1830251217">
        <ele>522.4</ele>
        <time>2012-01-15T13:20:53Z</time>
      </trkpt>
      <trkpt lat="63.3976406045" lon="13.1828754209">
        <ele>522.4</ele>
        <time>2012-01-15T13:20:57Z</time>
      </trkpt>
      <trkpt lat="63.3976611402" lon="13.182858238">
        <ele>522.2</ele>
        <time>2012-01-15T13:20:58Z</time>
      </trkpt>
      <trkpt lat="63.3977792412" lon="13.1827392988">
        <ele>521</ele>
        <time>2012-01-15T13:21:04Z</time>
      </trkpt>
      <trkpt lat="63.3979130164" lon="13.1826344412">
        <ele>520.8</ele>
        <time>2012-01-15T13:21:10Z</time>
      </trkpt>
      <trkpt lat="63.3980326261" lon="13.1825610157">
        <ele>520.8</ele>
        <time>2012-01-15T13:21:15Z</time>
      </trkpt>
      <trkpt lat="63.3981493022" lon="13.18251458">
        <ele>520.8</ele>
        <time>2012-01-15T13:21:20Z</time>
      </trkpt>
      <trkpt lat="63.3982602786" lon="13.1824815553">
        <ele>520.8</ele>
        <time>2012-01-15T13:21:24Z</time>
      </trkpt>
      <trkpt lat="63.3983660582" lon="13.1824596785">
        <ele>520.4</ele>
        <time>2012-01-15T13:21:28Z</time>
      </trkpt>
      <trkpt lat="63.3984681498" lon="13.1824228819">
        <ele>520.6</ele>
        <time>2012-01-15T13:21:32Z</time>
      </trkpt>
      <trkpt lat="63.3985829819" lon="13.1823291723">
        <ele>520.6</ele>
        <time>2012-01-15T13:21:37Z</time>
      </trkpt>
      <trkpt lat="63.3985995781" lon="13.1822745223">
        <ele>521</ele>
        <time>2012-01-15T13:21:40Z</time>
      </trkpt>
      <trkpt lat="63.3986119833" lon="13.1822209619">
        <ele>521.8</ele>
        <time>2012-01-15T13:21:42Z</time>
      </trkpt>
      <trkpt lat="63.398611648" lon="13.1821731012">
        <ele>521.8</ele>
        <time>2012-01-15T13:21:43Z</time>
      </trkpt>
      <trkpt lat="63.3986276574" lon="13.182087522">
        <ele>522.6</ele>
        <time>2012-01-15T13:21:46Z</time>
      </trkpt>
      <trkpt lat="63.3986476064" lon="13.1819324568">
        <ele>523</ele>
        <time>2012-01-15T13:21:52Z</time>
      </trkpt>
      <trkpt lat="63.3986586705" lon="13.1818080693">
        <ele>522.6</ele>
        <time>2012-01-15T13:21:56Z</time>
      </trkpt>
      <trkpt lat="63.3986675553" lon="13.1817257591">
        <ele>522.4</ele>
        <time>2012-01-15T13:21:58Z</time>
      </trkpt>
      <trkpt lat="63.3986467682" lon="13.1815724541">
        <ele>522</ele>
        <time>2012-01-15T13:22:03Z</time>
      </trkpt>
      <trkpt lat="63.3986384701" lon="13.181541441">
        <ele>522</ele>
        <time>2012-01-15T13:22:04Z</time>
      </trkpt>
      <trkpt lat="63.3985691518" lon="13.1813763175">
        <ele>523</ele>
        <time>2012-01-15T13:22:10Z</time>
      </trkpt>
      <trkpt lat="63.3985528909" lon="13.1813381799">
        <ele>523.2</ele>
        <time>2012-01-15T13:22:11Z</time>
      </trkpt>
      <trkpt lat="63.3985084668" lon="13.1812201627">
        <ele>524</ele>
        <time>2012-01-15T13:22:15Z</time>
      </trkpt>
      <trkpt lat="63.3984950557" lon="13.1811864674">
        <ele>524.6</ele>
        <time>2012-01-15T13:22:16Z</time>
      </trkpt>
      <trkpt lat="63.3984433394" lon="13.1811341643">
        <ele>524.6</ele>
        <time>2012-01-15T13:22:19Z</time>
      </trkpt>
      <trkpt lat="63.3984312695" lon="13.1810946018">
        <ele>524.4</ele>
        <time>2012-01-15T13:22:20Z</time>
      </trkpt>
      <trkpt lat="63.3984030224" lon="13.1809312385">
        <ele>523.2</ele>
        <time>2012-01-15T13:22:24Z</time>
      </trkpt>
      <trkpt lat="63.3983544912" lon="13.1807690486">
        <ele>523.6</ele>
        <time>2012-01-15T13:22:29Z</time>
      </trkpt>
      <trkpt lat="63.3982893638" lon="13.1805923581">
        <ele>523.6</ele>
        <time>2012-01-15T13:22:35Z</time>
      </trkpt>
      <trkpt lat="63.3982008509" lon="13.1804222893">
        <ele>524.4</ele>
        <time>2012-01-15T13:22:41Z</time>
      </trkpt>
      <trkpt lat="63.3981788903" lon="13.1803676393">
        <ele>524.2</ele>
        <time>2012-01-15T13:22:43Z</time>
      </trkpt>
      <trkpt lat="63.3981608693" lon="13.1803024281">
        <ele>525.4</ele>
        <time>2012-01-15T13:22:46Z</time>
      </trkpt>
      <trkpt lat="63.3981431834" lon="13.1802354567">
        <ele>525.6</ele>
        <time>2012-01-15T13:22:48Z</time>
      </trkpt>
      <trkpt lat="63.398100771" lon="13.1801169366">
        <ele>525.8</ele>
        <time>2012-01-15T13:22:51Z</time>
      </trkpt>
      <trkpt lat="63.3980441093" lon="13.1799696665">
        <ele>525.8</ele>
        <time>2012-01-15T13:22:55Z</time>
      </trkpt>
      <trkpt lat="63.3980041277" lon="13.1798394118">
        <ele>527.4</ele>
        <time>2012-01-15T13:23:00Z</time>
      </trkpt>
      <trkpt lat="63.3979940694" lon="13.179805968">
        <ele>527.8</ele>
        <time>2012-01-15T13:23:06Z</time>
      </trkpt>
      <trkpt lat="63.3979580272" lon="13.1797261722">
        <ele>528.4</ele>
        <time>2012-01-15T13:23:10Z</time>
      </trkpt>
      <trkpt lat="63.397913184" lon="13.1796098314">
        <ele>529.4</ele>
        <time>2012-01-15T13:23:15Z</time>
      </trkpt>
      <trkpt lat="63.3978775609" lon="13.1795248389">
        <ele>530</ele>
        <time>2012-01-15T13:23:19Z</time>
      </trkpt>
      <trkpt lat="63.3978473861" lon="13.1794613041">
        <ele>530.2</ele>
        <time>2012-01-15T13:23:21Z</time>
      </trkpt>
      <trkpt lat="63.397759879" lon="13.1792534329">
        <ele>529</ele>
        <time>2012-01-15T13:23:27Z</time>
      </trkpt>
      <trkpt lat="63.3976753894" lon="13.1790854596">
        <ele>529.2</ele>
        <time>2012-01-15T13:23:31Z</time>
      </trkpt>
      <trkpt lat="63.3975754771" lon="13.17889167">
        <ele>530.6</ele>
        <time>2012-01-15T13:23:37Z</time>
      </trkpt>
      <trkpt lat="63.3975054882" lon="13.1787422206">
        <ele>531.2</ele>
        <time>2012-01-15T13:23:41Z</time>
      </trkpt>
      <trkpt lat="63.3974291291" lon="13.1785931904">
        <ele>531.6</ele>
        <time>2012-01-15T13:23:45Z</time>
      </trkpt>
      <trkpt lat="63.39735738" lon="13.1784513686">
        <ele>530.6</ele>
        <time>2012-01-15T13:23:49Z</time>
      </trkpt>
      <trkpt lat="63.397270795" lon="13.1782795396">
        <ele>530.8</ele>
        <time>2012-01-15T13:23:54Z</time>
      </trkpt>
      <trkpt lat="63.3971990459" lon="13.1780168507">
        <ele>530.2</ele>
        <time>2012-01-15T13:24:00Z</time>
      </trkpt>
      <trkpt lat="63.3972094394" lon="13.1779505499">
        <ele>530.6</ele>
        <time>2012-01-15T13:24:04Z</time>
      </trkpt>
      <trkpt lat="63.3972226828" lon="13.177882405">
        <ele>531.8</ele>
        <time>2012-01-15T13:24:08Z</time>
      </trkpt>
      <trkpt lat="63.3972336631" lon="13.1778363883">
        <ele>532.2</ele>
        <time>2012-01-15T13:24:10Z</time>
      </trkpt>
      <trkpt lat="63.3972654305" lon="13.1777617056">
        <ele>532.6</ele>
        <time>2012-01-15T13:24:15Z</time>
      </trkpt>
      <trkpt lat="63.3972970303" lon="13.1776627153">
        <ele>532.8</ele>
        <time>2012-01-15T13:24:20Z</time>
      </trkpt>
      <trkpt lat="63.3973103575" lon="13.1776104122">
        <ele>532.8</ele>
        <time>2012-01-15T13:24:22Z</time>
      </trkpt>
      <trkpt lat="63.397342125" lon="13.1774801575">
        <ele>533.6</ele>
        <time>2012-01-15T13:24:28Z</time>
      </trkpt>
      <trkpt lat="63.3973800112" lon="13.1773048919">
        <ele>534.6</ele>
        <time>2012-01-15T13:24:35Z</time>
      </trkpt>
      <trkpt lat="63.3974022232" lon="13.1771726254">
        <ele>534.4</ele>
        <time>2012-01-15T13:24:39Z</time>
      </trkpt>
      <trkpt lat="63.3974299673" lon="13.1770049036">
        <ele>535.4</ele>
        <time>2012-01-15T13:24:43Z</time>
      </trkpt>
      <trkpt lat="63.3974364214" lon="13.1769142952">
        <ele>535.8</ele>
        <time>2012-01-15T13:24:45Z</time>
      </trkpt>
      <trkpt lat="63.3974519279" lon="13.1767460704">
        <ele>535.8</ele>
        <time>2012-01-15T13:24:49Z</time>
      </trkpt>
      <trkpt lat="63.3974525146" lon="13.1766866427">
        <ele>535.6</ele>
        <time>2012-01-15T13:24:52Z</time>
      </trkpt>
      <trkpt lat="63.3974554483" lon="13.1766370218">
        <ele>535.2</ele>
        <time>2012-01-15T13:24:54Z</time>
      </trkpt>
      <trkpt lat="63.3974562865" lon="13.1765288953">
        <ele>535.2</ele>
        <time>2012-01-15T13:24:59Z</time>
      </trkpt>
      <trkpt lat="63.3974621538" lon="13.176479945">
        <ele>535.4</ele>
        <time>2012-01-15T13:25:01Z</time>
      </trkpt>
      <trkpt lat="63.397480594" lon="13.1764103752">
        <ele>535.6</ele>
        <time>2012-01-15T13:25:05Z</time>
      </trkpt>
      <trkpt lat="63.3974826057" lon="13.1763234548">
        <ele>536</ele>
        <time>2012-01-15T13:25:11Z</time>
      </trkpt>
      <trkpt lat="63.3974970225" lon="13.1762683857">
        <ele>536.6</ele>
        <time>2012-01-15T13:25:15Z</time>
      </trkpt>
      <trkpt lat="63.3975135349" lon="13.1762397196">
        <ele>536.6</ele>
        <time>2012-01-15T13:25:18Z</time>
      </trkpt>
      <trkpt lat="63.3975235932" lon="13.1761890091">
        <ele>536.8</ele>
        <time>2012-01-15T13:25:20Z</time>
      </trkpt>
      <trkpt lat="63.3975455537" lon="13.1761196908">
        <ele>537.2</ele>
        <time>2012-01-15T13:25:25Z</time>
      </trkpt>
      <trkpt lat="63.3975666761" lon="13.1759932917">
        <ele>538.4</ele>
        <time>2012-01-15T13:25:31Z</time>
      </trkpt>
      <trkpt lat="63.397610262" lon="13.175869491">
        <ele>540</ele>
        <time>2012-01-15T13:25:37Z</time>
      </trkpt>
      <trkpt lat="63.3976161294" lon="13.1758565828">
        <ele>540</ele>
        <time>2012-01-15T13:25:38Z</time>
      </trkpt>
      <trkpt lat="63.3976498246" lon="13.175782403">
        <ele>540.6</ele>
        <time>2012-01-15T13:25:43Z</time>
      </trkpt>
      <trkpt lat="63.3977239206" lon="13.175661955">
        <ele>540</ele>
        <time>2012-01-15T13:25:49Z</time>
      </trkpt>
      <trkpt lat="63.3977900539" lon="13.1755430158">
        <ele>539.4</ele>
        <time>2012-01-15T13:25:55Z</time>
      </trkpt>
      <trkpt lat="63.3978781477" lon="13.1753762159">
        <ele>539.2</ele>
        <time>2012-01-15T13:26:01Z</time>
      </trkpt>
      <trkpt lat="63.3979642298" lon="13.1752251741">
        <ele>539.2</ele>
        <time>2012-01-15T13:26:05Z</time>
      </trkpt>
      <trkpt lat="63.3981023636" lon="13.1750730425">
        <ele>538.4</ele>
        <time>2012-01-15T13:26:10Z</time>
      </trkpt>
      <trkpt lat="63.3981701732" lon="13.1748916581">
        <ele>538.2</ele>
        <time>2012-01-15T13:26:14Z</time>
      </trkpt>
      <trkpt lat="63.3982265834" lon="13.1747137941">
        <ele>539</ele>
        <time>2012-01-15T13:26:18Z</time>
      </trkpt>
      <trkpt lat="63.3982737735" lon="13.1743932702">
        <ele>539</ele>
        <time>2012-01-15T13:26:24Z</time>
      </trkpt>
      <trkpt lat="63.3982700016" lon="13.1741300784">
        <ele>538.4</ele>
        <time>2012-01-15T13:26:29Z</time>
      </trkpt>
      <trkpt lat="63.3982713427" lon="13.1738132425">
        <ele>534</ele>
        <time>2012-01-15T13:26:34Z</time>
      </trkpt>
      <trkpt lat="63.3983025234" lon="13.1735860091">
        <ele>536.2</ele>
        <time>2012-01-15T13:26:39Z</time>
      </trkpt>
      <trkpt lat="63.3983427566" lon="13.1733444426">
        <ele>535.4</ele>
        <time>2012-01-15T13:26:44Z</time>
      </trkpt>
      <trkpt lat="63.3984168526" lon="13.1730796583">
        <ele>534.4</ele>
        <time>2012-01-15T13:26:49Z</time>
      </trkpt>
      <trkpt lat="63.3984953072" lon="13.172885282">
        <ele>533.2</ele>
        <time>2012-01-15T13:26:54Z</time>
      </trkpt>
      <trkpt lat="63.3986053616" lon="13.1726973597">
        <ele>530.8</ele>
        <time>2012-01-15T13:27:00Z</time>
      </trkpt>
      <trkpt lat="63.3986774459" lon="13.1725749839">
        <ele>530</ele>
        <time>2012-01-15T13:27:04Z</time>
      </trkpt>
      <trkpt lat="63.3987819683" lon="13.1723776739">
        <ele>531.8</ele>
        <time>2012-01-15T13:27:09Z</time>
      </trkpt>
      <trkpt lat="63.3988870773" lon="13.1720284">
        <ele>534</ele>
        <time>2012-01-15T13:27:16Z</time>
      </trkpt>
      <trkpt lat="63.3989331778" lon="13.1717395596">
        <ele>535.4</ele>
        <time>2012-01-15T13:27:21Z</time>
      </trkpt>
      <trkpt lat="63.3989762608" lon="13.1713566743">
        <ele>536.6</ele>
        <time>2012-01-15T13:27:26Z</time>
      </trkpt>
      <trkpt lat="63.3989990596" lon="13.1710270979">
        <ele>536.6</ele>
        <time>2012-01-15T13:27:31Z</time>
      </trkpt>
      <trkpt lat="63.3990553021" lon="13.1707845256">
        <ele>537</ele>
        <time>2012-01-15T13:27:35Z</time>
      </trkpt>
      <trkpt lat="63.3991075214" lon="13.1705168076">
        <ele>537.8</ele>
        <time>2012-01-15T13:27:39Z</time>
      </trkpt>
      <trkpt lat="63.3992081881" lon="13.1701725628">
        <ele>538.8</ele>
        <time>2012-01-15T13:27:44Z</time>
      </trkpt>
      <trkpt lat="63.3992773388" lon="13.1699218601">
        <ele>539</ele>
        <time>2012-01-15T13:27:48Z</time>
      </trkpt>
      <trkpt lat="63.3993350901" lon="13.1695862487">
        <ele>539</ele>
        <time>2012-01-15T13:27:53Z</time>
      </trkpt>
      <trkpt lat="63.3993723057" lon="13.1692343764">
        <ele>539.4</ele>
        <time>2012-01-15T13:27:58Z</time>
      </trkpt>
      <trkpt lat="63.3994285483" lon="13.168878397">
        <ele>538</ele>
        <time>2012-01-15T13:28:02Z</time>
      </trkpt>
      <trkpt lat="63.3995012194" lon="13.1685577054">
        <ele>536.8</ele>
        <time>2012-01-15T13:28:06Z</time>
      </trkpt>
      <trkpt lat="63.3995428775" lon="13.1684465613">
        <ele>536</ele>
        <time>2012-01-15T13:28:07Z</time>
      </trkpt>
      <trkpt lat="63.3996075857" lon="13.1682647578">
        <ele>535.8</ele>
        <time>2012-01-15T13:28:09Z</time>
      </trkpt>
      <trkpt lat="63.3996502496" lon="13.1681940984">
        <ele>535.6</ele>
        <time>2012-01-15T13:28:10Z</time>
      </trkpt>
      <trkpt lat="63.3997553587" lon="13.1680767518">
        <ele>535.2</ele>
        <time>2012-01-15T13:28:13Z</time>
      </trkpt>
      <trkpt lat="63.3997616451" lon="13.1680595689">
        <ele>534.8</ele>
        <time>2012-01-15T13:28:14Z</time>
      </trkpt>
      <trkpt lat="63.3997931611" lon="13.1680278014">
        <ele>535</ele>
        <time>2012-01-15T13:28:16Z</time>
      </trkpt>
      <trkpt lat="63.3998030517" lon="13.1680223532">
        <ele>535</ele>
        <time>2012-01-15T13:28:17Z</time>
      </trkpt>
      <trkpt lat="63.3998400159" lon="13.1679138076">
        <ele>535.6</ele>
        <time>2012-01-15T13:28:21Z</time>
      </trkpt>
      <trkpt lat="63.3998944983" lon="13.1677491032">
        <ele>535.8</ele>
        <time>2012-01-15T13:28:26Z</time>
      </trkpt>
      <trkpt lat="63.4000214003" lon="13.1675193552">
        <ele>536</ele>
        <time>2012-01-15T13:28:33Z</time>
      </trkpt>
      <trkpt lat="63.4001964983" lon="13.1674164254">
        <ele>536</ele>
        <time>2012-01-15T13:28:38Z</time>
      </trkpt>
      <trkpt lat="63.4003928024" lon="13.1673084665">
        <ele>537.2</ele>
        <time>2012-01-15T13:28:43Z</time>
      </trkpt>
      <trkpt lat="63.4005618654" lon="13.1671821512">
        <ele>539.4</ele>
        <time>2012-01-15T13:28:47Z</time>
      </trkpt>
      <trkpt lat="63.4005890228" lon="13.1671597715">
        <ele>539</ele>
        <time>2012-01-15T13:28:48Z</time>
      </trkpt>
      <trkpt lat="63.4006993286" lon="13.1670489628">
        <ele>539</ele>
        <time>2012-01-15T13:28:53Z</time>
      </trkpt>
      <trkpt lat="63.4007866681" lon="13.166908063">
        <ele>540.4</ele>
        <time>2012-01-15T13:28:59Z</time>
      </trkpt>
      <trkpt lat="63.4008256439" lon="13.1668036245">
        <ele>539.8</ele>
        <time>2012-01-15T13:29:03Z</time>
      </trkpt>
      <trkpt lat="63.4008462634" lon="13.1667704321">
        <ele>539.8</ele>
        <time>2012-01-15T13:29:04Z</time>
      </trkpt>
      <trkpt lat="63.4008981474" lon="13.1666565221">
        <ele>540.4</ele>
        <time>2012-01-15T13:29:07Z</time>
      </trkpt>
      <trkpt lat="63.4009070322" lon="13.1665695179">
        <ele>541</ele>
        <time>2012-01-15T13:29:09Z</time>
      </trkpt>
      <trkpt lat="63.4008880891" lon="13.1664279476">
        <ele>540.6</ele>
        <time>2012-01-15T13:29:14Z</time>
      </trkpt>
      <trkpt lat="63.4008149989" lon="13.1662088446">
        <ele>539.8</ele>
        <time>2012-01-15T13:29:20Z</time>
      </trkpt>
      <trkpt lat="63.4007384721" lon="13.1659896579">
        <ele>539.8</ele>
        <time>2012-01-15T13:29:25Z</time>
      </trkpt>
      <trkpt lat="63.4006642923" lon="13.1657947786">
        <ele>540.2</ele>
        <time>2012-01-15T13:29:30Z</time>
      </trkpt>
      <trkpt lat="63.4006282501" lon="13.1656059343">
        <ele>540.6</ele>
        <time>2012-01-15T13:29:34Z</time>
      </trkpt>
      <trkpt lat="63.4006087203" lon="13.1655095425">
        <ele>541.6</ele>
        <time>2012-01-15T13:29:36Z</time>
      </trkpt>
      <trkpt lat="63.4005666431" lon="13.1653874181">
        <ele>541</ele>
        <time>2012-01-15T13:29:40Z</time>
      </trkpt>
      <trkpt lat="63.4005321097" lon="13.1652549002">
        <ele>541.6</ele>
        <time>2012-01-15T13:29:46Z</time>
      </trkpt>
      <trkpt lat="63.4005432576" lon="13.1652422436">
        <ele>543.2</ele>
        <time>2012-01-15T13:29:51Z</time>
      </trkpt>
      <trkpt lat="63.4005451854" lon="13.1652605999">
        <ele>544.4</ele>
        <time>2012-01-15T13:29:58Z</time>
      </trkpt>
      <trkpt lat="63.4005171899" lon="13.1652129069">
        <ele>546.2</ele>
        <time>2012-01-15T13:30:10Z</time>
      </trkpt>
      <trkpt lat="63.4005074669" lon="13.16519388">
        <ele>546.2</ele>
        <time>2012-01-15T13:30:11Z</time>
      </trkpt>
      <trkpt lat="63.4004730172" lon="13.1650265772">
        <ele>546.8</ele>
        <time>2012-01-15T13:30:14Z</time>
      </trkpt>
      <trkpt lat="63.4004586004" lon="13.1649700832">
        <ele>546.8</ele>
        <time>2012-01-15T13:30:15Z</time>
      </trkpt>
      <trkpt lat="63.4003775474" lon="13.1646816619">
        <ele>546.8</ele>
        <time>2012-01-15T13:30:19Z</time>
      </trkpt>
      <trkpt lat="63.4002902079" lon="13.1644023769">
        <ele>547</ele>
        <time>2012-01-15T13:30:24Z</time>
      </trkpt>
      <trkpt lat="63.4002117533" lon="13.1641392689">
        <ele>546.8</ele>
        <time>2012-01-15T13:30:28Z</time>
      </trkpt>
      <trkpt lat="63.4001369867" lon="13.1637583952">
        <ele>546.8</ele>
        <time>2012-01-15T13:30:35Z</time>
      </trkpt>
      <trkpt lat="63.4000968374" lon="13.1634195149">
        <ele>546.6</ele>
        <time>2012-01-15T13:30:40Z</time>
      </trkpt>
      <trkpt lat="63.4000668302" lon="13.163118856">
        <ele>546.2</ele>
        <time>2012-01-15T13:30:45Z</time>
      </trkpt>
      <trkpt lat="63.4000216518" lon="13.1628064625">
        <ele>546.4</ele>
        <time>2012-01-15T13:30:50Z</time>
      </trkpt>
      <trkpt lat="63.3999700192" lon="13.1624376588">
        <ele>546.8</ele>
        <time>2012-01-15T13:30:56Z</time>
      </trkpt>
      <trkpt lat="63.3999218233" lon="13.1620722916">
        <ele>546.6</ele>
        <time>2012-01-15T13:31:01Z</time>
      </trkpt>
      <trkpt lat="63.3998641558" lon="13.16182293">
        <ele>546.4</ele>
        <time>2012-01-15T13:31:05Z</time>
      </trkpt>
      <trkpt lat="63.3998136967" lon="13.161480194">
        <ele>546.4</ele>
        <time>2012-01-15T13:31:10Z</time>
      </trkpt>
      <trkpt lat="63.3998050634" lon="13.1610760186">
        <ele>545.6</ele>
        <time>2012-01-15T13:31:16Z</time>
      </trkpt>
      <trkpt lat="63.3998076618" lon="13.1610060297">
        <ele>546.6</ele>
        <time>2012-01-15T13:31:17Z</time>
      </trkpt>
      <trkpt lat="63.3998227492" lon="13.1608586758">
        <ele>546.8</ele>
        <time>2012-01-15T13:31:20Z</time>
      </trkpt>
      <trkpt lat="63.3998258505" lon="13.1605485454">
        <ele>548.6</ele>
        <time>2012-01-15T13:31:25Z</time>
      </trkpt>
      <trkpt lat="63.3998152055" lon="13.1602334697">
        <ele>548.6</ele>
        <time>2012-01-15T13:31:30Z</time>
      </trkpt>
      <trkpt lat="63.3997960947" lon="13.1598913204">
        <ele>549.2</ele>
        <time>2012-01-15T13:31:35Z</time>
      </trkpt>
      <trkpt lat="63.3997372538" lon="13.1595668569">
        <ele>549.6</ele>
        <time>2012-01-15T13:31:40Z</time>
      </trkpt>
      <trkpt lat="63.3996733837" lon="13.159334762">
        <ele>550.4</ele>
        <time>2012-01-15T13:31:45Z</time>
      </trkpt>
      <trkpt lat="63.3996252716" lon="13.1591151562">
        <ele>550.6</ele>
        <time>2012-01-15T13:31:49Z</time>
      </trkpt>
      <trkpt lat="63.3995597251" lon="13.15887996">
        <ele>550</ele>
        <time>2012-01-15T13:31:54Z</time>
      </trkpt>
      <trkpt lat="63.3994924184" lon="13.1585554127">
        <ele>549</ele>
        <time>2012-01-15T13:31:57Z</time>
      </trkpt>
      <trkpt lat="63.399404157" lon="13.1581565179">
        <ele>549.2</ele>
        <time>2012-01-15T13:32:02Z</time>
      </trkpt>
      <trkpt lat="63.3993864711" lon="13.1580780633">
        <ele>549.6</ele>
        <time>2012-01-15T13:32:03Z</time>
      </trkpt>
      <trkpt lat="63.3993657678" lon="13.1580227427">
        <ele>549.8</ele>
        <time>2012-01-15T13:32:04Z</time>
      </trkpt>
      <trkpt lat="63.399317991" lon="13.1577994488">
        <ele>549.4</ele>
        <time>2012-01-15T13:32:08Z</time>
      </trkpt>
      <trkpt lat="63.3992379438" lon="13.1576235127">
        <ele>550</ele>
        <time>2012-01-15T13:32:12Z</time>
      </trkpt>
      <trkpt lat="63.3990848064" lon="13.1575443037">
        <ele>550</ele>
        <time>2012-01-15T13:32:16Z</time>
      </trkpt>
      <trkpt lat="63.3989019133" lon="13.1575427949">
        <ele>549.2</ele>
        <time>2012-01-15T13:32:20Z</time>
      </trkpt>
      <trkpt lat="63.3988569025" lon="13.1575553678">
        <ele>549</ele>
        <time>2012-01-15T13:32:21Z</time>
      </trkpt>
      <trkpt lat="63.398770066" lon="13.1576125324">
        <ele>548.2</ele>
        <time>2012-01-15T13:32:23Z</time>
      </trkpt>
      <trkpt lat="63.3986223768" lon="13.1577307172">
        <ele>546</ele>
        <time>2012-01-15T13:32:26Z</time>
      </trkpt>
      <trkpt lat="63.3985647932" lon="13.1577499956">
        <ele>544.8</ele>
        <time>2012-01-15T13:32:27Z</time>
      </trkpt>
      <trkpt lat="63.3984741848" lon="13.1577648316">
        <ele>543</ele>
        <time>2012-01-15T13:32:29Z</time>
      </trkpt>
      <trkpt lat="63.3983989153" lon="13.1576875504">
        <ele>542</ele>
        <time>2012-01-15T13:32:31Z</time>
      </trkpt>
      <trkpt lat="63.3983205445" lon="13.1573890708">
        <ele>540.2</ele>
        <time>2012-01-15T13:32:35Z</time>
      </trkpt>
      <trkpt lat="63.3983057085" lon="13.1571024098">
        <ele>537.8</ele>
        <time>2012-01-15T13:32:39Z</time>
      </trkpt>
      <trkpt lat="63.3982867654" lon="13.1568110548">
        <ele>537.2</ele>
        <time>2012-01-15T13:32:43Z</time>
      </trkpt>
      <trkpt lat="63.3982801437" lon="13.156741485">
        <ele>537</ele>
        <time>2012-01-15T13:32:44Z</time>
      </trkpt>
      <trkpt lat="63.3982518967" lon="13.1563855894">
        <ele>538.6</ele>
        <time>2012-01-15T13:32:49Z</time>
      </trkpt>
      <trkpt lat="63.3982196264" lon="13.1561172009">
        <ele>538</ele>
        <time>2012-01-15T13:32:53Z</time>
      </trkpt>
      <trkpt lat="63.3981455304" lon="13.1557698548">
        <ele>540.6</ele>
        <time>2012-01-15T13:32:59Z</time>
      </trkpt>
      <trkpt lat="63.398103537" lon="13.1556917354">
        <ele>541.8</ele>
        <time>2012-01-15T13:33:02Z</time>
      </trkpt>
      <trkpt lat="63.3980755415" lon="13.1556389295">
        <ele>541.8</ele>
        <time>2012-01-15T13:33:03Z</time>
      </trkpt>
      <trkpt lat="63.3979624696" lon="13.1554836966">
        <ele>543</ele>
        <time>2012-01-15T13:33:07Z</time>
      </trkpt>
      <trkpt lat="63.3977981005" lon="13.1553325709">
        <ele>547</ele>
        <time>2012-01-15T13:33:11Z</time>
      </trkpt>
      <trkpt lat="63.397767758" lon="13.1553256977">
        <ele>547.4</ele>
        <time>2012-01-15T13:33:12Z</time>
      </trkpt>
      <trkpt lat="63.397633899" lon="13.1553051621">
        <ele>549.6</ele>
        <time>2012-01-15T13:33:17Z</time>
      </trkpt>
      <trkpt lat="63.3974734694" lon="13.1552007236">
        <ele>550.2</ele>
        <time>2012-01-15T13:33:22Z</time>
      </trkpt>
      <trkpt lat="63.3973033167" lon="13.1549940258">
        <ele>548.2</ele>
        <time>2012-01-15T13:33:26Z</time>
      </trkpt>
      <trkpt lat="63.3971666079" lon="13.154737372">
        <ele>545</ele>
        <time>2012-01-15T13:33:30Z</time>
      </trkpt>
      <trkpt lat="63.3971422166" lon="13.1546812132">
        <ele>544.4</ele>
        <time>2012-01-15T13:33:31Z</time>
      </trkpt>
      <trkpt lat="63.397111455" lon="13.1546372082">
        <ele>543.6</ele>
        <time>2012-01-15T13:33:32Z</time>
      </trkpt>
      <trkpt lat="63.3969895821" lon="13.1544974819">
        <ele>543.4</ele>
        <time>2012-01-15T13:33:35Z</time>
      </trkpt>
      <trkpt lat="63.3969496004" lon="13.1544749346">
        <ele>543</ele>
        <time>2012-01-15T13:33:36Z</time>
      </trkpt>
      <trkpt lat="63.396723792" lon="13.1544063706">
        <ele>543</ele>
        <time>2012-01-15T13:33:41Z</time>
      </trkpt>
      <trkpt lat="63.3964997437" lon="13.1543715857">
        <ele>543.2</ele>
        <time>2012-01-15T13:33:46Z</time>
      </trkpt>
      <trkpt lat="63.3964499552" lon="13.154389523">
        <ele>542.8</ele>
        <time>2012-01-15T13:33:47Z</time>
      </trkpt>
      <trkpt lat="63.3962548245" lon="13.1544833165">
        <ele>541.2</ele>
        <time>2012-01-15T13:33:51Z</time>
      </trkpt>
      <trkpt lat="63.3961186185" lon="13.1543507148">
        <ele>539.4</ele>
        <time>2012-01-15T13:33:55Z</time>
      </trkpt>
      <trkpt lat="63.3959999308" lon="13.1540783029">
        <ele>538.8</ele>
        <time>2012-01-15T13:33:59Z</time>
      </trkpt>
      <trkpt lat="63.3959372342" lon="13.1539353076">
        <ele>539.4</ele>
        <time>2012-01-15T13:34:02Z</time>
      </trkpt>
      <trkpt lat="63.3959195483" lon="13.1539058872">
        <ele>539.2</ele>
        <time>2012-01-15T13:34:03Z</time>
      </trkpt>
      <trkpt lat="63.3958469611" lon="13.1538239121">
        <ele>541.8</ele>
        <time>2012-01-15T13:34:08Z</time>
      </trkpt>
      <trkpt lat="63.3957343921" lon="13.1535903923">
        <ele>545</ele>
        <time>2012-01-15T13:34:14Z</time>
      </trkpt>
      <trkpt lat="63.3955954202" lon="13.1534328964">
        <ele>546.6</ele>
        <time>2012-01-15T13:34:19Z</time>
      </trkpt>
      <trkpt lat="63.3955097571" lon="13.1534116901">
        <ele>547.2</ele>
        <time>2012-01-15T13:34:23Z</time>
      </trkpt>
      <trkpt lat="63.3954820968" lon="13.1534257717">
        <ele>548.8</ele>
        <time>2012-01-15T13:34:28Z</time>
      </trkpt>
      <trkpt lat="63.3954863716" lon="13.1534316391">
        <ele>548.8</ele>
        <time>2012-01-15T13:34:36Z</time>
      </trkpt>
      <trkpt lat="63.3953673486" lon="13.153459467">
        <ele>543.8</ele>
        <time>2012-01-15T13:35:16Z</time>
      </trkpt>
      <trkpt lat="63.3952353336" lon="13.1534604728">
        <ele>544.4</ele>
        <time>2012-01-15T13:35:21Z</time>
      </trkpt>
      <trkpt lat="63.3951266203" lon="13.1534955092">
        <ele>545.4</ele>
        <time>2012-01-15T13:35:25Z</time>
      </trkpt>
      <trkpt lat="63.395051267" lon="13.1534415297">
        <ele>547.4</ele>
        <time>2012-01-15T13:35:28Z</time>
      </trkpt>
      <trkpt lat="63.3950236905" lon="13.1534234248">
        <ele>548</ele>
        <time>2012-01-15T13:35:29Z</time>
      </trkpt>
      <trkpt lat="63.3949314058" lon="13.1535110995">
        <ele>551.2</ele>
        <time>2012-01-15T13:35:33Z</time>
      </trkpt>
      <trkpt lat="63.3948730677" lon="13.1535535119">
        <ele>551.6</ele>
        <time>2012-01-15T13:35:35Z</time>
      </trkpt>
      <trkpt lat="63.3947823755" lon="13.1535968464">
        <ele>552</ele>
        <time>2012-01-15T13:35:38Z</time>
      </trkpt>
      <trkpt lat="63.394603841" lon="13.1537608802">
        <ele>549.8</ele>
        <time>2012-01-15T13:35:42Z</time>
      </trkpt>
      <trkpt lat="63.3944123145" lon="13.1539354753">
        <ele>548.8</ele>
        <time>2012-01-15T13:35:47Z</time>
      </trkpt>
      <trkpt lat="63.3943781164" lon="13.1539743673">
        <ele>548.6</ele>
        <time>2012-01-15T13:35:48Z</time>
      </trkpt>
      <trkpt lat="63.3942783717" lon="13.1540057994">
        <ele>548.6</ele>
        <time>2012-01-15T13:35:52Z</time>
      </trkpt>
      <trkpt lat="63.3940988313" lon="13.1540496368">
        <ele>548.6</ele>
        <time>2012-01-15T13:36:01Z</time>
      </trkpt>
      <trkpt lat="63.3940210473" lon="13.1541726831">
        <ele>550.8</ele>
        <time>2012-01-15T13:36:06Z</time>
      </trkpt>
      <trkpt lat="63.3938943129" lon="13.1541905366">
        <ele>551</ele>
        <time>2012-01-15T13:36:11Z</time>
      </trkpt>
      <trkpt lat="63.3937698416" lon="13.1542719249">
        <ele>552</ele>
        <time>2012-01-15T13:36:15Z</time>
      </trkpt>
      <trkpt lat="63.3936177101" lon="13.1544901058">
        <ele>551.6</ele>
        <time>2012-01-15T13:36:19Z</time>
      </trkpt>
      <trkpt lat="63.3934558555" lon="13.154827226">
        <ele>550</ele>
        <time>2012-01-15T13:36:23Z</time>
      </trkpt>
      <trkpt lat="63.393364409" lon="13.1549522839">
        <ele>549.6</ele>
        <time>2012-01-15T13:36:25Z</time>
      </trkpt>
      <trkpt lat="63.393240273" lon="13.1551195867">
        <ele>547.8</ele>
        <time>2012-01-15T13:36:28Z</time>
      </trkpt>
      <trkpt lat="63.393188389" lon="13.1551987957">
        <ele>546.6</ele>
        <time>2012-01-15T13:36:30Z</time>
      </trkpt>
      <trkpt lat="63.3930769935" lon="13.1554515939">
        <ele>544.4</ele>
        <time>2012-01-15T13:36:34Z</time>
      </trkpt>
      <trkpt lat="63.3930255286" lon="13.1556267757">
        <ele>542.4</ele>
        <time>2012-01-15T13:36:36Z</time>
      </trkpt>
      <trkpt lat="63.3929705434" lon="13.1558368262">
        <ele>540.8</ele>
        <time>2012-01-15T13:36:39Z</time>
      </trkpt>
      <trkpt lat="63.3929253649" lon="13.1561060529">
        <ele>540</ele>
        <time>2012-01-15T13:36:42Z</time>
      </trkpt>
      <trkpt lat="63.3928940166" lon="13.1563049555">
        <ele>538.4</ele>
        <time>2012-01-15T13:36:44Z</time>
      </trkpt>
      <trkpt lat="63.3928386122" lon="13.1565516349">
        <ele>538.4</ele>
        <time>2012-01-15T13:36:47Z</time>
      </trkpt>
      <trkpt lat="63.3928171545" lon="13.1566364598">
        <ele>538.4</ele>
        <time>2012-01-15T13:36:48Z</time>
      </trkpt>
      <trkpt lat="63.3927080221" lon="13.1568819657">
        <ele>539.2</ele>
        <time>2012-01-15T13:36:53Z</time>
      </trkpt>
      <trkpt lat="63.3926502708" lon="13.1569915172">
        <ele>541.4</ele>
        <time>2012-01-15T13:36:56Z</time>
      </trkpt>
      <trkpt lat="63.3926352672" lon="13.1570495199">
        <ele>542.4</ele>
        <time>2012-01-15T13:36:57Z</time>
      </trkpt>
      <trkpt lat="63.3925245423" lon="13.1572005618">
        <ele>548.6</ele>
        <time>2012-01-15T13:37:02Z</time>
      </trkpt>
      <trkpt lat="63.3923868276" lon="13.1572881527">
        <ele>552.8</ele>
        <time>2012-01-15T13:37:08Z</time>
      </trkpt>
      <trkpt lat="63.3922833949" lon="13.1573432218">
        <ele>555.8</ele>
        <time>2012-01-15T13:37:13Z</time>
      </trkpt>
      <trkpt lat="63.3921828121" lon="13.1574462354">
        <ele>556.4</ele>
        <time>2012-01-15T13:37:18Z</time>
      </trkpt>
      <trkpt lat="63.3920186944" lon="13.157641869">
        <ele>557.2</ele>
        <time>2012-01-15T13:37:23Z</time>
      </trkpt>
      <trkpt lat="63.3918823209" lon="13.1576471496">
        <ele>557</ele>
        <time>2012-01-15T13:37:27Z</time>
      </trkpt>
      <trkpt lat="63.3918217197" lon="13.1575401966">
        <ele>556.4</ele>
        <time>2012-01-15T13:37:29Z</time>
      </trkpt>
      <trkpt lat="63.3917642199" lon="13.1573788449">
        <ele>554.4</ele>
        <time>2012-01-15T13:37:31Z</time>
      </trkpt>
      <trkpt lat="63.3916290198" lon="13.1570209377">
        <ele>552.6</ele>
        <time>2012-01-15T13:37:36Z</time>
      </trkpt>
      <trkpt lat="63.3915369026" lon="13.1568070315">
        <ele>552.4</ele>
        <time>2012-01-15T13:37:39Z</time>
      </trkpt>
      <trkpt lat="63.391508488" lon="13.1567559019">
        <ele>552.2</ele>
        <time>2012-01-15T13:37:40Z</time>
      </trkpt>
      <trkpt lat="63.3913958352" lon="13.1565132458">
        <ele>552.8</ele>
        <time>2012-01-15T13:37:45Z</time>
      </trkpt>
      <trkpt lat="63.3912459668" lon="13.1562754512">
        <ele>551.6</ele>
        <time>2012-01-15T13:37:51Z</time>
      </trkpt>
      <trkpt lat="63.3911539335" lon="13.156037908">
        <ele>551.8</ele>
        <time>2012-01-15T13:37:55Z</time>
      </trkpt>
      <trkpt lat="63.3910699468" lon="13.1557667535">
        <ele>552</ele>
        <time>2012-01-15T13:38:00Z</time>
      </trkpt>
      <trkpt lat="63.3909825236" lon="13.1554695312">
        <ele>551.2</ele>
        <time>2012-01-15T13:38:04Z</time>
      </trkpt>
      <trkpt lat="63.3908713795" lon="13.1550789345">
        <ele>550.4</ele>
        <time>2012-01-15T13:38:08Z</time>
      </trkpt>
      <trkpt lat="63.3907653484" lon="13.1546951272">
        <ele>547</ele>
        <time>2012-01-15T13:38:10Z</time>
      </trkpt>
      <trkpt lat="63.3906879835" lon="13.1543627009">
        <ele>544</ele>
        <time>2012-01-15T13:38:12Z</time>
      </trkpt>
      <trkpt lat="63.3906317409" lon="13.1540251616">
        <ele>542.6</ele>
        <time>2012-01-15T13:38:14Z</time>
      </trkpt>
      <trkpt lat="63.3906201739" lon="13.153616963">
        <ele>541.4</ele>
        <time>2012-01-15T13:38:16Z</time>
      </trkpt>
      <trkpt lat="63.3906251192" lon="13.1534453016">
        <ele>540.4</ele>
        <time>2012-01-15T13:38:17Z</time>
      </trkpt>
      <trkpt lat="63.3906793501" lon="13.1528813671">
        <ele>538.2</ele>
        <time>2012-01-15T13:38:20Z</time>
      </trkpt>
      <trkpt lat="63.3907041606" lon="13.1527195964">
        <ele>538.4</ele>
        <time>2012-01-15T13:38:21Z</time>
      </trkpt>
      <trkpt lat="63.3907397836" lon="13.152299244">
        <ele>537.4</ele>
        <time>2012-01-15T13:38:24Z</time>
      </trkpt>
      <trkpt lat="63.3907440584" lon="13.1522105634">
        <ele>538</ele>
        <time>2012-01-15T13:38:25Z</time>
      </trkpt>
      <trkpt lat="63.3907889016" lon="13.151924992">
        <ele>540.8</ele>
        <time>2012-01-15T13:38:29Z</time>
      </trkpt>
      <trkpt lat="63.3908340801" lon="13.1517560966">
        <ele>543.8</ele>
        <time>2012-01-15T13:38:33Z</time>
      </trkpt>
      <trkpt lat="63.3909326512" lon="13.1515509076">
        <ele>545.2</ele>
        <time>2012-01-15T13:38:37Z</time>
      </trkpt>
      <trkpt lat="63.391055027" lon="13.1514112651">
        <ele>545.2</ele>
        <time>2012-01-15T13:38:42Z</time>
      </trkpt>
      <trkpt lat="63.3911055699" lon="13.1513344031">
        <ele>546.4</ele>
        <time>2012-01-15T13:38:45Z</time>
      </trkpt>
      <trkpt lat="63.3911185618" lon="13.1513059884">
        <ele>546.6</ele>
        <time>2012-01-15T13:38:46Z</time>
      </trkpt>
      <trkpt lat="63.391159717" lon="13.1512743048">
        <ele>546.8</ele>
        <time>2012-01-15T13:38:50Z</time>
      </trkpt>
      <trkpt lat="63.3911708649" lon="13.151223762">
        <ele>547</ele>
        <time>2012-01-15T13:38:53Z</time>
      </trkpt>
      <trkpt lat="63.3911763132" lon="13.1512018014">
        <ele>547.2</ele>
        <time>2012-01-15T13:38:54Z</time>
      </trkpt>
      <trkpt lat="63.3911860362" lon="13.1511422899">
        <ele>546.8</ele>
        <time>2012-01-15T13:38:56Z</time>
      </trkpt>
      <trkpt lat="63.3911913168" lon="13.1510706246">
        <ele>546.6</ele>
        <time>2012-01-15T13:38:58Z</time>
      </trkpt>
      <trkpt lat="63.3912207372" lon="13.1508420501">
        <ele>546.6</ele>
        <time>2012-01-15T13:39:03Z</time>
      </trkpt>
      <trkpt lat="63.3912556898" lon="13.1505793612">
        <ele>546.8</ele>
        <time>2012-01-15T13:39:09Z</time>
      </trkpt>
      <trkpt lat="63.3912803326" lon="13.1502690632">
        <ele>547.6</ele>
        <time>2012-01-15T13:39:15Z</time>
      </trkpt>
      <trkpt lat="63.3913161233" lon="13.1500039436">
        <ele>549</ele>
        <time>2012-01-15T13:39:20Z</time>
      </trkpt>
      <trkpt lat="63.3913202304" lon="13.1497656461">
        <ele>549.6</ele>
        <time>2012-01-15T13:39:25Z</time>
      </trkpt>
      <trkpt lat="63.3912872896" lon="13.1496406719">
        <ele>550.2</ele>
        <time>2012-01-15T13:39:30Z</time>
      </trkpt>
    </trkseg>
  </trk>
</gpx>